<?xml version="1.0" encoding="UTF-8" standalone="no" ?>
<gpx xmlns="http://www.topografix.com/GPX/1/1" xmlns:xsi="http://www.w3.org/2001/XMLSchema-instance" xsi:schemaLocation="http://www.topografix.com/GPX/1/1 http://www.topografix.com/GPX/1/1/gpx.xsd" version="1.1" creator="VisuGPX - https://www.visugpx.com">
  <metadata>
    <name>Bignan - Kerguehennec (N° 56)</name>
    <desc><![CDATA[Circuit moyennement balisé
A voir : Le château de Kerguéhennec et son parc.
            Les sculptures contemporaines.
            La chapelle de la Trinité.]]></desc>
  </metadata>
  <trk>
    <name><![CDATA[Tracé 23 sept. 2012 09:24:55]]></name>
    <trkseg>
      <trkpt lat="47.87816" lon="-2.77369">
        <ele>134</ele>
        <time>2012-09-23T07:24:55Z</time>
      </trkpt>
      <trkpt lat="47.87818" lon="-2.77356">
        <ele>129</ele>
        <time>2012-09-23T07:27:19Z</time>
      </trkpt>
      <trkpt lat="47.8781" lon="-2.77351">
        <ele>129</ele>
        <time>2012-09-23T07:27:30Z</time>
      </trkpt>
      <trkpt lat="47.87807" lon="-2.77362">
        <ele>123</ele>
        <time>2012-09-23T07:28:07Z</time>
      </trkpt>
      <trkpt lat="47.87802" lon="-2.77372">
        <ele>124</ele>
        <time>2012-09-23T07:28:13Z</time>
      </trkpt>
      <trkpt lat="47.87794" lon="-2.77371">
        <ele>124</ele>
        <time>2012-09-23T07:28:27Z</time>
      </trkpt>
      <trkpt lat="47.87787" lon="-2.77365">
        <ele>124</ele>
        <time>2012-09-23T07:28:35Z</time>
      </trkpt>
      <trkpt lat="47.87779" lon="-2.7736">
        <ele>123</ele>
        <time>2012-09-23T07:28:41Z</time>
      </trkpt>
      <trkpt lat="47.87771" lon="-2.77356">
        <ele>123</ele>
        <time>2012-09-23T07:28:47Z</time>
      </trkpt>
      <trkpt lat="47.87764" lon="-2.77351">
        <ele>123</ele>
        <time>2012-09-23T07:28:54Z</time>
      </trkpt>
      <trkpt lat="47.87756" lon="-2.77347">
        <ele>123</ele>
        <time>2012-09-23T07:28:59Z</time>
      </trkpt>
      <trkpt lat="47.87749" lon="-2.77342">
        <ele>123</ele>
        <time>2012-09-23T07:29:05Z</time>
      </trkpt>
      <trkpt lat="47.87741" lon="-2.77337">
        <ele>123</ele>
        <time>2012-09-23T07:29:12Z</time>
      </trkpt>
      <trkpt lat="47.87734" lon="-2.77333">
        <ele>122</ele>
        <time>2012-09-23T07:29:18Z</time>
      </trkpt>
      <trkpt lat="47.87726" lon="-2.77329">
        <ele>122</ele>
        <time>2012-09-23T07:29:25Z</time>
      </trkpt>
      <trkpt lat="47.87718" lon="-2.77325">
        <ele>122</ele>
        <time>2012-09-23T07:29:30Z</time>
      </trkpt>
      <trkpt lat="47.8771" lon="-2.7732">
        <ele>122</ele>
        <time>2012-09-23T07:29:37Z</time>
      </trkpt>
      <trkpt lat="47.87704" lon="-2.77313">
        <ele>122</ele>
        <time>2012-09-23T07:29:42Z</time>
      </trkpt>
      <trkpt lat="47.87698" lon="-2.77303">
        <ele>121</ele>
        <time>2012-09-23T07:29:49Z</time>
      </trkpt>
      <trkpt lat="47.87702" lon="-2.77293">
        <ele>121</ele>
        <time>2012-09-23T07:29:54Z</time>
      </trkpt>
      <trkpt lat="47.87709" lon="-2.77285">
        <ele>120</ele>
        <time>2012-09-23T07:29:59Z</time>
      </trkpt>
      <trkpt lat="47.87715" lon="-2.77276">
        <ele>121</ele>
        <time>2012-09-23T07:30:05Z</time>
      </trkpt>
      <trkpt lat="47.8772" lon="-2.77268">
        <ele>121</ele>
        <time>2012-09-23T07:30:11Z</time>
      </trkpt>
      <trkpt lat="47.87726" lon="-2.7726">
        <ele>121</ele>
        <time>2012-09-23T07:30:16Z</time>
      </trkpt>
      <trkpt lat="47.87732" lon="-2.77252">
        <ele>120</ele>
        <time>2012-09-23T07:30:20Z</time>
      </trkpt>
      <trkpt lat="47.87738" lon="-2.77244">
        <ele>120</ele>
        <time>2012-09-23T07:30:26Z</time>
      </trkpt>
      <trkpt lat="47.87743" lon="-2.77234">
        <ele>120</ele>
        <time>2012-09-23T07:30:31Z</time>
      </trkpt>
      <trkpt lat="47.87749" lon="-2.77225">
        <ele>120</ele>
        <time>2012-09-23T07:30:37Z</time>
      </trkpt>
      <trkpt lat="47.87754" lon="-2.77215">
        <ele>120</ele>
        <time>2012-09-23T07:30:43Z</time>
      </trkpt>
      <trkpt lat="47.87759" lon="-2.77205">
        <ele>121</ele>
        <time>2012-09-23T07:30:49Z</time>
      </trkpt>
      <trkpt lat="47.87764" lon="-2.77194">
        <ele>121</ele>
        <time>2012-09-23T07:30:56Z</time>
      </trkpt>
      <trkpt lat="47.87769" lon="-2.77183">
        <ele>121</ele>
        <time>2012-09-23T07:31:02Z</time>
      </trkpt>
      <trkpt lat="47.87772" lon="-2.77172">
        <ele>121</ele>
        <time>2012-09-23T07:31:06Z</time>
      </trkpt>
      <trkpt lat="47.87772" lon="-2.77159">
        <ele>121</ele>
        <time>2012-09-23T07:31:13Z</time>
      </trkpt>
      <trkpt lat="47.87767" lon="-2.77148">
        <ele>122</ele>
        <time>2012-09-23T07:31:19Z</time>
      </trkpt>
      <trkpt lat="47.87761" lon="-2.77141">
        <ele>122</ele>
        <time>2012-09-23T07:31:23Z</time>
      </trkpt>
      <trkpt lat="47.87755" lon="-2.77134">
        <ele>121</ele>
        <time>2012-09-23T07:31:29Z</time>
      </trkpt>
      <trkpt lat="47.87748" lon="-2.77125">
        <ele>121</ele>
        <time>2012-09-23T07:31:35Z</time>
      </trkpt>
      <trkpt lat="47.87743" lon="-2.77116">
        <ele>120</ele>
        <time>2012-09-23T07:31:41Z</time>
      </trkpt>
      <trkpt lat="47.87737" lon="-2.77108">
        <ele>121</ele>
        <time>2012-09-23T07:31:46Z</time>
      </trkpt>
      <trkpt lat="47.87732" lon="-2.77098">
        <ele>120</ele>
        <time>2012-09-23T07:31:52Z</time>
      </trkpt>
      <trkpt lat="47.87726" lon="-2.7709">
        <ele>120</ele>
        <time>2012-09-23T07:31:56Z</time>
      </trkpt>
      <trkpt lat="47.8772" lon="-2.77084">
        <ele>120</ele>
        <time>2012-09-23T07:32:01Z</time>
      </trkpt>
      <trkpt lat="47.87712" lon="-2.77077">
        <ele>120</ele>
        <time>2012-09-23T07:32:07Z</time>
      </trkpt>
      <trkpt lat="47.87706" lon="-2.77068">
        <ele>119</ele>
        <time>2012-09-23T07:32:14Z</time>
      </trkpt>
      <trkpt lat="47.87699" lon="-2.77059">
        <ele>120</ele>
        <time>2012-09-23T07:32:20Z</time>
      </trkpt>
      <trkpt lat="47.87694" lon="-2.77052">
        <ele>120</ele>
        <time>2012-09-23T07:32:24Z</time>
      </trkpt>
      <trkpt lat="47.87687" lon="-2.77045">
        <ele>121</ele>
        <time>2012-09-23T07:32:29Z</time>
      </trkpt>
      <trkpt lat="47.8768" lon="-2.77038">
        <ele>120</ele>
        <time>2012-09-23T07:32:35Z</time>
      </trkpt>
      <trkpt lat="47.87672" lon="-2.77032">
        <ele>120</ele>
        <time>2012-09-23T07:32:41Z</time>
      </trkpt>
      <trkpt lat="47.87663" lon="-2.77029">
        <ele>119</ele>
        <time>2012-09-23T07:32:47Z</time>
      </trkpt>
      <trkpt lat="47.87655" lon="-2.77027">
        <ele>118</ele>
        <time>2012-09-23T07:32:52Z</time>
      </trkpt>
      <trkpt lat="47.87647" lon="-2.77026">
        <ele>119</ele>
        <time>2012-09-23T07:32:57Z</time>
      </trkpt>
      <trkpt lat="47.87638" lon="-2.77025">
        <ele>118</ele>
        <time>2012-09-23T07:33:03Z</time>
      </trkpt>
      <trkpt lat="47.8763" lon="-2.77025">
        <ele>118</ele>
        <time>2012-09-23T07:33:09Z</time>
      </trkpt>
      <trkpt lat="47.87622" lon="-2.77024">
        <ele>118</ele>
        <time>2012-09-23T07:33:14Z</time>
      </trkpt>
      <trkpt lat="47.87614" lon="-2.77021">
        <ele>118</ele>
        <time>2012-09-23T07:33:20Z</time>
      </trkpt>
      <trkpt lat="47.87606" lon="-2.77016">
        <ele>118</ele>
        <time>2012-09-23T07:33:27Z</time>
      </trkpt>
      <trkpt lat="47.87599" lon="-2.7701">
        <ele>118</ele>
        <time>2012-09-23T07:33:32Z</time>
      </trkpt>
      <trkpt lat="47.87593" lon="-2.77003">
        <ele>118</ele>
        <time>2012-09-23T07:33:38Z</time>
      </trkpt>
      <trkpt lat="47.87587" lon="-2.76996">
        <ele>118</ele>
        <time>2012-09-23T07:33:45Z</time>
      </trkpt>
      <trkpt lat="47.87581" lon="-2.76988">
        <ele>118</ele>
        <time>2012-09-23T07:33:50Z</time>
      </trkpt>
      <trkpt lat="47.87575" lon="-2.7698">
        <ele>118</ele>
        <time>2012-09-23T07:33:57Z</time>
      </trkpt>
      <trkpt lat="47.8757" lon="-2.76972">
        <ele>118</ele>
        <time>2012-09-23T07:34:02Z</time>
      </trkpt>
      <trkpt lat="47.87564" lon="-2.76963">
        <ele>118</ele>
        <time>2012-09-23T07:34:09Z</time>
      </trkpt>
      <trkpt lat="47.87558" lon="-2.76954">
        <ele>119</ele>
        <time>2012-09-23T07:34:14Z</time>
      </trkpt>
      <trkpt lat="47.87553" lon="-2.76945">
        <ele>118</ele>
        <time>2012-09-23T07:34:20Z</time>
      </trkpt>
      <trkpt lat="47.87547" lon="-2.76936">
        <ele>118</ele>
        <time>2012-09-23T07:34:26Z</time>
      </trkpt>
      <trkpt lat="47.87541" lon="-2.76926">
        <ele>118</ele>
        <time>2012-09-23T07:34:32Z</time>
      </trkpt>
      <trkpt lat="47.87536" lon="-2.76917">
        <ele>118</ele>
        <time>2012-09-23T07:34:38Z</time>
      </trkpt>
      <trkpt lat="47.87531" lon="-2.76909">
        <ele>118</ele>
        <time>2012-09-23T07:34:43Z</time>
      </trkpt>
      <trkpt lat="47.87526" lon="-2.769">
        <ele>118</ele>
        <time>2012-09-23T07:34:47Z</time>
      </trkpt>
      <trkpt lat="47.87521" lon="-2.76892">
        <ele>118</ele>
        <time>2012-09-23T07:34:53Z</time>
      </trkpt>
      <trkpt lat="47.87515" lon="-2.76883">
        <ele>118</ele>
        <time>2012-09-23T07:34:59Z</time>
      </trkpt>
      <trkpt lat="47.87508" lon="-2.76875">
        <ele>119</ele>
        <time>2012-09-23T07:35:10Z</time>
      </trkpt>
      <trkpt lat="47.87502" lon="-2.76866">
        <ele>118</ele>
        <time>2012-09-23T07:35:17Z</time>
      </trkpt>
      <trkpt lat="47.87496" lon="-2.76858">
        <ele>118</ele>
        <time>2012-09-23T07:35:23Z</time>
      </trkpt>
      <trkpt lat="47.8749" lon="-2.7685">
        <ele>118</ele>
        <time>2012-09-23T07:35:29Z</time>
      </trkpt>
      <trkpt lat="47.87483" lon="-2.76844">
        <ele>118</ele>
        <time>2012-09-23T07:35:35Z</time>
      </trkpt>
      <trkpt lat="47.87475" lon="-2.76837">
        <ele>118</ele>
        <time>2012-09-23T07:35:41Z</time>
      </trkpt>
      <trkpt lat="47.87466" lon="-2.76833">
        <ele>117</ele>
        <time>2012-09-23T07:35:47Z</time>
      </trkpt>
      <trkpt lat="47.87458" lon="-2.76829">
        <ele>117</ele>
        <time>2012-09-23T07:35:53Z</time>
      </trkpt>
      <trkpt lat="47.87459" lon="-2.76817">
        <ele>118</ele>
        <time>2012-09-23T07:36:02Z</time>
      </trkpt>
      <trkpt lat="47.87466" lon="-2.7681">
        <ele>119</ele>
        <time>2012-09-23T07:36:11Z</time>
      </trkpt>
      <trkpt lat="47.87471" lon="-2.76799">
        <ele>119</ele>
        <time>2012-09-23T07:36:18Z</time>
      </trkpt>
      <trkpt lat="47.87475" lon="-2.76788">
        <ele>119</ele>
        <time>2012-09-23T07:36:27Z</time>
      </trkpt>
      <trkpt lat="47.87476" lon="-2.76776">
        <ele>119</ele>
        <time>2012-09-23T07:36:37Z</time>
      </trkpt>
      <trkpt lat="47.87476" lon="-2.76763">
        <ele>119</ele>
        <time>2012-09-23T07:36:46Z</time>
      </trkpt>
      <trkpt lat="47.87479" lon="-2.76751">
        <ele>119</ele>
        <time>2012-09-23T07:36:53Z</time>
      </trkpt>
      <trkpt lat="47.87485" lon="-2.76741">
        <ele>119</ele>
        <time>2012-09-23T07:36:59Z</time>
      </trkpt>
      <trkpt lat="47.8749" lon="-2.76733">
        <ele>120</ele>
        <time>2012-09-23T07:37:03Z</time>
      </trkpt>
      <trkpt lat="47.87495" lon="-2.76724">
        <ele>120</ele>
        <time>2012-09-23T07:37:08Z</time>
      </trkpt>
      <trkpt lat="47.875" lon="-2.76713">
        <ele>119</ele>
        <time>2012-09-23T07:37:14Z</time>
      </trkpt>
      <trkpt lat="47.87502" lon="-2.76701">
        <ele>119</ele>
        <time>2012-09-23T07:37:20Z</time>
      </trkpt>
      <trkpt lat="47.87502" lon="-2.76689">
        <ele>119</ele>
        <time>2012-09-23T07:37:27Z</time>
      </trkpt>
      <trkpt lat="47.87503" lon="-2.76677">
        <ele>119</ele>
        <time>2012-09-23T07:37:32Z</time>
      </trkpt>
      <trkpt lat="47.87508" lon="-2.76666">
        <ele>111</ele>
        <time>2012-09-23T07:37:38Z</time>
      </trkpt>
      <trkpt lat="47.87515" lon="-2.76656">
        <ele>111</ele>
        <time>2012-09-23T07:37:42Z</time>
      </trkpt>
      <trkpt lat="47.87522" lon="-2.76647">
        <ele>111</ele>
        <time>2012-09-23T07:37:47Z</time>
      </trkpt>
      <trkpt lat="47.87527" lon="-2.76639">
        <ele>112</ele>
        <time>2012-09-23T07:37:52Z</time>
      </trkpt>
      <trkpt lat="47.87534" lon="-2.76632">
        <ele>112</ele>
        <time>2012-09-23T07:37:57Z</time>
      </trkpt>
      <trkpt lat="47.87541" lon="-2.76626">
        <ele>113</ele>
        <time>2012-09-23T07:38:01Z</time>
      </trkpt>
      <trkpt lat="47.87549" lon="-2.76622">
        <ele>114</ele>
        <time>2012-09-23T07:38:07Z</time>
      </trkpt>
      <trkpt lat="47.87558" lon="-2.7662">
        <ele>115</ele>
        <time>2012-09-23T07:38:13Z</time>
      </trkpt>
      <trkpt lat="47.87567" lon="-2.76616">
        <ele>112</ele>
        <time>2012-09-23T07:38:17Z</time>
      </trkpt>
      <trkpt lat="47.87574" lon="-2.76609">
        <ele>111</ele>
        <time>2012-09-23T07:38:23Z</time>
      </trkpt>
      <trkpt lat="47.87579" lon="-2.76599">
        <ele>110</ele>
        <time>2012-09-23T07:38:29Z</time>
      </trkpt>
      <trkpt lat="47.8758" lon="-2.76586">
        <ele>110</ele>
        <time>2012-09-23T07:38:35Z</time>
      </trkpt>
      <trkpt lat="47.87577" lon="-2.76575">
        <ele>109</ele>
        <time>2012-09-23T07:38:41Z</time>
      </trkpt>
      <trkpt lat="47.87573" lon="-2.76566">
        <ele>109</ele>
        <time>2012-09-23T07:38:47Z</time>
      </trkpt>
      <trkpt lat="47.87567" lon="-2.76556">
        <ele>108</ele>
        <time>2012-09-23T07:38:53Z</time>
      </trkpt>
      <trkpt lat="47.87562" lon="-2.76547">
        <ele>108</ele>
        <time>2012-09-23T07:38:59Z</time>
      </trkpt>
      <trkpt lat="47.87556" lon="-2.76539">
        <ele>108</ele>
        <time>2012-09-23T07:39:05Z</time>
      </trkpt>
      <trkpt lat="47.8755" lon="-2.76529">
        <ele>109</ele>
        <time>2012-09-23T07:39:11Z</time>
      </trkpt>
      <trkpt lat="47.87543" lon="-2.76522">
        <ele>110</ele>
        <time>2012-09-23T07:39:29Z</time>
      </trkpt>
      <trkpt lat="47.87538" lon="-2.76512">
        <ele>111</ele>
        <time>2012-09-23T07:39:35Z</time>
      </trkpt>
      <trkpt lat="47.87533" lon="-2.76503">
        <ele>111</ele>
        <time>2012-09-23T07:39:39Z</time>
      </trkpt>
      <trkpt lat="47.87528" lon="-2.76494">
        <ele>110</ele>
        <time>2012-09-23T07:39:44Z</time>
      </trkpt>
      <trkpt lat="47.87523" lon="-2.76485">
        <ele>109</ele>
        <time>2012-09-23T07:39:49Z</time>
      </trkpt>
      <trkpt lat="47.87519" lon="-2.76475">
        <ele>108</ele>
        <time>2012-09-23T07:39:54Z</time>
      </trkpt>
      <trkpt lat="47.87514" lon="-2.76466">
        <ele>108</ele>
        <time>2012-09-23T07:39:59Z</time>
      </trkpt>
      <trkpt lat="47.8751" lon="-2.76457">
        <ele>107</ele>
        <time>2012-09-23T07:40:05Z</time>
      </trkpt>
      <trkpt lat="47.87506" lon="-2.76448">
        <ele>106</ele>
        <time>2012-09-23T07:40:09Z</time>
      </trkpt>
      <trkpt lat="47.87503" lon="-2.76436">
        <ele>104</ele>
        <time>2012-09-23T07:40:15Z</time>
      </trkpt>
      <trkpt lat="47.87503" lon="-2.76424">
        <ele>103</ele>
        <time>2012-09-23T07:40:22Z</time>
      </trkpt>
      <trkpt lat="47.87506" lon="-2.76413">
        <ele>102</ele>
        <time>2012-09-23T07:40:28Z</time>
      </trkpt>
      <trkpt lat="47.8751" lon="-2.76402">
        <ele>101</ele>
        <time>2012-09-23T07:40:33Z</time>
      </trkpt>
      <trkpt lat="47.87513" lon="-2.7639">
        <ele>101</ele>
        <time>2012-09-23T07:40:39Z</time>
      </trkpt>
      <trkpt lat="47.87516" lon="-2.76378">
        <ele>101</ele>
        <time>2012-09-23T07:40:46Z</time>
      </trkpt>
      <trkpt lat="47.87518" lon="-2.76366">
        <ele>102</ele>
        <time>2012-09-23T07:40:52Z</time>
      </trkpt>
      <trkpt lat="47.8752" lon="-2.76355">
        <ele>103</ele>
        <time>2012-09-23T07:40:57Z</time>
      </trkpt>
      <trkpt lat="47.87524" lon="-2.76343">
        <ele>100</ele>
        <time>2012-09-23T07:41:03Z</time>
      </trkpt>
      <trkpt lat="47.87528" lon="-2.76333">
        <ele>100</ele>
        <time>2012-09-23T07:41:08Z</time>
      </trkpt>
      <trkpt lat="47.87532" lon="-2.76323">
        <ele>99</ele>
        <time>2012-09-23T07:41:13Z</time>
      </trkpt>
      <trkpt lat="47.87536" lon="-2.76313">
        <ele>99</ele>
        <time>2012-09-23T07:41:18Z</time>
      </trkpt>
      <trkpt lat="47.8754" lon="-2.76303">
        <ele>99</ele>
        <time>2012-09-23T07:41:24Z</time>
      </trkpt>
      <trkpt lat="47.87542" lon="-2.76292">
        <ele>99</ele>
        <time>2012-09-23T07:41:29Z</time>
      </trkpt>
      <trkpt lat="47.87541" lon="-2.7628">
        <ele>98</ele>
        <time>2012-09-23T07:41:33Z</time>
      </trkpt>
      <trkpt lat="47.87539" lon="-2.76268">
        <ele>98</ele>
        <time>2012-09-23T07:41:38Z</time>
      </trkpt>
      <trkpt lat="47.87536" lon="-2.76256">
        <ele>98</ele>
        <time>2012-09-23T07:41:44Z</time>
      </trkpt>
      <trkpt lat="47.87533" lon="-2.76243">
        <ele>98</ele>
        <time>2012-09-23T07:41:49Z</time>
      </trkpt>
      <trkpt lat="47.8753" lon="-2.76231">
        <ele>98</ele>
        <time>2012-09-23T07:41:53Z</time>
      </trkpt>
      <trkpt lat="47.87527" lon="-2.7622">
        <ele>98</ele>
        <time>2012-09-23T07:41:59Z</time>
      </trkpt>
      <trkpt lat="47.87522" lon="-2.76208">
        <ele>97</ele>
        <time>2012-09-23T07:42:03Z</time>
      </trkpt>
      <trkpt lat="47.87518" lon="-2.76197">
        <ele>97</ele>
        <time>2012-09-23T07:42:08Z</time>
      </trkpt>
      <trkpt lat="47.87514" lon="-2.76186">
        <ele>97</ele>
        <time>2012-09-23T07:42:14Z</time>
      </trkpt>
      <trkpt lat="47.87511" lon="-2.76173">
        <ele>96</ele>
        <time>2012-09-23T07:42:18Z</time>
      </trkpt>
      <trkpt lat="47.87509" lon="-2.76162">
        <ele>96</ele>
        <time>2012-09-23T07:42:23Z</time>
      </trkpt>
      <trkpt lat="47.87505" lon="-2.76152">
        <ele>96</ele>
        <time>2012-09-23T07:42:27Z</time>
      </trkpt>
      <trkpt lat="47.87501" lon="-2.76141">
        <ele>96</ele>
        <time>2012-09-23T07:42:33Z</time>
      </trkpt>
      <trkpt lat="47.87495" lon="-2.76131">
        <ele>96</ele>
        <time>2012-09-23T07:42:39Z</time>
      </trkpt>
      <trkpt lat="47.8749" lon="-2.76122">
        <ele>96</ele>
        <time>2012-09-23T07:42:45Z</time>
      </trkpt>
      <trkpt lat="47.87484" lon="-2.76113">
        <ele>96</ele>
        <time>2012-09-23T07:42:52Z</time>
      </trkpt>
      <trkpt lat="47.87477" lon="-2.76105">
        <ele>95</ele>
        <time>2012-09-23T07:42:57Z</time>
      </trkpt>
      <trkpt lat="47.87471" lon="-2.76097">
        <ele>95</ele>
        <time>2012-09-23T07:43:04Z</time>
      </trkpt>
      <trkpt lat="47.87464" lon="-2.76089">
        <ele>95</ele>
        <time>2012-09-23T07:43:09Z</time>
      </trkpt>
      <trkpt lat="47.87458" lon="-2.7608">
        <ele>94</ele>
        <time>2012-09-23T07:43:15Z</time>
      </trkpt>
      <trkpt lat="47.87451" lon="-2.76071">
        <ele>93</ele>
        <time>2012-09-23T07:43:22Z</time>
      </trkpt>
      <trkpt lat="47.87445" lon="-2.76063">
        <ele>93</ele>
        <time>2012-09-23T07:43:28Z</time>
      </trkpt>
      <trkpt lat="47.87438" lon="-2.76053">
        <ele>93</ele>
        <time>2012-09-23T07:43:33Z</time>
      </trkpt>
      <trkpt lat="47.87432" lon="-2.76045">
        <ele>92</ele>
        <time>2012-09-23T07:43:39Z</time>
      </trkpt>
      <trkpt lat="47.87425" lon="-2.76037">
        <ele>91</ele>
        <time>2012-09-23T07:43:45Z</time>
      </trkpt>
      <trkpt lat="47.87418" lon="-2.7603">
        <ele>92</ele>
        <time>2012-09-23T07:43:50Z</time>
      </trkpt>
      <trkpt lat="47.87412" lon="-2.76023">
        <ele>91</ele>
        <time>2012-09-23T07:43:55Z</time>
      </trkpt>
      <trkpt lat="47.87405" lon="-2.76015">
        <ele>91</ele>
        <time>2012-09-23T07:44:01Z</time>
      </trkpt>
      <trkpt lat="47.87399" lon="-2.76007">
        <ele>91</ele>
        <time>2012-09-23T07:44:07Z</time>
      </trkpt>
      <trkpt lat="47.87393" lon="-2.76">
        <ele>91</ele>
        <time>2012-09-23T07:44:11Z</time>
      </trkpt>
      <trkpt lat="47.87386" lon="-2.75993">
        <ele>91</ele>
        <time>2012-09-23T07:44:17Z</time>
      </trkpt>
      <trkpt lat="47.8738" lon="-2.75987">
        <ele>91</ele>
        <time>2012-09-23T07:44:21Z</time>
      </trkpt>
      <trkpt lat="47.87373" lon="-2.7598">
        <ele>92</ele>
        <time>2012-09-23T07:44:27Z</time>
      </trkpt>
      <trkpt lat="47.87367" lon="-2.75973">
        <ele>92</ele>
        <time>2012-09-23T07:44:32Z</time>
      </trkpt>
      <trkpt lat="47.87361" lon="-2.75965">
        <ele>92</ele>
        <time>2012-09-23T07:44:37Z</time>
      </trkpt>
      <trkpt lat="47.87354" lon="-2.75956">
        <ele>92</ele>
        <time>2012-09-23T07:44:44Z</time>
      </trkpt>
      <trkpt lat="47.87348" lon="-2.75948">
        <ele>92</ele>
        <time>2012-09-23T07:44:50Z</time>
      </trkpt>
      <trkpt lat="47.87341" lon="-2.75938">
        <ele>92</ele>
        <time>2012-09-23T07:44:56Z</time>
      </trkpt>
      <trkpt lat="47.87335" lon="-2.7593">
        <ele>93</ele>
        <time>2012-09-23T07:45:02Z</time>
      </trkpt>
      <trkpt lat="47.8733" lon="-2.75921">
        <ele>93</ele>
        <time>2012-09-23T07:45:08Z</time>
      </trkpt>
      <trkpt lat="47.87326" lon="-2.75911">
        <ele>93</ele>
        <time>2012-09-23T07:45:14Z</time>
      </trkpt>
      <trkpt lat="47.87319" lon="-2.75904">
        <ele>93</ele>
        <time>2012-09-23T07:45:21Z</time>
      </trkpt>
      <trkpt lat="47.87313" lon="-2.75898">
        <ele>93</ele>
        <time>2012-09-23T07:45:26Z</time>
      </trkpt>
      <trkpt lat="47.87307" lon="-2.75889">
        <ele>92</ele>
        <time>2012-09-23T07:45:32Z</time>
      </trkpt>
      <trkpt lat="47.87303" lon="-2.75878">
        <ele>92</ele>
        <time>2012-09-23T07:45:38Z</time>
      </trkpt>
      <trkpt lat="47.87301" lon="-2.75866">
        <ele>92</ele>
        <time>2012-09-23T07:45:45Z</time>
      </trkpt>
      <trkpt lat="47.87305" lon="-2.75855">
        <ele>93</ele>
        <time>2012-09-23T07:45:51Z</time>
      </trkpt>
      <trkpt lat="47.87308" lon="-2.75845">
        <ele>93</ele>
        <time>2012-09-23T07:45:57Z</time>
      </trkpt>
      <trkpt lat="47.8731" lon="-2.75832">
        <ele>93</ele>
        <time>2012-09-23T07:46:05Z</time>
      </trkpt>
      <trkpt lat="47.87314" lon="-2.75821">
        <ele>94</ele>
        <time>2012-09-23T07:46:11Z</time>
      </trkpt>
      <trkpt lat="47.87319" lon="-2.75811">
        <ele>92</ele>
        <time>2012-09-23T07:46:18Z</time>
      </trkpt>
      <trkpt lat="47.87317" lon="-2.75799">
        <ele>92</ele>
        <time>2012-09-23T07:46:26Z</time>
      </trkpt>
      <trkpt lat="47.87309" lon="-2.75792">
        <ele>92</ele>
        <time>2012-09-23T07:46:33Z</time>
      </trkpt>
      <trkpt lat="47.87301" lon="-2.75788">
        <ele>91</ele>
        <time>2012-09-23T07:46:41Z</time>
      </trkpt>
      <trkpt lat="47.87293" lon="-2.75783">
        <ele>91</ele>
        <time>2012-09-23T07:46:47Z</time>
      </trkpt>
      <trkpt lat="47.87286" lon="-2.75775">
        <ele>91</ele>
        <time>2012-09-23T07:46:53Z</time>
      </trkpt>
      <trkpt lat="47.8728" lon="-2.75766">
        <ele>92</ele>
        <time>2012-09-23T07:46:59Z</time>
      </trkpt>
      <trkpt lat="47.87276" lon="-2.75755">
        <ele>92</ele>
        <time>2012-09-23T07:47:03Z</time>
      </trkpt>
      <trkpt lat="47.87273" lon="-2.75744">
        <ele>92</ele>
        <time>2012-09-23T07:47:08Z</time>
      </trkpt>
      <trkpt lat="47.87272" lon="-2.75731">
        <ele>92</ele>
        <time>2012-09-23T07:47:14Z</time>
      </trkpt>
      <trkpt lat="47.87271" lon="-2.7572">
        <ele>92</ele>
        <time>2012-09-23T07:47:19Z</time>
      </trkpt>
      <trkpt lat="47.8727" lon="-2.75707">
        <ele>91</ele>
        <time>2012-09-23T07:47:26Z</time>
      </trkpt>
      <trkpt lat="47.87269" lon="-2.75695">
        <ele>92</ele>
        <time>2012-09-23T07:47:32Z</time>
      </trkpt>
      <trkpt lat="47.87266" lon="-2.75683">
        <ele>92</ele>
        <time>2012-09-23T07:47:37Z</time>
      </trkpt>
      <trkpt lat="47.8726" lon="-2.75673">
        <ele>92</ele>
        <time>2012-09-23T07:47:44Z</time>
      </trkpt>
      <trkpt lat="47.87254" lon="-2.75665">
        <ele>92</ele>
        <time>2012-09-23T07:47:49Z</time>
      </trkpt>
      <trkpt lat="47.87247" lon="-2.75659">
        <ele>92</ele>
        <time>2012-09-23T07:47:56Z</time>
      </trkpt>
      <trkpt lat="47.87239" lon="-2.75655">
        <ele>91</ele>
        <time>2012-09-23T07:48:01Z</time>
      </trkpt>
      <trkpt lat="47.87231" lon="-2.75654">
        <ele>91</ele>
        <time>2012-09-23T07:48:07Z</time>
      </trkpt>
      <trkpt lat="47.87223" lon="-2.7565">
        <ele>91</ele>
        <time>2012-09-23T07:48:12Z</time>
      </trkpt>
      <trkpt lat="47.87217" lon="-2.75641">
        <ele>91</ele>
        <time>2012-09-23T07:48:18Z</time>
      </trkpt>
      <trkpt lat="47.87213" lon="-2.7563">
        <ele>90</ele>
        <time>2012-09-23T07:48:24Z</time>
      </trkpt>
      <trkpt lat="47.8721" lon="-2.7562">
        <ele>90</ele>
        <time>2012-09-23T07:48:29Z</time>
      </trkpt>
      <trkpt lat="47.87206" lon="-2.75609">
        <ele>89</ele>
        <time>2012-09-23T07:48:35Z</time>
      </trkpt>
      <trkpt lat="47.87203" lon="-2.75598">
        <ele>89</ele>
        <time>2012-09-23T07:48:40Z</time>
      </trkpt>
      <trkpt lat="47.87199" lon="-2.75586">
        <ele>90</ele>
        <time>2012-09-23T07:48:44Z</time>
      </trkpt>
      <trkpt lat="47.87196" lon="-2.75575">
        <ele>91</ele>
        <time>2012-09-23T07:48:50Z</time>
      </trkpt>
      <trkpt lat="47.87192" lon="-2.75563">
        <ele>91</ele>
        <time>2012-09-23T07:48:56Z</time>
      </trkpt>
      <trkpt lat="47.87187" lon="-2.75553">
        <ele>91</ele>
        <time>2012-09-23T07:49:02Z</time>
      </trkpt>
      <trkpt lat="47.87184" lon="-2.75542">
        <ele>94</ele>
        <time>2012-09-23T07:49:39Z</time>
      </trkpt>
      <trkpt lat="47.87184" lon="-2.7553">
        <ele>95</ele>
        <time>2012-09-23T07:49:47Z</time>
      </trkpt>
      <trkpt lat="47.87185" lon="-2.75517">
        <ele>96</ele>
        <time>2012-09-23T07:49:56Z</time>
      </trkpt>
      <trkpt lat="47.87186" lon="-2.75505">
        <ele>96</ele>
        <time>2012-09-23T07:50:03Z</time>
      </trkpt>
      <trkpt lat="47.87191" lon="-2.75495">
        <ele>96</ele>
        <time>2012-09-23T07:50:15Z</time>
      </trkpt>
      <trkpt lat="47.87196" lon="-2.75484">
        <ele>96</ele>
        <time>2012-09-23T07:50:23Z</time>
      </trkpt>
      <trkpt lat="47.872" lon="-2.75474">
        <ele>96</ele>
        <time>2012-09-23T07:50:29Z</time>
      </trkpt>
      <trkpt lat="47.87203" lon="-2.75463">
        <ele>97</ele>
        <time>2012-09-23T07:50:37Z</time>
      </trkpt>
      <trkpt lat="47.87205" lon="-2.75451">
        <ele>97</ele>
        <time>2012-09-23T07:50:45Z</time>
      </trkpt>
      <trkpt lat="47.8721" lon="-2.75441">
        <ele>97</ele>
        <time>2012-09-23T07:50:53Z</time>
      </trkpt>
      <trkpt lat="47.87215" lon="-2.75432">
        <ele>98</ele>
        <time>2012-09-23T07:50:59Z</time>
      </trkpt>
      <trkpt lat="47.87222" lon="-2.75423">
        <ele>98</ele>
        <time>2012-09-23T07:51:05Z</time>
      </trkpt>
      <trkpt lat="47.87228" lon="-2.75415">
        <ele>98</ele>
        <time>2012-09-23T07:51:11Z</time>
      </trkpt>
      <trkpt lat="47.87235" lon="-2.75408">
        <ele>98</ele>
        <time>2012-09-23T07:51:15Z</time>
      </trkpt>
      <trkpt lat="47.87241" lon="-2.75401">
        <ele>99</ele>
        <time>2012-09-23T07:51:20Z</time>
      </trkpt>
      <trkpt lat="47.87246" lon="-2.75393">
        <ele>99</ele>
        <time>2012-09-23T07:51:25Z</time>
      </trkpt>
      <trkpt lat="47.87252" lon="-2.75386">
        <ele>99</ele>
        <time>2012-09-23T07:51:30Z</time>
      </trkpt>
      <trkpt lat="47.87258" lon="-2.75378">
        <ele>98</ele>
        <time>2012-09-23T07:51:35Z</time>
      </trkpt>
      <trkpt lat="47.87265" lon="-2.7537">
        <ele>97</ele>
        <time>2012-09-23T07:51:41Z</time>
      </trkpt>
      <trkpt lat="47.87271" lon="-2.75362">
        <ele>97</ele>
        <time>2012-09-23T07:51:45Z</time>
      </trkpt>
      <trkpt lat="47.87277" lon="-2.75356">
        <ele>95</ele>
        <time>2012-09-23T07:51:49Z</time>
      </trkpt>
      <trkpt lat="47.87284" lon="-2.75352">
        <ele>94</ele>
        <time>2012-09-23T07:51:53Z</time>
      </trkpt>
      <trkpt lat="47.87291" lon="-2.75347">
        <ele>94</ele>
        <time>2012-09-23T07:51:59Z</time>
      </trkpt>
      <trkpt lat="47.87298" lon="-2.75342">
        <ele>94</ele>
        <time>2012-09-23T07:52:03Z</time>
      </trkpt>
      <trkpt lat="47.87305" lon="-2.75337">
        <ele>93</ele>
        <time>2012-09-23T07:52:08Z</time>
      </trkpt>
      <trkpt lat="47.87313" lon="-2.75332">
        <ele>94</ele>
        <time>2012-09-23T07:52:15Z</time>
      </trkpt>
      <trkpt lat="47.8732" lon="-2.75327">
        <ele>96</ele>
        <time>2012-09-23T07:52:21Z</time>
      </trkpt>
      <trkpt lat="47.87327" lon="-2.75318">
        <ele>98</ele>
        <time>2012-09-23T07:52:27Z</time>
      </trkpt>
      <trkpt lat="47.87334" lon="-2.75312">
        <ele>99</ele>
        <time>2012-09-23T07:52:35Z</time>
      </trkpt>
      <trkpt lat="47.87342" lon="-2.75306">
        <ele>101</ele>
        <time>2012-09-23T07:52:41Z</time>
      </trkpt>
      <trkpt lat="47.87349" lon="-2.753">
        <ele>102</ele>
        <time>2012-09-23T07:52:48Z</time>
      </trkpt>
      <trkpt lat="47.87356" lon="-2.75295">
        <ele>102</ele>
        <time>2012-09-23T07:52:55Z</time>
      </trkpt>
      <trkpt lat="47.87363" lon="-2.7529">
        <ele>103</ele>
        <time>2012-09-23T07:53:00Z</time>
      </trkpt>
      <trkpt lat="47.8737" lon="-2.75284">
        <ele>103</ele>
        <time>2012-09-23T07:53:06Z</time>
      </trkpt>
      <trkpt lat="47.87377" lon="-2.75279">
        <ele>103</ele>
        <time>2012-09-23T07:53:12Z</time>
      </trkpt>
      <trkpt lat="47.87384" lon="-2.75273">
        <ele>104</ele>
        <time>2012-09-23T07:53:18Z</time>
      </trkpt>
      <trkpt lat="47.8739" lon="-2.75266">
        <ele>104</ele>
        <time>2012-09-23T07:53:24Z</time>
      </trkpt>
      <trkpt lat="47.87398" lon="-2.75259">
        <ele>106</ele>
        <time>2012-09-23T07:53:32Z</time>
      </trkpt>
      <trkpt lat="47.87406" lon="-2.75254">
        <ele>107</ele>
        <time>2012-09-23T07:53:38Z</time>
      </trkpt>
      <trkpt lat="47.87413" lon="-2.75246">
        <ele>106</ele>
        <time>2012-09-23T07:53:46Z</time>
      </trkpt>
      <trkpt lat="47.8742" lon="-2.75238">
        <ele>105</ele>
        <time>2012-09-23T07:53:52Z</time>
      </trkpt>
      <trkpt lat="47.87426" lon="-2.75231">
        <ele>105</ele>
        <time>2012-09-23T07:53:58Z</time>
      </trkpt>
      <trkpt lat="47.87433" lon="-2.75225">
        <ele>105</ele>
        <time>2012-09-23T07:54:03Z</time>
      </trkpt>
      <trkpt lat="47.87441" lon="-2.7522">
        <ele>105</ele>
        <time>2012-09-23T07:54:11Z</time>
      </trkpt>
      <trkpt lat="47.87448" lon="-2.75215">
        <ele>106</ele>
        <time>2012-09-23T07:54:17Z</time>
      </trkpt>
      <trkpt lat="47.87456" lon="-2.75209">
        <ele>108</ele>
        <time>2012-09-23T07:54:26Z</time>
      </trkpt>
      <trkpt lat="47.87463" lon="-2.75202">
        <ele>108</ele>
        <time>2012-09-23T07:54:34Z</time>
      </trkpt>
      <trkpt lat="47.8747" lon="-2.75195">
        <ele>109</ele>
        <time>2012-09-23T07:54:41Z</time>
      </trkpt>
      <trkpt lat="47.87476" lon="-2.75189">
        <ele>110</ele>
        <time>2012-09-23T07:54:48Z</time>
      </trkpt>
      <trkpt lat="47.8748" lon="-2.75178">
        <ele>110</ele>
        <time>2012-09-23T07:54:56Z</time>
      </trkpt>
      <trkpt lat="47.87481" lon="-2.75165">
        <ele>108</ele>
        <time>2012-09-23T07:55:02Z</time>
      </trkpt>
      <trkpt lat="47.87484" lon="-2.75153">
        <ele>107</ele>
        <time>2012-09-23T07:55:09Z</time>
      </trkpt>
      <trkpt lat="47.8749" lon="-2.75146">
        <ele>107</ele>
        <time>2012-09-23T07:55:17Z</time>
      </trkpt>
      <trkpt lat="47.87498" lon="-2.75141">
        <ele>107</ele>
        <time>2012-09-23T07:55:23Z</time>
      </trkpt>
      <trkpt lat="47.87506" lon="-2.75136">
        <ele>106</ele>
        <time>2012-09-23T07:55:31Z</time>
      </trkpt>
      <trkpt lat="47.87514" lon="-2.75132">
        <ele>105</ele>
        <time>2012-09-23T07:55:37Z</time>
      </trkpt>
      <trkpt lat="47.87523" lon="-2.75131">
        <ele>106</ele>
        <time>2012-09-23T07:55:43Z</time>
      </trkpt>
      <trkpt lat="47.8753" lon="-2.75127">
        <ele>106</ele>
        <time>2012-09-23T07:55:50Z</time>
      </trkpt>
      <trkpt lat="47.87538" lon="-2.75122">
        <ele>106</ele>
        <time>2012-09-23T07:55:57Z</time>
      </trkpt>
      <trkpt lat="47.87546" lon="-2.75119">
        <ele>108</ele>
        <time>2012-09-23T07:56:05Z</time>
      </trkpt>
      <trkpt lat="47.87554" lon="-2.7512">
        <ele>108</ele>
        <time>2012-09-23T07:56:11Z</time>
      </trkpt>
      <trkpt lat="47.87562" lon="-2.75123">
        <ele>108</ele>
        <time>2012-09-23T07:56:17Z</time>
      </trkpt>
      <trkpt lat="47.8757" lon="-2.75123">
        <ele>108</ele>
        <time>2012-09-23T07:56:23Z</time>
      </trkpt>
      <trkpt lat="47.87578" lon="-2.75123">
        <ele>108</ele>
        <time>2012-09-23T07:56:29Z</time>
      </trkpt>
      <trkpt lat="47.87586" lon="-2.75124">
        <ele>109</ele>
        <time>2012-09-23T07:56:35Z</time>
      </trkpt>
      <trkpt lat="47.87594" lon="-2.75123">
        <ele>110</ele>
        <time>2012-09-23T07:56:41Z</time>
      </trkpt>
      <trkpt lat="47.87602" lon="-2.75122">
        <ele>110</ele>
        <time>2012-09-23T07:56:47Z</time>
      </trkpt>
      <trkpt lat="47.8761" lon="-2.75122">
        <ele>111</ele>
        <time>2012-09-23T07:56:53Z</time>
      </trkpt>
      <trkpt lat="47.87619" lon="-2.7512">
        <ele>112</ele>
        <time>2012-09-23T07:57:01Z</time>
      </trkpt>
      <trkpt lat="47.87627" lon="-2.75115">
        <ele>111</ele>
        <time>2012-09-23T07:57:08Z</time>
      </trkpt>
      <trkpt lat="47.87635" lon="-2.75113">
        <ele>109</ele>
        <time>2012-09-23T07:57:14Z</time>
      </trkpt>
      <trkpt lat="47.87644" lon="-2.75108">
        <ele>109</ele>
        <time>2012-09-23T07:57:18Z</time>
      </trkpt>
      <trkpt lat="47.8765" lon="-2.75101">
        <ele>109</ele>
        <time>2012-09-23T07:57:25Z</time>
      </trkpt>
      <trkpt lat="47.8765" lon="-2.75089">
        <ele>109</ele>
        <time>2012-09-23T07:58:48Z</time>
      </trkpt>
      <trkpt lat="47.87647" lon="-2.75077">
        <ele>109</ele>
        <time>2012-09-23T07:58:55Z</time>
      </trkpt>
      <trkpt lat="47.87644" lon="-2.75066">
        <ele>109</ele>
        <time>2012-09-23T07:59:04Z</time>
      </trkpt>
      <trkpt lat="47.8764" lon="-2.75055">
        <ele>110</ele>
        <time>2012-09-23T07:59:10Z</time>
      </trkpt>
      <trkpt lat="47.87637" lon="-2.75043">
        <ele>111</ele>
        <time>2012-09-23T07:59:16Z</time>
      </trkpt>
      <trkpt lat="47.87634" lon="-2.75032">
        <ele>111</ele>
        <time>2012-09-23T07:59:20Z</time>
      </trkpt>
      <trkpt lat="47.87631" lon="-2.75022">
        <ele>111</ele>
        <time>2012-09-23T07:59:26Z</time>
      </trkpt>
      <trkpt lat="47.87628" lon="-2.75009">
        <ele>110</ele>
        <time>2012-09-23T07:59:32Z</time>
      </trkpt>
      <trkpt lat="47.87625" lon="-2.74998">
        <ele>111</ele>
        <time>2012-09-23T07:59:37Z</time>
      </trkpt>
      <trkpt lat="47.87622" lon="-2.74986">
        <ele>110</ele>
        <time>2012-09-23T07:59:43Z</time>
      </trkpt>
      <trkpt lat="47.87619" lon="-2.74975">
        <ele>110</ele>
        <time>2012-09-23T07:59:50Z</time>
      </trkpt>
      <trkpt lat="47.87617" lon="-2.74962">
        <ele>110</ele>
        <time>2012-09-23T07:59:56Z</time>
      </trkpt>
      <trkpt lat="47.87615" lon="-2.74951">
        <ele>110</ele>
        <time>2012-09-23T08:00:00Z</time>
      </trkpt>
      <trkpt lat="47.87613" lon="-2.74938">
        <ele>111</ele>
        <time>2012-09-23T08:00:06Z</time>
      </trkpt>
      <trkpt lat="47.87611" lon="-2.74926">
        <ele>109</ele>
        <time>2012-09-23T08:00:17Z</time>
      </trkpt>
      <trkpt lat="47.87613" lon="-2.74913">
        <ele>108</ele>
        <time>2012-09-23T08:00:25Z</time>
      </trkpt>
      <trkpt lat="47.87616" lon="-2.74901">
        <ele>107</ele>
        <time>2012-09-23T08:00:30Z</time>
      </trkpt>
      <trkpt lat="47.87619" lon="-2.7489">
        <ele>107</ele>
        <time>2012-09-23T08:00:35Z</time>
      </trkpt>
      <trkpt lat="47.87623" lon="-2.74879">
        <ele>107</ele>
        <time>2012-09-23T08:00:41Z</time>
      </trkpt>
      <trkpt lat="47.87627" lon="-2.74867">
        <ele>107</ele>
        <time>2012-09-23T08:00:45Z</time>
      </trkpt>
      <trkpt lat="47.87632" lon="-2.74856">
        <ele>107</ele>
        <time>2012-09-23T08:00:50Z</time>
      </trkpt>
      <trkpt lat="47.87636" lon="-2.74844">
        <ele>107</ele>
        <time>2012-09-23T08:00:56Z</time>
      </trkpt>
      <trkpt lat="47.8764" lon="-2.74832">
        <ele>107</ele>
        <time>2012-09-23T08:01:00Z</time>
      </trkpt>
      <trkpt lat="47.87645" lon="-2.74822">
        <ele>107</ele>
        <time>2012-09-23T08:01:05Z</time>
      </trkpt>
      <trkpt lat="47.87649" lon="-2.74811">
        <ele>107</ele>
        <time>2012-09-23T08:01:11Z</time>
      </trkpt>
      <trkpt lat="47.87653" lon="-2.74802">
        <ele>107</ele>
        <time>2012-09-23T08:01:15Z</time>
      </trkpt>
      <trkpt lat="47.87657" lon="-2.74792">
        <ele>106</ele>
        <time>2012-09-23T08:01:20Z</time>
      </trkpt>
      <trkpt lat="47.87662" lon="-2.74781">
        <ele>105</ele>
        <time>2012-09-23T08:01:26Z</time>
      </trkpt>
      <trkpt lat="47.87667" lon="-2.7477">
        <ele>105</ele>
        <time>2012-09-23T08:01:32Z</time>
      </trkpt>
      <trkpt lat="47.87671" lon="-2.74759">
        <ele>104</ele>
        <time>2012-09-23T08:01:38Z</time>
      </trkpt>
      <trkpt lat="47.87676" lon="-2.74747">
        <ele>104</ele>
        <time>2012-09-23T08:01:44Z</time>
      </trkpt>
      <trkpt lat="47.87679" lon="-2.74737">
        <ele>103</ele>
        <time>2012-09-23T08:01:49Z</time>
      </trkpt>
      <trkpt lat="47.87685" lon="-2.74727">
        <ele>102</ele>
        <time>2012-09-23T08:01:55Z</time>
      </trkpt>
      <trkpt lat="47.87694" lon="-2.74722">
        <ele>102</ele>
        <time>2012-09-23T08:02:02Z</time>
      </trkpt>
      <trkpt lat="47.87702" lon="-2.7472">
        <ele>102</ele>
        <time>2012-09-23T08:02:08Z</time>
      </trkpt>
      <trkpt lat="47.87711" lon="-2.74722">
        <ele>102</ele>
        <time>2012-09-23T08:02:14Z</time>
      </trkpt>
      <trkpt lat="47.87719" lon="-2.74724">
        <ele>102</ele>
        <time>2012-09-23T08:02:20Z</time>
      </trkpt>
      <trkpt lat="47.87728" lon="-2.74725">
        <ele>101</ele>
        <time>2012-09-23T08:02:26Z</time>
      </trkpt>
      <trkpt lat="47.87737" lon="-2.74726">
        <ele>101</ele>
        <time>2012-09-23T08:02:32Z</time>
      </trkpt>
      <trkpt lat="47.87744" lon="-2.74727">
        <ele>101</ele>
        <time>2012-09-23T08:02:36Z</time>
      </trkpt>
      <trkpt lat="47.87753" lon="-2.74727">
        <ele>101</ele>
        <time>2012-09-23T08:02:42Z</time>
      </trkpt>
      <trkpt lat="47.87762" lon="-2.74729">
        <ele>101</ele>
        <time>2012-09-23T08:02:48Z</time>
      </trkpt>
      <trkpt lat="47.87771" lon="-2.7473">
        <ele>101</ele>
        <time>2012-09-23T08:02:54Z</time>
      </trkpt>
      <trkpt lat="47.87779" lon="-2.7473">
        <ele>100</ele>
        <time>2012-09-23T08:03:00Z</time>
      </trkpt>
      <trkpt lat="47.87787" lon="-2.74731">
        <ele>99</ele>
        <time>2012-09-23T08:03:05Z</time>
      </trkpt>
      <trkpt lat="47.87796" lon="-2.74732">
        <ele>99</ele>
        <time>2012-09-23T08:03:11Z</time>
      </trkpt>
      <trkpt lat="47.87803" lon="-2.74732">
        <ele>99</ele>
        <time>2012-09-23T08:03:15Z</time>
      </trkpt>
      <trkpt lat="47.87812" lon="-2.74731">
        <ele>100</ele>
        <time>2012-09-23T08:03:21Z</time>
      </trkpt>
      <trkpt lat="47.87821" lon="-2.74731">
        <ele>100</ele>
        <time>2012-09-23T08:03:27Z</time>
      </trkpt>
      <trkpt lat="47.87829" lon="-2.74731">
        <ele>100</ele>
        <time>2012-09-23T08:03:34Z</time>
      </trkpt>
      <trkpt lat="47.87838" lon="-2.74732">
        <ele>100</ele>
        <time>2012-09-23T08:03:39Z</time>
      </trkpt>
      <trkpt lat="47.87846" lon="-2.74732">
        <ele>100</ele>
        <time>2012-09-23T08:03:45Z</time>
      </trkpt>
      <trkpt lat="47.87855" lon="-2.74731">
        <ele>100</ele>
        <time>2012-09-23T08:03:52Z</time>
      </trkpt>
      <trkpt lat="47.87863" lon="-2.74729">
        <ele>99</ele>
        <time>2012-09-23T08:03:57Z</time>
      </trkpt>
      <trkpt lat="47.87871" lon="-2.74725">
        <ele>99</ele>
        <time>2012-09-23T08:04:03Z</time>
      </trkpt>
      <trkpt lat="47.87879" lon="-2.7472">
        <ele>99</ele>
        <time>2012-09-23T08:04:09Z</time>
      </trkpt>
      <trkpt lat="47.87886" lon="-2.74714">
        <ele>100</ele>
        <time>2012-09-23T08:04:15Z</time>
      </trkpt>
      <trkpt lat="47.87893" lon="-2.74707">
        <ele>100</ele>
        <time>2012-09-23T08:04:20Z</time>
      </trkpt>
      <trkpt lat="47.87899" lon="-2.747">
        <ele>100</ele>
        <time>2012-09-23T08:04:24Z</time>
      </trkpt>
      <trkpt lat="47.87906" lon="-2.74691">
        <ele>99</ele>
        <time>2012-09-23T08:04:30Z</time>
      </trkpt>
      <trkpt lat="47.87912" lon="-2.74683">
        <ele>99</ele>
        <time>2012-09-23T08:04:36Z</time>
      </trkpt>
      <trkpt lat="47.87919" lon="-2.74674">
        <ele>99</ele>
        <time>2012-09-23T08:04:42Z</time>
      </trkpt>
      <trkpt lat="47.87926" lon="-2.74665">
        <ele>99</ele>
        <time>2012-09-23T08:04:48Z</time>
      </trkpt>
      <trkpt lat="47.87931" lon="-2.74657">
        <ele>99</ele>
        <time>2012-09-23T08:04:54Z</time>
      </trkpt>
      <trkpt lat="47.87936" lon="-2.74649">
        <ele>99</ele>
        <time>2012-09-23T08:04:59Z</time>
      </trkpt>
      <trkpt lat="47.87942" lon="-2.74639">
        <ele>99</ele>
        <time>2012-09-23T08:05:04Z</time>
      </trkpt>
      <trkpt lat="47.87945" lon="-2.74629">
        <ele>100</ele>
        <time>2012-09-23T08:05:09Z</time>
      </trkpt>
      <trkpt lat="47.87949" lon="-2.74618">
        <ele>100</ele>
        <time>2012-09-23T08:05:15Z</time>
      </trkpt>
      <trkpt lat="47.87951" lon="-2.74606">
        <ele>99</ele>
        <time>2012-09-23T08:05:21Z</time>
      </trkpt>
      <trkpt lat="47.87951" lon="-2.74593">
        <ele>99</ele>
        <time>2012-09-23T08:05:27Z</time>
      </trkpt>
      <trkpt lat="47.87949" lon="-2.74581">
        <ele>100</ele>
        <time>2012-09-23T08:05:33Z</time>
      </trkpt>
      <trkpt lat="47.87947" lon="-2.74568">
        <ele>100</ele>
        <time>2012-09-23T08:05:40Z</time>
      </trkpt>
      <trkpt lat="47.87945" lon="-2.74557">
        <ele>100</ele>
        <time>2012-09-23T08:05:45Z</time>
      </trkpt>
      <trkpt lat="47.87943" lon="-2.74545">
        <ele>100</ele>
        <time>2012-09-23T08:05:51Z</time>
      </trkpt>
      <trkpt lat="47.87941" lon="-2.74533">
        <ele>101</ele>
        <time>2012-09-23T08:05:58Z</time>
      </trkpt>
      <trkpt lat="47.87939" lon="-2.74522">
        <ele>102</ele>
        <time>2012-09-23T08:06:04Z</time>
      </trkpt>
      <trkpt lat="47.87938" lon="-2.7451">
        <ele>102</ele>
        <time>2012-09-23T08:06:09Z</time>
      </trkpt>
      <trkpt lat="47.87937" lon="-2.74499">
        <ele>102</ele>
        <time>2012-09-23T08:06:15Z</time>
      </trkpt>
      <trkpt lat="47.87938" lon="-2.74487">
        <ele>103</ele>
        <time>2012-09-23T08:06:23Z</time>
      </trkpt>
      <trkpt lat="47.87945" lon="-2.74481">
        <ele>104</ele>
        <time>2012-09-23T08:06:28Z</time>
      </trkpt>
      <trkpt lat="47.87953" lon="-2.74478">
        <ele>104</ele>
        <time>2012-09-23T08:06:35Z</time>
      </trkpt>
      <trkpt lat="47.87962" lon="-2.74475">
        <ele>104</ele>
        <time>2012-09-23T08:06:41Z</time>
      </trkpt>
      <trkpt lat="47.8797" lon="-2.74473">
        <ele>104</ele>
        <time>2012-09-23T08:06:49Z</time>
      </trkpt>
      <trkpt lat="47.87978" lon="-2.74474">
        <ele>105</ele>
        <time>2012-09-23T08:06:55Z</time>
      </trkpt>
      <trkpt lat="47.87987" lon="-2.74476">
        <ele>105</ele>
        <time>2012-09-23T08:07:01Z</time>
      </trkpt>
      <trkpt lat="47.87995" lon="-2.74472">
        <ele>106</ele>
        <time>2012-09-23T08:07:08Z</time>
      </trkpt>
      <trkpt lat="47.87999" lon="-2.74461">
        <ele>106</ele>
        <time>2012-09-23T08:07:15Z</time>
      </trkpt>
      <trkpt lat="47.87999" lon="-2.74448">
        <ele>106</ele>
        <time>2012-09-23T08:07:23Z</time>
      </trkpt>
      <trkpt lat="47.87998" lon="-2.74436">
        <ele>105</ele>
        <time>2012-09-23T08:07:29Z</time>
      </trkpt>
      <trkpt lat="47.87997" lon="-2.74424">
        <ele>105</ele>
        <time>2012-09-23T08:07:36Z</time>
      </trkpt>
      <trkpt lat="47.87995" lon="-2.74411">
        <ele>106</ele>
        <time>2012-09-23T08:07:43Z</time>
      </trkpt>
      <trkpt lat="47.87993" lon="-2.74399">
        <ele>106</ele>
        <time>2012-09-23T08:07:49Z</time>
      </trkpt>
      <trkpt lat="47.87992" lon="-2.74388">
        <ele>107</ele>
        <time>2012-09-23T08:07:54Z</time>
      </trkpt>
      <trkpt lat="47.8799" lon="-2.74375">
        <ele>107</ele>
        <time>2012-09-23T08:08:00Z</time>
      </trkpt>
      <trkpt lat="47.87986" lon="-2.74364">
        <ele>108</ele>
        <time>2012-09-23T08:08:06Z</time>
      </trkpt>
      <trkpt lat="47.87981" lon="-2.74356">
        <ele>108</ele>
        <time>2012-09-23T08:08:11Z</time>
      </trkpt>
      <trkpt lat="47.87975" lon="-2.74346">
        <ele>108</ele>
        <time>2012-09-23T08:08:17Z</time>
      </trkpt>
      <trkpt lat="47.87969" lon="-2.74338">
        <ele>108</ele>
        <time>2012-09-23T08:08:22Z</time>
      </trkpt>
      <trkpt lat="47.87964" lon="-2.74329">
        <ele>108</ele>
        <time>2012-09-23T08:08:27Z</time>
      </trkpt>
      <trkpt lat="47.8796" lon="-2.74317">
        <ele>107</ele>
        <time>2012-09-23T08:08:33Z</time>
      </trkpt>
      <trkpt lat="47.87959" lon="-2.74305">
        <ele>106</ele>
        <time>2012-09-23T08:08:39Z</time>
      </trkpt>
      <trkpt lat="47.87961" lon="-2.74293">
        <ele>99</ele>
        <time>2012-09-23T08:08:45Z</time>
      </trkpt>
      <trkpt lat="47.87966" lon="-2.74285">
        <ele>98</ele>
        <time>2012-09-23T08:08:50Z</time>
      </trkpt>
      <trkpt lat="47.87972" lon="-2.74277">
        <ele>97</ele>
        <time>2012-09-23T08:08:55Z</time>
      </trkpt>
      <trkpt lat="47.87978" lon="-2.74268">
        <ele>97</ele>
        <time>2012-09-23T08:09:01Z</time>
      </trkpt>
      <trkpt lat="47.87984" lon="-2.7426">
        <ele>97</ele>
        <time>2012-09-23T08:09:07Z</time>
      </trkpt>
      <trkpt lat="47.8799" lon="-2.7425">
        <ele>97</ele>
        <time>2012-09-23T08:09:14Z</time>
      </trkpt>
      <trkpt lat="47.87994" lon="-2.7424">
        <ele>97</ele>
        <time>2012-09-23T08:09:21Z</time>
      </trkpt>
      <trkpt lat="47.87999" lon="-2.74229">
        <ele>98</ele>
        <time>2012-09-23T08:09:29Z</time>
      </trkpt>
      <trkpt lat="47.88004" lon="-2.74219">
        <ele>99</ele>
        <time>2012-09-23T08:09:35Z</time>
      </trkpt>
      <trkpt lat="47.8801" lon="-2.7421">
        <ele>99</ele>
        <time>2012-09-23T08:09:42Z</time>
      </trkpt>
      <trkpt lat="47.88016" lon="-2.742">
        <ele>96</ele>
        <time>2012-09-23T08:09:50Z</time>
      </trkpt>
      <trkpt lat="47.88021" lon="-2.74189">
        <ele>94</ele>
        <time>2012-09-23T08:09:56Z</time>
      </trkpt>
      <trkpt lat="47.88021" lon="-2.74176">
        <ele>94</ele>
        <time>2012-09-23T08:10:05Z</time>
      </trkpt>
      <trkpt lat="47.88013" lon="-2.74177">
        <ele>93</ele>
        <time>2012-09-23T08:10:12Z</time>
      </trkpt>
      <trkpt lat="47.88005" lon="-2.7418">
        <ele>93</ele>
        <time>2012-09-23T08:10:18Z</time>
      </trkpt>
      <trkpt lat="47.87997" lon="-2.74182">
        <ele>92</ele>
        <time>2012-09-23T08:10:24Z</time>
      </trkpt>
      <trkpt lat="47.87989" lon="-2.74185">
        <ele>92</ele>
        <time>2012-09-23T08:10:30Z</time>
      </trkpt>
      <trkpt lat="47.87982" lon="-2.74188">
        <ele>92</ele>
        <time>2012-09-23T08:10:36Z</time>
      </trkpt>
      <trkpt lat="47.87975" lon="-2.74192">
        <ele>91</ele>
        <time>2012-09-23T08:10:42Z</time>
      </trkpt>
      <trkpt lat="47.87968" lon="-2.74201">
        <ele>89</ele>
        <time>2012-09-23T08:10:48Z</time>
      </trkpt>
      <trkpt lat="47.87964" lon="-2.74216">
        <ele>88</ele>
        <time>2012-09-23T08:10:53Z</time>
      </trkpt>
      <trkpt lat="47.87958" lon="-2.74225">
        <ele>88</ele>
        <time>2012-09-23T08:10:59Z</time>
      </trkpt>
      <trkpt lat="47.87953" lon="-2.74234">
        <ele>88</ele>
        <time>2012-09-23T08:11:05Z</time>
      </trkpt>
      <trkpt lat="47.87948" lon="-2.74243">
        <ele>88</ele>
        <time>2012-09-23T08:11:11Z</time>
      </trkpt>
      <trkpt lat="47.87944" lon="-2.74253">
        <ele>87</ele>
        <time>2012-09-23T08:11:18Z</time>
      </trkpt>
      <trkpt lat="47.87939" lon="-2.74262">
        <ele>86</ele>
        <time>2012-09-23T08:11:25Z</time>
      </trkpt>
      <trkpt lat="47.87931" lon="-2.74264">
        <ele>86</ele>
        <time>2012-09-23T08:11:32Z</time>
      </trkpt>
      <trkpt lat="47.87922" lon="-2.74265">
        <ele>86</ele>
        <time>2012-09-23T08:11:39Z</time>
      </trkpt>
      <trkpt lat="47.87914" lon="-2.74269">
        <ele>86</ele>
        <time>2012-09-23T08:11:45Z</time>
      </trkpt>
      <trkpt lat="47.87906" lon="-2.74273">
        <ele>86</ele>
        <time>2012-09-23T08:11:52Z</time>
      </trkpt>
      <trkpt lat="47.87899" lon="-2.74278">
        <ele>85</ele>
        <time>2012-09-23T08:11:57Z</time>
      </trkpt>
      <trkpt lat="47.8789" lon="-2.74282">
        <ele>84</ele>
        <time>2012-09-23T08:12:03Z</time>
      </trkpt>
      <trkpt lat="47.87882" lon="-2.74285">
        <ele>84</ele>
        <time>2012-09-23T08:12:10Z</time>
      </trkpt>
      <trkpt lat="47.87874" lon="-2.74288">
        <ele>82</ele>
        <time>2012-09-23T08:12:16Z</time>
      </trkpt>
      <trkpt lat="47.87866" lon="-2.74291">
        <ele>82</ele>
        <time>2012-09-23T08:12:20Z</time>
      </trkpt>
      <trkpt lat="47.87858" lon="-2.74295">
        <ele>82</ele>
        <time>2012-09-23T08:12:25Z</time>
      </trkpt>
      <trkpt lat="47.8785" lon="-2.74298">
        <ele>82</ele>
        <time>2012-09-23T08:12:32Z</time>
      </trkpt>
      <trkpt lat="47.87841" lon="-2.74295">
        <ele>78</ele>
        <time>2012-09-23T08:12:40Z</time>
      </trkpt>
      <trkpt lat="47.8784" lon="-2.74284">
        <ele>76</ele>
        <time>2012-09-23T08:12:47Z</time>
      </trkpt>
      <trkpt lat="47.87841" lon="-2.74272">
        <ele>76</ele>
        <time>2012-09-23T08:12:54Z</time>
      </trkpt>
      <trkpt lat="47.87842" lon="-2.74259">
        <ele>76</ele>
        <time>2012-09-23T08:12:59Z</time>
      </trkpt>
      <trkpt lat="47.87843" lon="-2.74248">
        <ele>76</ele>
        <time>2012-09-23T08:13:05Z</time>
      </trkpt>
      <trkpt lat="47.87845" lon="-2.74236">
        <ele>76</ele>
        <time>2012-09-23T08:13:11Z</time>
      </trkpt>
      <trkpt lat="47.87846" lon="-2.74223">
        <ele>76</ele>
        <time>2012-09-23T08:13:18Z</time>
      </trkpt>
      <trkpt lat="47.87845" lon="-2.74212">
        <ele>76</ele>
        <time>2012-09-23T08:13:24Z</time>
      </trkpt>
      <trkpt lat="47.87842" lon="-2.74199">
        <ele>77</ele>
        <time>2012-09-23T08:13:31Z</time>
      </trkpt>
      <trkpt lat="47.87843" lon="-2.74187">
        <ele>78</ele>
        <time>2012-09-23T08:13:37Z</time>
      </trkpt>
      <trkpt lat="47.87846" lon="-2.74175">
        <ele>78</ele>
        <time>2012-09-23T08:13:44Z</time>
      </trkpt>
      <trkpt lat="47.8785" lon="-2.74164">
        <ele>79</ele>
        <time>2012-09-23T08:13:49Z</time>
      </trkpt>
      <trkpt lat="47.87854" lon="-2.74153">
        <ele>79</ele>
        <time>2012-09-23T08:13:55Z</time>
      </trkpt>
      <trkpt lat="47.87857" lon="-2.74143">
        <ele>79</ele>
        <time>2012-09-23T08:13:59Z</time>
      </trkpt>
      <trkpt lat="47.87862" lon="-2.74132">
        <ele>79</ele>
        <time>2012-09-23T08:14:05Z</time>
      </trkpt>
      <trkpt lat="47.87865" lon="-2.74121">
        <ele>80</ele>
        <time>2012-09-23T08:14:09Z</time>
      </trkpt>
      <trkpt lat="47.87867" lon="-2.7411">
        <ele>80</ele>
        <time>2012-09-23T08:14:14Z</time>
      </trkpt>
      <trkpt lat="47.87869" lon="-2.74097">
        <ele>81</ele>
        <time>2012-09-23T08:14:20Z</time>
      </trkpt>
      <trkpt lat="47.8787" lon="-2.74084">
        <ele>81</ele>
        <time>2012-09-23T08:14:26Z</time>
      </trkpt>
      <trkpt lat="47.87869" lon="-2.74071">
        <ele>82</ele>
        <time>2012-09-23T08:14:31Z</time>
      </trkpt>
      <trkpt lat="47.87867" lon="-2.7406">
        <ele>82</ele>
        <time>2012-09-23T08:14:37Z</time>
      </trkpt>
      <trkpt lat="47.87863" lon="-2.74049">
        <ele>82</ele>
        <time>2012-09-23T08:14:43Z</time>
      </trkpt>
      <trkpt lat="47.87863" lon="-2.74037">
        <ele>83</ele>
        <time>2012-09-23T08:14:49Z</time>
      </trkpt>
      <trkpt lat="47.87867" lon="-2.74027">
        <ele>84</ele>
        <time>2012-09-23T08:14:56Z</time>
      </trkpt>
      <trkpt lat="47.87873" lon="-2.74018">
        <ele>84</ele>
        <time>2012-09-23T08:15:02Z</time>
      </trkpt>
      <trkpt lat="47.87881" lon="-2.74012">
        <ele>83</ele>
        <time>2012-09-23T08:15:08Z</time>
      </trkpt>
      <trkpt lat="47.87887" lon="-2.74005">
        <ele>83</ele>
        <time>2012-09-23T08:15:14Z</time>
      </trkpt>
      <trkpt lat="47.87887" lon="-2.73992">
        <ele>84</ele>
        <time>2012-09-23T08:15:22Z</time>
      </trkpt>
      <trkpt lat="47.87884" lon="-2.73981">
        <ele>83</ele>
        <time>2012-09-23T08:15:27Z</time>
      </trkpt>
      <trkpt lat="47.87881" lon="-2.7397">
        <ele>83</ele>
        <time>2012-09-23T08:15:33Z</time>
      </trkpt>
      <trkpt lat="47.87879" lon="-2.73958">
        <ele>82</ele>
        <time>2012-09-23T08:15:39Z</time>
      </trkpt>
      <trkpt lat="47.87879" lon="-2.73946">
        <ele>82</ele>
        <time>2012-09-23T08:15:45Z</time>
      </trkpt>
      <trkpt lat="47.8788" lon="-2.73933">
        <ele>81</ele>
        <time>2012-09-23T08:15:53Z</time>
      </trkpt>
      <trkpt lat="47.8788" lon="-2.73921">
        <ele>82</ele>
        <time>2012-09-23T08:15:59Z</time>
      </trkpt>
      <trkpt lat="47.87878" lon="-2.73908">
        <ele>82</ele>
        <time>2012-09-23T08:16:07Z</time>
      </trkpt>
      <trkpt lat="47.87875" lon="-2.73897">
        <ele>82</ele>
        <time>2012-09-23T08:16:14Z</time>
      </trkpt>
      <trkpt lat="47.87872" lon="-2.73886">
        <ele>83</ele>
        <time>2012-09-23T08:16:21Z</time>
      </trkpt>
      <trkpt lat="47.8787" lon="-2.73875">
        <ele>83</ele>
        <time>2012-09-23T08:16:27Z</time>
      </trkpt>
      <trkpt lat="47.87867" lon="-2.73865">
        <ele>83</ele>
        <time>2012-09-23T08:16:32Z</time>
      </trkpt>
      <trkpt lat="47.87862" lon="-2.73853">
        <ele>83</ele>
        <time>2012-09-23T08:16:38Z</time>
      </trkpt>
      <trkpt lat="47.87859" lon="-2.73841">
        <ele>83</ele>
        <time>2012-09-23T08:16:44Z</time>
      </trkpt>
      <trkpt lat="47.87857" lon="-2.7383">
        <ele>84</ele>
        <time>2012-09-23T08:16:50Z</time>
      </trkpt>
      <trkpt lat="47.87855" lon="-2.73817">
        <ele>85</ele>
        <time>2012-09-23T08:16:57Z</time>
      </trkpt>
      <trkpt lat="47.87853" lon="-2.73805">
        <ele>85</ele>
        <time>2012-09-23T08:17:02Z</time>
      </trkpt>
      <trkpt lat="47.87853" lon="-2.73793">
        <ele>85</ele>
        <time>2012-09-23T08:17:08Z</time>
      </trkpt>
      <trkpt lat="47.87854" lon="-2.7378">
        <ele>83</ele>
        <time>2012-09-23T08:17:14Z</time>
      </trkpt>
      <trkpt lat="47.87855" lon="-2.73768">
        <ele>83</ele>
        <time>2012-09-23T08:17:21Z</time>
      </trkpt>
      <trkpt lat="47.87857" lon="-2.73756">
        <ele>82</ele>
        <time>2012-09-23T08:17:26Z</time>
      </trkpt>
      <trkpt lat="47.87859" lon="-2.73743">
        <ele>82</ele>
        <time>2012-09-23T08:17:32Z</time>
      </trkpt>
      <trkpt lat="47.8786" lon="-2.73731">
        <ele>82</ele>
        <time>2012-09-23T08:17:38Z</time>
      </trkpt>
      <trkpt lat="47.87862" lon="-2.7372">
        <ele>82</ele>
        <time>2012-09-23T08:17:45Z</time>
      </trkpt>
      <trkpt lat="47.87863" lon="-2.73708">
        <ele>81</ele>
        <time>2012-09-23T08:17:50Z</time>
      </trkpt>
      <trkpt lat="47.87865" lon="-2.73697">
        <ele>82</ele>
        <time>2012-09-23T08:17:56Z</time>
      </trkpt>
      <trkpt lat="47.8787" lon="-2.73686">
        <ele>83</ele>
        <time>2012-09-23T08:18:03Z</time>
      </trkpt>
      <trkpt lat="47.87876" lon="-2.73678">
        <ele>86</ele>
        <time>2012-09-23T08:18:09Z</time>
      </trkpt>
      <trkpt lat="47.87883" lon="-2.7367">
        <ele>87</ele>
        <time>2012-09-23T08:18:15Z</time>
      </trkpt>
      <trkpt lat="47.87891" lon="-2.73664">
        <ele>89</ele>
        <time>2012-09-23T08:18:21Z</time>
      </trkpt>
      <trkpt lat="47.87898" lon="-2.73659">
        <ele>88</ele>
        <time>2012-09-23T08:18:27Z</time>
      </trkpt>
      <trkpt lat="47.87905" lon="-2.73654">
        <ele>90</ele>
        <time>2012-09-23T08:18:33Z</time>
      </trkpt>
      <trkpt lat="47.87913" lon="-2.73651">
        <ele>91</ele>
        <time>2012-09-23T08:18:39Z</time>
      </trkpt>
      <trkpt lat="47.87921" lon="-2.73648">
        <ele>90</ele>
        <time>2012-09-23T08:18:45Z</time>
      </trkpt>
      <trkpt lat="47.87928" lon="-2.73643">
        <ele>92</ele>
        <time>2012-09-23T08:18:51Z</time>
      </trkpt>
      <trkpt lat="47.87936" lon="-2.7364">
        <ele>93</ele>
        <time>2012-09-23T08:18:58Z</time>
      </trkpt>
      <trkpt lat="47.87944" lon="-2.73636">
        <ele>94</ele>
        <time>2012-09-23T08:19:04Z</time>
      </trkpt>
      <trkpt lat="47.87951" lon="-2.73628">
        <ele>94</ele>
        <time>2012-09-23T08:19:11Z</time>
      </trkpt>
      <trkpt lat="47.87957" lon="-2.73621">
        <ele>94</ele>
        <time>2012-09-23T08:19:17Z</time>
      </trkpt>
      <trkpt lat="47.87963" lon="-2.73613">
        <ele>94</ele>
        <time>2012-09-23T08:19:23Z</time>
      </trkpt>
      <trkpt lat="47.87968" lon="-2.73603">
        <ele>95</ele>
        <time>2012-09-23T08:19:29Z</time>
      </trkpt>
      <trkpt lat="47.87972" lon="-2.73593">
        <ele>95</ele>
        <time>2012-09-23T08:19:36Z</time>
      </trkpt>
      <trkpt lat="47.87977" lon="-2.73584">
        <ele>96</ele>
        <time>2012-09-23T08:19:41Z</time>
      </trkpt>
      <trkpt lat="47.8798" lon="-2.73572">
        <ele>95</ele>
        <time>2012-09-23T08:19:47Z</time>
      </trkpt>
      <trkpt lat="47.87984" lon="-2.73561">
        <ele>96</ele>
        <time>2012-09-23T08:19:53Z</time>
      </trkpt>
      <trkpt lat="47.87989" lon="-2.73552">
        <ele>96</ele>
        <time>2012-09-23T08:19:59Z</time>
      </trkpt>
      <trkpt lat="47.87995" lon="-2.73544">
        <ele>96</ele>
        <time>2012-09-23T08:20:05Z</time>
      </trkpt>
      <trkpt lat="47.88001" lon="-2.73536">
        <ele>97</ele>
        <time>2012-09-23T08:20:11Z</time>
      </trkpt>
      <trkpt lat="47.88007" lon="-2.73527">
        <ele>96</ele>
        <time>2012-09-23T08:20:18Z</time>
      </trkpt>
      <trkpt lat="47.88011" lon="-2.73515">
        <ele>96</ele>
        <time>2012-09-23T08:20:24Z</time>
      </trkpt>
      <trkpt lat="47.88016" lon="-2.73505">
        <ele>99</ele>
        <time>2012-09-23T08:20:30Z</time>
      </trkpt>
      <trkpt lat="47.88021" lon="-2.73494">
        <ele>98</ele>
        <time>2012-09-23T08:20:37Z</time>
      </trkpt>
      <trkpt lat="47.88026" lon="-2.73484">
        <ele>99</ele>
        <time>2012-09-23T08:20:44Z</time>
      </trkpt>
      <trkpt lat="47.88031" lon="-2.73475">
        <ele>99</ele>
        <time>2012-09-23T08:20:50Z</time>
      </trkpt>
      <trkpt lat="47.88037" lon="-2.73467">
        <ele>99</ele>
        <time>2012-09-23T08:20:56Z</time>
      </trkpt>
      <trkpt lat="47.88044" lon="-2.7346">
        <ele>100</ele>
        <time>2012-09-23T08:21:02Z</time>
      </trkpt>
      <trkpt lat="47.8805" lon="-2.73451">
        <ele>99</ele>
        <time>2012-09-23T08:21:09Z</time>
      </trkpt>
      <trkpt lat="47.88055" lon="-2.73442">
        <ele>99</ele>
        <time>2012-09-23T08:21:17Z</time>
      </trkpt>
      <trkpt lat="47.88062" lon="-2.73434">
        <ele>99</ele>
        <time>2012-09-23T08:21:23Z</time>
      </trkpt>
      <trkpt lat="47.88069" lon="-2.73427">
        <ele>99</ele>
        <time>2012-09-23T08:21:30Z</time>
      </trkpt>
      <trkpt lat="47.88076" lon="-2.7342">
        <ele>100</ele>
        <time>2012-09-23T08:21:38Z</time>
      </trkpt>
      <trkpt lat="47.88084" lon="-2.7342">
        <ele>100</ele>
        <time>2012-09-23T08:21:47Z</time>
      </trkpt>
      <trkpt lat="47.88087" lon="-2.73433">
        <ele>100</ele>
        <time>2012-09-23T08:21:58Z</time>
      </trkpt>
      <trkpt lat="47.88083" lon="-2.73444">
        <ele>99</ele>
        <time>2012-09-23T08:22:03Z</time>
      </trkpt>
      <trkpt lat="47.88077" lon="-2.73452">
        <ele>98</ele>
        <time>2012-09-23T08:22:09Z</time>
      </trkpt>
      <trkpt lat="47.88072" lon="-2.73463">
        <ele>98</ele>
        <time>2012-09-23T08:22:16Z</time>
      </trkpt>
      <trkpt lat="47.8807" lon="-2.73474">
        <ele>96</ele>
        <time>2012-09-23T08:22:22Z</time>
      </trkpt>
      <trkpt lat="47.88069" lon="-2.73487">
        <ele>97</ele>
        <time>2012-09-23T08:22:29Z</time>
      </trkpt>
      <trkpt lat="47.88069" lon="-2.73499">
        <ele>96</ele>
        <time>2012-09-23T08:22:36Z</time>
      </trkpt>
      <trkpt lat="47.88068" lon="-2.73511">
        <ele>95</ele>
        <time>2012-09-23T08:22:44Z</time>
      </trkpt>
      <trkpt lat="47.88071" lon="-2.73524">
        <ele>95</ele>
        <time>2012-09-23T08:22:53Z</time>
      </trkpt>
      <trkpt lat="47.8808" lon="-2.73528">
        <ele>97</ele>
        <time>2012-09-23T08:23:01Z</time>
      </trkpt>
      <trkpt lat="47.88088" lon="-2.73528">
        <ele>99</ele>
        <time>2012-09-23T08:23:10Z</time>
      </trkpt>
      <trkpt lat="47.88096" lon="-2.73527">
        <ele>101</ele>
        <time>2012-09-23T08:23:17Z</time>
      </trkpt>
      <trkpt lat="47.88104" lon="-2.73529">
        <ele>102</ele>
        <time>2012-09-23T08:23:24Z</time>
      </trkpt>
      <trkpt lat="47.88112" lon="-2.73532">
        <ele>104</ele>
        <time>2012-09-23T08:23:31Z</time>
      </trkpt>
      <trkpt lat="47.8812" lon="-2.73527">
        <ele>108</ele>
        <time>2012-09-23T08:23:45Z</time>
      </trkpt>
      <trkpt lat="47.88124" lon="-2.73516">
        <ele>109</ele>
        <time>2012-09-23T08:23:53Z</time>
      </trkpt>
      <trkpt lat="47.88127" lon="-2.73505">
        <ele>109</ele>
        <time>2012-09-23T08:24:00Z</time>
      </trkpt>
      <trkpt lat="47.88128" lon="-2.73493">
        <ele>109</ele>
        <time>2012-09-23T08:24:06Z</time>
      </trkpt>
      <trkpt lat="47.88128" lon="-2.7348">
        <ele>109</ele>
        <time>2012-09-23T08:24:12Z</time>
      </trkpt>
      <trkpt lat="47.88128" lon="-2.73468">
        <ele>109</ele>
        <time>2012-09-23T08:24:18Z</time>
      </trkpt>
      <trkpt lat="47.88128" lon="-2.73456">
        <ele>109</ele>
        <time>2012-09-23T08:24:24Z</time>
      </trkpt>
      <trkpt lat="47.88129" lon="-2.73443">
        <ele>109</ele>
        <time>2012-09-23T08:24:31Z</time>
      </trkpt>
      <trkpt lat="47.88129" lon="-2.73431">
        <ele>109</ele>
        <time>2012-09-23T08:24:38Z</time>
      </trkpt>
      <trkpt lat="47.88129" lon="-2.73418">
        <ele>109</ele>
        <time>2012-09-23T08:24:46Z</time>
      </trkpt>
      <trkpt lat="47.88129" lon="-2.73406">
        <ele>109</ele>
        <time>2012-09-23T08:24:51Z</time>
      </trkpt>
      <trkpt lat="47.88129" lon="-2.73394">
        <ele>109</ele>
        <time>2012-09-23T08:24:57Z</time>
      </trkpt>
      <trkpt lat="47.88129" lon="-2.73383">
        <ele>108</ele>
        <time>2012-09-23T08:25:03Z</time>
      </trkpt>
      <trkpt lat="47.88129" lon="-2.73371">
        <ele>108</ele>
        <time>2012-09-23T08:25:09Z</time>
      </trkpt>
      <trkpt lat="47.88129" lon="-2.73359">
        <ele>108</ele>
        <time>2012-09-23T08:25:15Z</time>
      </trkpt>
      <trkpt lat="47.88128" lon="-2.73347">
        <ele>109</ele>
        <time>2012-09-23T08:25:21Z</time>
      </trkpt>
      <trkpt lat="47.88128" lon="-2.73335">
        <ele>108</ele>
        <time>2012-09-23T08:25:27Z</time>
      </trkpt>
      <trkpt lat="47.88129" lon="-2.73323">
        <ele>108</ele>
        <time>2012-09-23T08:25:33Z</time>
      </trkpt>
      <trkpt lat="47.88131" lon="-2.7331">
        <ele>108</ele>
        <time>2012-09-23T08:25:41Z</time>
      </trkpt>
      <trkpt lat="47.88132" lon="-2.73297">
        <ele>107</ele>
        <time>2012-09-23T08:25:47Z</time>
      </trkpt>
      <trkpt lat="47.88132" lon="-2.73286">
        <ele>107</ele>
        <time>2012-09-23T08:25:54Z</time>
      </trkpt>
      <trkpt lat="47.88131" lon="-2.73273">
        <ele>108</ele>
        <time>2012-09-23T08:25:59Z</time>
      </trkpt>
      <trkpt lat="47.88131" lon="-2.7326">
        <ele>108</ele>
        <time>2012-09-23T08:26:05Z</time>
      </trkpt>
      <trkpt lat="47.88133" lon="-2.73248">
        <ele>108</ele>
        <time>2012-09-23T08:26:11Z</time>
      </trkpt>
      <trkpt lat="47.88134" lon="-2.73236">
        <ele>107</ele>
        <time>2012-09-23T08:26:17Z</time>
      </trkpt>
      <trkpt lat="47.88132" lon="-2.73224">
        <ele>107</ele>
        <time>2012-09-23T08:26:24Z</time>
      </trkpt>
      <trkpt lat="47.8813" lon="-2.73212">
        <ele>108</ele>
        <time>2012-09-23T08:26:30Z</time>
      </trkpt>
      <trkpt lat="47.88129" lon="-2.73199">
        <ele>108</ele>
        <time>2012-09-23T08:26:37Z</time>
      </trkpt>
      <trkpt lat="47.88128" lon="-2.73186">
        <ele>108</ele>
        <time>2012-09-23T08:26:44Z</time>
      </trkpt>
      <trkpt lat="47.88128" lon="-2.73174">
        <ele>108</ele>
        <time>2012-09-23T08:26:51Z</time>
      </trkpt>
      <trkpt lat="47.8813" lon="-2.73162">
        <ele>108</ele>
        <time>2012-09-23T08:26:58Z</time>
      </trkpt>
      <trkpt lat="47.8813" lon="-2.7315">
        <ele>108</ele>
        <time>2012-09-23T08:27:05Z</time>
      </trkpt>
      <trkpt lat="47.88129" lon="-2.73137">
        <ele>109</ele>
        <time>2012-09-23T08:27:13Z</time>
      </trkpt>
      <trkpt lat="47.8813" lon="-2.73125">
        <ele>110</ele>
        <time>2012-09-23T08:27:20Z</time>
      </trkpt>
      <trkpt lat="47.88133" lon="-2.73114">
        <ele>110</ele>
        <time>2012-09-23T08:27:27Z</time>
      </trkpt>
      <trkpt lat="47.88137" lon="-2.73103">
        <ele>109</ele>
        <time>2012-09-23T08:27:33Z</time>
      </trkpt>
      <trkpt lat="47.88143" lon="-2.73093">
        <ele>109</ele>
        <time>2012-09-23T08:27:41Z</time>
      </trkpt>
      <trkpt lat="47.88147" lon="-2.73083">
        <ele>110</ele>
        <time>2012-09-23T08:27:47Z</time>
      </trkpt>
      <trkpt lat="47.88151" lon="-2.73071">
        <ele>110</ele>
        <time>2012-09-23T08:27:54Z</time>
      </trkpt>
      <trkpt lat="47.88155" lon="-2.7306">
        <ele>109</ele>
        <time>2012-09-23T08:28:01Z</time>
      </trkpt>
      <trkpt lat="47.88157" lon="-2.73047">
        <ele>108</ele>
        <time>2012-09-23T08:28:08Z</time>
      </trkpt>
      <trkpt lat="47.88159" lon="-2.73035">
        <ele>107</ele>
        <time>2012-09-23T08:28:14Z</time>
      </trkpt>
      <trkpt lat="47.88161" lon="-2.73023">
        <ele>108</ele>
        <time>2012-09-23T08:28:20Z</time>
      </trkpt>
      <trkpt lat="47.88163" lon="-2.73011">
        <ele>107</ele>
        <time>2012-09-23T08:28:26Z</time>
      </trkpt>
      <trkpt lat="47.88165" lon="-2.73">
        <ele>106</ele>
        <time>2012-09-23T08:28:32Z</time>
      </trkpt>
      <trkpt lat="47.88167" lon="-2.72988">
        <ele>106</ele>
        <time>2012-09-23T08:28:39Z</time>
      </trkpt>
      <trkpt lat="47.88169" lon="-2.72976">
        <ele>106</ele>
        <time>2012-09-23T08:28:44Z</time>
      </trkpt>
      <trkpt lat="47.8817" lon="-2.72964">
        <ele>106</ele>
        <time>2012-09-23T08:28:50Z</time>
      </trkpt>
      <trkpt lat="47.88172" lon="-2.72952">
        <ele>106</ele>
        <time>2012-09-23T08:28:56Z</time>
      </trkpt>
      <trkpt lat="47.88173" lon="-2.7294">
        <ele>106</ele>
        <time>2012-09-23T08:29:02Z</time>
      </trkpt>
      <trkpt lat="47.88175" lon="-2.72928">
        <ele>107</ele>
        <time>2012-09-23T08:29:08Z</time>
      </trkpt>
      <trkpt lat="47.88175" lon="-2.72916">
        <ele>106</ele>
        <time>2012-09-23T08:29:14Z</time>
      </trkpt>
      <trkpt lat="47.88175" lon="-2.72903">
        <ele>106</ele>
        <time>2012-09-23T08:29:20Z</time>
      </trkpt>
      <trkpt lat="47.88176" lon="-2.72891">
        <ele>105</ele>
        <time>2012-09-23T08:29:27Z</time>
      </trkpt>
      <trkpt lat="47.88178" lon="-2.72879">
        <ele>105</ele>
        <time>2012-09-23T08:29:32Z</time>
      </trkpt>
      <trkpt lat="47.88179" lon="-2.72867">
        <ele>106</ele>
        <time>2012-09-23T08:29:38Z</time>
      </trkpt>
      <trkpt lat="47.88179" lon="-2.72854">
        <ele>108</ele>
        <time>2012-09-23T08:29:44Z</time>
      </trkpt>
      <trkpt lat="47.88181" lon="-2.72842">
        <ele>108</ele>
        <time>2012-09-23T08:29:50Z</time>
      </trkpt>
      <trkpt lat="47.88184" lon="-2.72832">
        <ele>107</ele>
        <time>2012-09-23T08:29:56Z</time>
      </trkpt>
      <trkpt lat="47.88188" lon="-2.7282">
        <ele>108</ele>
        <time>2012-09-23T08:30:04Z</time>
      </trkpt>
      <trkpt lat="47.88193" lon="-2.7281">
        <ele>109</ele>
        <time>2012-09-23T08:30:11Z</time>
      </trkpt>
      <trkpt lat="47.88194" lon="-2.72798">
        <ele>108</ele>
        <time>2012-09-23T08:30:17Z</time>
      </trkpt>
      <trkpt lat="47.88195" lon="-2.72785">
        <ele>109</ele>
        <time>2012-09-23T08:30:24Z</time>
      </trkpt>
      <trkpt lat="47.88195" lon="-2.72773">
        <ele>107</ele>
        <time>2012-09-23T08:30:30Z</time>
      </trkpt>
      <trkpt lat="47.88195" lon="-2.72761">
        <ele>106</ele>
        <time>2012-09-23T08:30:35Z</time>
      </trkpt>
      <trkpt lat="47.88197" lon="-2.72749">
        <ele>106</ele>
        <time>2012-09-23T08:30:40Z</time>
      </trkpt>
      <trkpt lat="47.88199" lon="-2.72736">
        <ele>107</ele>
        <time>2012-09-23T08:30:46Z</time>
      </trkpt>
      <trkpt lat="47.88201" lon="-2.72724">
        <ele>108</ele>
        <time>2012-09-23T08:30:53Z</time>
      </trkpt>
      <trkpt lat="47.88203" lon="-2.72712">
        <ele>108</ele>
        <time>2012-09-23T08:30:59Z</time>
      </trkpt>
      <trkpt lat="47.88205" lon="-2.727">
        <ele>108</ele>
        <time>2012-09-23T08:31:06Z</time>
      </trkpt>
      <trkpt lat="47.88206" lon="-2.72689">
        <ele>108</ele>
        <time>2012-09-23T08:31:12Z</time>
      </trkpt>
      <trkpt lat="47.88208" lon="-2.72677">
        <ele>108</ele>
        <time>2012-09-23T08:31:18Z</time>
      </trkpt>
      <trkpt lat="47.88208" lon="-2.72664">
        <ele>107</ele>
        <time>2012-09-23T08:31:24Z</time>
      </trkpt>
      <trkpt lat="47.88209" lon="-2.72651">
        <ele>107</ele>
        <time>2012-09-23T08:31:30Z</time>
      </trkpt>
      <trkpt lat="47.88211" lon="-2.72638">
        <ele>107</ele>
        <time>2012-09-23T08:31:36Z</time>
      </trkpt>
      <trkpt lat="47.88213" lon="-2.72626">
        <ele>107</ele>
        <time>2012-09-23T08:31:42Z</time>
      </trkpt>
      <trkpt lat="47.88216" lon="-2.72615">
        <ele>108</ele>
        <time>2012-09-23T08:31:48Z</time>
      </trkpt>
      <trkpt lat="47.88221" lon="-2.72604">
        <ele>108</ele>
        <time>2012-09-23T08:31:55Z</time>
      </trkpt>
      <trkpt lat="47.88225" lon="-2.72593">
        <ele>107</ele>
        <time>2012-09-23T08:32:02Z</time>
      </trkpt>
      <trkpt lat="47.8823" lon="-2.72582">
        <ele>108</ele>
        <time>2012-09-23T08:32:09Z</time>
      </trkpt>
      <trkpt lat="47.88235" lon="-2.72572">
        <ele>108</ele>
        <time>2012-09-23T08:32:17Z</time>
      </trkpt>
      <trkpt lat="47.88242" lon="-2.72564">
        <ele>108</ele>
        <time>2012-09-23T08:32:23Z</time>
      </trkpt>
      <trkpt lat="47.88249" lon="-2.72555">
        <ele>107</ele>
        <time>2012-09-23T08:32:30Z</time>
      </trkpt>
      <trkpt lat="47.88254" lon="-2.72545">
        <ele>108</ele>
        <time>2012-09-23T08:32:37Z</time>
      </trkpt>
      <trkpt lat="47.88258" lon="-2.72533">
        <ele>108</ele>
        <time>2012-09-23T08:32:45Z</time>
      </trkpt>
      <trkpt lat="47.88262" lon="-2.72522">
        <ele>108</ele>
        <time>2012-09-23T08:32:53Z</time>
      </trkpt>
      <trkpt lat="47.88268" lon="-2.72513">
        <ele>109</ele>
        <time>2012-09-23T08:33:01Z</time>
      </trkpt>
      <trkpt lat="47.88274" lon="-2.72507">
        <ele>109</ele>
        <time>2012-09-23T08:33:07Z</time>
      </trkpt>
      <trkpt lat="47.88281" lon="-2.72499">
        <ele>109</ele>
        <time>2012-09-23T08:33:14Z</time>
      </trkpt>
      <trkpt lat="47.88288" lon="-2.72492">
        <ele>110</ele>
        <time>2012-09-23T08:33:23Z</time>
      </trkpt>
      <trkpt lat="47.88296" lon="-2.72498">
        <ele>108</ele>
        <time>2012-09-23T08:33:31Z</time>
      </trkpt>
      <trkpt lat="47.883" lon="-2.72509">
        <ele>106</ele>
        <time>2012-09-23T08:33:37Z</time>
      </trkpt>
      <trkpt lat="47.88304" lon="-2.72519">
        <ele>106</ele>
        <time>2012-09-23T08:33:44Z</time>
      </trkpt>
      <trkpt lat="47.88308" lon="-2.72531">
        <ele>108</ele>
        <time>2012-09-23T08:33:51Z</time>
      </trkpt>
      <trkpt lat="47.88312" lon="-2.72541">
        <ele>109</ele>
        <time>2012-09-23T08:33:59Z</time>
      </trkpt>
      <trkpt lat="47.88315" lon="-2.72554">
        <ele>108</ele>
        <time>2012-09-23T08:34:07Z</time>
      </trkpt>
      <trkpt lat="47.88312" lon="-2.72566">
        <ele>108</ele>
        <time>2012-09-23T08:34:50Z</time>
      </trkpt>
      <trkpt lat="47.88306" lon="-2.72575">
        <ele>107</ele>
        <time>2012-09-23T08:34:58Z</time>
      </trkpt>
      <trkpt lat="47.88305" lon="-2.72563">
        <ele>108</ele>
        <time>2012-09-23T08:36:11Z</time>
      </trkpt>
      <trkpt lat="47.88311" lon="-2.72554">
        <ele>107</ele>
        <time>2012-09-23T08:37:08Z</time>
      </trkpt>
      <trkpt lat="47.88315" lon="-2.72565">
        <ele>107</ele>
        <time>2012-09-23T08:37:31Z</time>
      </trkpt>
      <trkpt lat="47.8832" lon="-2.72575">
        <ele>108</ele>
        <time>2012-09-23T08:37:36Z</time>
      </trkpt>
      <trkpt lat="47.88326" lon="-2.72582">
        <ele>108</ele>
        <time>2012-09-23T08:37:41Z</time>
      </trkpt>
      <trkpt lat="47.88333" lon="-2.7259">
        <ele>109</ele>
        <time>2012-09-23T08:37:47Z</time>
      </trkpt>
      <trkpt lat="47.88339" lon="-2.72599">
        <ele>109</ele>
        <time>2012-09-23T08:37:53Z</time>
      </trkpt>
      <trkpt lat="47.88344" lon="-2.72609">
        <ele>109</ele>
        <time>2012-09-23T08:37:59Z</time>
      </trkpt>
      <trkpt lat="47.88348" lon="-2.72619">
        <ele>108</ele>
        <time>2012-09-23T08:38:05Z</time>
      </trkpt>
      <trkpt lat="47.88352" lon="-2.7263">
        <ele>109</ele>
        <time>2012-09-23T08:38:09Z</time>
      </trkpt>
      <trkpt lat="47.88356" lon="-2.7264">
        <ele>109</ele>
        <time>2012-09-23T08:38:14Z</time>
      </trkpt>
      <trkpt lat="47.88361" lon="-2.7265">
        <ele>109</ele>
        <time>2012-09-23T08:38:19Z</time>
      </trkpt>
      <trkpt lat="47.88365" lon="-2.7266">
        <ele>109</ele>
        <time>2012-09-23T08:38:24Z</time>
      </trkpt>
      <trkpt lat="47.88369" lon="-2.72669">
        <ele>111</ele>
        <time>2012-09-23T08:38:29Z</time>
      </trkpt>
      <trkpt lat="47.88374" lon="-2.7268">
        <ele>111</ele>
        <time>2012-09-23T08:38:34Z</time>
      </trkpt>
      <trkpt lat="47.88379" lon="-2.72691">
        <ele>111</ele>
        <time>2012-09-23T08:38:39Z</time>
      </trkpt>
      <trkpt lat="47.88382" lon="-2.72702">
        <ele>112</ele>
        <time>2012-09-23T08:38:44Z</time>
      </trkpt>
      <trkpt lat="47.88386" lon="-2.72713">
        <ele>112</ele>
        <time>2012-09-23T08:38:50Z</time>
      </trkpt>
      <trkpt lat="47.8839" lon="-2.72724">
        <ele>112</ele>
        <time>2012-09-23T08:38:54Z</time>
      </trkpt>
      <trkpt lat="47.88395" lon="-2.72734">
        <ele>112</ele>
        <time>2012-09-23T08:38:59Z</time>
      </trkpt>
      <trkpt lat="47.88399" lon="-2.72745">
        <ele>113</ele>
        <time>2012-09-23T08:39:04Z</time>
      </trkpt>
      <trkpt lat="47.88404" lon="-2.72756">
        <ele>114</ele>
        <time>2012-09-23T08:39:10Z</time>
      </trkpt>
      <trkpt lat="47.88409" lon="-2.72765">
        <ele>114</ele>
        <time>2012-09-23T08:39:15Z</time>
      </trkpt>
      <trkpt lat="47.88413" lon="-2.72775">
        <ele>114</ele>
        <time>2012-09-23T08:39:20Z</time>
      </trkpt>
      <trkpt lat="47.88418" lon="-2.72785">
        <ele>114</ele>
        <time>2012-09-23T08:39:26Z</time>
      </trkpt>
      <trkpt lat="47.88422" lon="-2.72796">
        <ele>114</ele>
        <time>2012-09-23T08:39:31Z</time>
      </trkpt>
      <trkpt lat="47.88426" lon="-2.72806">
        <ele>114</ele>
        <time>2012-09-23T08:39:36Z</time>
      </trkpt>
      <trkpt lat="47.8843" lon="-2.72815">
        <ele>114</ele>
        <time>2012-09-23T08:39:41Z</time>
      </trkpt>
      <trkpt lat="47.88435" lon="-2.72824">
        <ele>114</ele>
        <time>2012-09-23T08:39:46Z</time>
      </trkpt>
      <trkpt lat="47.88439" lon="-2.72834">
        <ele>114</ele>
        <time>2012-09-23T08:39:52Z</time>
      </trkpt>
      <trkpt lat="47.88444" lon="-2.72844">
        <ele>114</ele>
        <time>2012-09-23T08:39:59Z</time>
      </trkpt>
      <trkpt lat="47.88449" lon="-2.72855">
        <ele>114</ele>
        <time>2012-09-23T08:40:04Z</time>
      </trkpt>
      <trkpt lat="47.88454" lon="-2.72865">
        <ele>114</ele>
        <time>2012-09-23T08:40:11Z</time>
      </trkpt>
      <trkpt lat="47.88458" lon="-2.72875">
        <ele>114</ele>
        <time>2012-09-23T08:40:17Z</time>
      </trkpt>
      <trkpt lat="47.88463" lon="-2.72885">
        <ele>114</ele>
        <time>2012-09-23T08:40:23Z</time>
      </trkpt>
      <trkpt lat="47.88468" lon="-2.72896">
        <ele>114</ele>
        <time>2012-09-23T08:40:29Z</time>
      </trkpt>
      <trkpt lat="47.88472" lon="-2.72906">
        <ele>114</ele>
        <time>2012-09-23T08:40:34Z</time>
      </trkpt>
      <trkpt lat="47.88478" lon="-2.72916">
        <ele>114</ele>
        <time>2012-09-23T08:40:40Z</time>
      </trkpt>
      <trkpt lat="47.88482" lon="-2.72926">
        <ele>114</ele>
        <time>2012-09-23T08:40:47Z</time>
      </trkpt>
      <trkpt lat="47.88487" lon="-2.72936">
        <ele>114</ele>
        <time>2012-09-23T08:40:52Z</time>
      </trkpt>
      <trkpt lat="47.88492" lon="-2.72947">
        <ele>114</ele>
        <time>2012-09-23T08:40:58Z</time>
      </trkpt>
      <trkpt lat="47.88497" lon="-2.72957">
        <ele>115</ele>
        <time>2012-09-23T08:41:05Z</time>
      </trkpt>
      <trkpt lat="47.88501" lon="-2.72969">
        <ele>115</ele>
        <time>2012-09-23T08:41:10Z</time>
      </trkpt>
      <trkpt lat="47.88505" lon="-2.72978">
        <ele>115</ele>
        <time>2012-09-23T08:41:15Z</time>
      </trkpt>
      <trkpt lat="47.88508" lon="-2.7299">
        <ele>116</ele>
        <time>2012-09-23T08:41:21Z</time>
      </trkpt>
      <trkpt lat="47.88509" lon="-2.73003">
        <ele>115</ele>
        <time>2012-09-23T08:41:26Z</time>
      </trkpt>
      <trkpt lat="47.88504" lon="-2.73012">
        <ele>115</ele>
        <time>2012-09-23T08:41:31Z</time>
      </trkpt>
      <trkpt lat="47.88497" lon="-2.73017">
        <ele>115</ele>
        <time>2012-09-23T08:41:36Z</time>
      </trkpt>
      <trkpt lat="47.88489" lon="-2.73021">
        <ele>115</ele>
        <time>2012-09-23T08:41:41Z</time>
      </trkpt>
      <trkpt lat="47.88481" lon="-2.73025">
        <ele>115</ele>
        <time>2012-09-23T08:41:46Z</time>
      </trkpt>
      <trkpt lat="47.88473" lon="-2.7303">
        <ele>115</ele>
        <time>2012-09-23T08:41:52Z</time>
      </trkpt>
      <trkpt lat="47.88465" lon="-2.73035">
        <ele>115</ele>
        <time>2012-09-23T08:41:57Z</time>
      </trkpt>
      <trkpt lat="47.88457" lon="-2.73039">
        <ele>114</ele>
        <time>2012-09-23T08:42:02Z</time>
      </trkpt>
      <trkpt lat="47.88449" lon="-2.73044">
        <ele>115</ele>
        <time>2012-09-23T08:42:08Z</time>
      </trkpt>
      <trkpt lat="47.88441" lon="-2.73049">
        <ele>115</ele>
        <time>2012-09-23T08:42:15Z</time>
      </trkpt>
      <trkpt lat="47.88434" lon="-2.73053">
        <ele>115</ele>
        <time>2012-09-23T08:42:20Z</time>
      </trkpt>
      <trkpt lat="47.88426" lon="-2.73058">
        <ele>115</ele>
        <time>2012-09-23T08:42:25Z</time>
      </trkpt>
      <trkpt lat="47.88418" lon="-2.73064">
        <ele>115</ele>
        <time>2012-09-23T08:42:31Z</time>
      </trkpt>
      <trkpt lat="47.88411" lon="-2.73069">
        <ele>116</ele>
        <time>2012-09-23T08:42:37Z</time>
      </trkpt>
      <trkpt lat="47.88404" lon="-2.73075">
        <ele>115</ele>
        <time>2012-09-23T08:42:42Z</time>
      </trkpt>
      <trkpt lat="47.88399" lon="-2.73083">
        <ele>115</ele>
        <time>2012-09-23T08:42:47Z</time>
      </trkpt>
      <trkpt lat="47.88398" lon="-2.73095">
        <ele>116</ele>
        <time>2012-09-23T08:42:54Z</time>
      </trkpt>
      <trkpt lat="47.88401" lon="-2.73108">
        <ele>115</ele>
        <time>2012-09-23T08:42:59Z</time>
      </trkpt>
      <trkpt lat="47.88404" lon="-2.7312">
        <ele>115</ele>
        <time>2012-09-23T08:43:05Z</time>
      </trkpt>
      <trkpt lat="47.88405" lon="-2.73131">
        <ele>115</ele>
        <time>2012-09-23T08:43:12Z</time>
      </trkpt>
      <trkpt lat="47.88405" lon="-2.73143">
        <ele>114</ele>
        <time>2012-09-23T08:43:17Z</time>
      </trkpt>
      <trkpt lat="47.88405" lon="-2.73157">
        <ele>115</ele>
        <time>2012-09-23T08:43:23Z</time>
      </trkpt>
      <trkpt lat="47.88406" lon="-2.73169">
        <ele>115</ele>
        <time>2012-09-23T08:43:29Z</time>
      </trkpt>
      <trkpt lat="47.88406" lon="-2.73182">
        <ele>114</ele>
        <time>2012-09-23T08:43:35Z</time>
      </trkpt>
      <trkpt lat="47.88409" lon="-2.73195">
        <ele>113</ele>
        <time>2012-09-23T08:43:41Z</time>
      </trkpt>
      <trkpt lat="47.88412" lon="-2.73205">
        <ele>112</ele>
        <time>2012-09-23T08:43:46Z</time>
      </trkpt>
      <trkpt lat="47.88415" lon="-2.73215">
        <ele>112</ele>
        <time>2012-09-23T08:43:51Z</time>
      </trkpt>
      <trkpt lat="47.88417" lon="-2.73227">
        <ele>111</ele>
        <time>2012-09-23T08:43:57Z</time>
      </trkpt>
      <trkpt lat="47.88419" lon="-2.73238">
        <ele>111</ele>
        <time>2012-09-23T08:44:02Z</time>
      </trkpt>
      <trkpt lat="47.88421" lon="-2.7325">
        <ele>111</ele>
        <time>2012-09-23T08:44:06Z</time>
      </trkpt>
      <trkpt lat="47.88422" lon="-2.73262">
        <ele>110</ele>
        <time>2012-09-23T08:44:11Z</time>
      </trkpt>
      <trkpt lat="47.88423" lon="-2.73274">
        <ele>111</ele>
        <time>2012-09-23T08:44:18Z</time>
      </trkpt>
      <trkpt lat="47.88425" lon="-2.73287">
        <ele>110</ele>
        <time>2012-09-23T08:44:26Z</time>
      </trkpt>
      <trkpt lat="47.88429" lon="-2.73299">
        <ele>109</ele>
        <time>2012-09-23T08:44:33Z</time>
      </trkpt>
      <trkpt lat="47.88432" lon="-2.73311">
        <ele>108</ele>
        <time>2012-09-23T08:44:39Z</time>
      </trkpt>
      <trkpt lat="47.88434" lon="-2.73323">
        <ele>107</ele>
        <time>2012-09-23T08:44:45Z</time>
      </trkpt>
      <trkpt lat="47.88435" lon="-2.73335">
        <ele>107</ele>
        <time>2012-09-23T08:44:51Z</time>
      </trkpt>
      <trkpt lat="47.88436" lon="-2.73347">
        <ele>106</ele>
        <time>2012-09-23T08:44:57Z</time>
      </trkpt>
      <trkpt lat="47.88438" lon="-2.73358">
        <ele>105</ele>
        <time>2012-09-23T08:45:02Z</time>
      </trkpt>
      <trkpt lat="47.88439" lon="-2.73369">
        <ele>105</ele>
        <time>2012-09-23T08:45:07Z</time>
      </trkpt>
      <trkpt lat="47.8844" lon="-2.73381">
        <ele>105</ele>
        <time>2012-09-23T08:45:13Z</time>
      </trkpt>
      <trkpt lat="47.8844" lon="-2.73392">
        <ele>105</ele>
        <time>2012-09-23T08:45:17Z</time>
      </trkpt>
      <trkpt lat="47.88442" lon="-2.73403">
        <ele>105</ele>
        <time>2012-09-23T08:45:22Z</time>
      </trkpt>
      <trkpt lat="47.88445" lon="-2.73415">
        <ele>105</ele>
        <time>2012-09-23T08:45:28Z</time>
      </trkpt>
      <trkpt lat="47.88454" lon="-2.73417">
        <ele>104</ele>
        <time>2012-09-23T08:45:34Z</time>
      </trkpt>
      <trkpt lat="47.88461" lon="-2.73414">
        <ele>103</ele>
        <time>2012-09-23T08:45:39Z</time>
      </trkpt>
      <trkpt lat="47.88469" lon="-2.73411">
        <ele>103</ele>
        <time>2012-09-23T08:45:45Z</time>
      </trkpt>
      <trkpt lat="47.88478" lon="-2.73409">
        <ele>102</ele>
        <time>2012-09-23T08:45:51Z</time>
      </trkpt>
      <trkpt lat="47.88486" lon="-2.73406">
        <ele>102</ele>
        <time>2012-09-23T08:45:57Z</time>
      </trkpt>
      <trkpt lat="47.88494" lon="-2.73401">
        <ele>102</ele>
        <time>2012-09-23T08:46:04Z</time>
      </trkpt>
      <trkpt lat="47.88502" lon="-2.73397">
        <ele>105</ele>
        <time>2012-09-23T08:46:13Z</time>
      </trkpt>
      <trkpt lat="47.8851" lon="-2.73394">
        <ele>106</ele>
        <time>2012-09-23T08:46:20Z</time>
      </trkpt>
      <trkpt lat="47.88519" lon="-2.73392">
        <ele>107</ele>
        <time>2012-09-23T08:46:27Z</time>
      </trkpt>
      <trkpt lat="47.88527" lon="-2.73389">
        <ele>108</ele>
        <time>2012-09-23T08:46:34Z</time>
      </trkpt>
      <trkpt lat="47.88536" lon="-2.73387">
        <ele>105</ele>
        <time>2012-09-23T08:46:39Z</time>
      </trkpt>
      <trkpt lat="47.88544" lon="-2.73387">
        <ele>104</ele>
        <time>2012-09-23T08:46:44Z</time>
      </trkpt>
      <trkpt lat="47.88554" lon="-2.73388">
        <ele>102</ele>
        <time>2012-09-23T08:46:49Z</time>
      </trkpt>
      <trkpt lat="47.88561" lon="-2.73389">
        <ele>102</ele>
        <time>2012-09-23T08:46:53Z</time>
      </trkpt>
      <trkpt lat="47.8857" lon="-2.7339">
        <ele>102</ele>
        <time>2012-09-23T08:46:58Z</time>
      </trkpt>
      <trkpt lat="47.88578" lon="-2.73388">
        <ele>101</ele>
        <time>2012-09-23T08:47:03Z</time>
      </trkpt>
      <trkpt lat="47.88586" lon="-2.73385">
        <ele>102</ele>
        <time>2012-09-23T08:47:10Z</time>
      </trkpt>
      <trkpt lat="47.88595" lon="-2.73383">
        <ele>102</ele>
        <time>2012-09-23T08:47:15Z</time>
      </trkpt>
      <trkpt lat="47.88602" lon="-2.73381">
        <ele>101</ele>
        <time>2012-09-23T08:47:21Z</time>
      </trkpt>
      <trkpt lat="47.88611" lon="-2.73379">
        <ele>101</ele>
        <time>2012-09-23T08:47:26Z</time>
      </trkpt>
      <trkpt lat="47.88618" lon="-2.73375">
        <ele>101</ele>
        <time>2012-09-23T08:47:30Z</time>
      </trkpt>
      <trkpt lat="47.88625" lon="-2.73371">
        <ele>100</ele>
        <time>2012-09-23T08:47:35Z</time>
      </trkpt>
      <trkpt lat="47.88633" lon="-2.73368">
        <ele>100</ele>
        <time>2012-09-23T08:47:40Z</time>
      </trkpt>
      <trkpt lat="47.88642" lon="-2.73366">
        <ele>100</ele>
        <time>2012-09-23T08:47:45Z</time>
      </trkpt>
      <trkpt lat="47.8865" lon="-2.73364">
        <ele>100</ele>
        <time>2012-09-23T08:47:50Z</time>
      </trkpt>
      <trkpt lat="47.88658" lon="-2.73363">
        <ele>101</ele>
        <time>2012-09-23T08:47:55Z</time>
      </trkpt>
      <trkpt lat="47.88666" lon="-2.73363">
        <ele>101</ele>
        <time>2012-09-23T08:48:00Z</time>
      </trkpt>
      <trkpt lat="47.88674" lon="-2.73365">
        <ele>102</ele>
        <time>2012-09-23T08:48:05Z</time>
      </trkpt>
      <trkpt lat="47.88682" lon="-2.73365">
        <ele>103</ele>
        <time>2012-09-23T08:48:11Z</time>
      </trkpt>
      <trkpt lat="47.8869" lon="-2.73361">
        <ele>103</ele>
        <time>2012-09-23T08:48:17Z</time>
      </trkpt>
      <trkpt lat="47.88697" lon="-2.73353">
        <ele>102</ele>
        <time>2012-09-23T08:48:23Z</time>
      </trkpt>
      <trkpt lat="47.88702" lon="-2.73345">
        <ele>103</ele>
        <time>2012-09-23T08:48:28Z</time>
      </trkpt>
      <trkpt lat="47.88708" lon="-2.73336">
        <ele>104</ele>
        <time>2012-09-23T08:48:34Z</time>
      </trkpt>
      <trkpt lat="47.88713" lon="-2.73327">
        <ele>105</ele>
        <time>2012-09-23T08:48:39Z</time>
      </trkpt>
      <trkpt lat="47.88719" lon="-2.73319">
        <ele>104</ele>
        <time>2012-09-23T08:48:44Z</time>
      </trkpt>
      <trkpt lat="47.88724" lon="-2.73311">
        <ele>105</ele>
        <time>2012-09-23T08:48:49Z</time>
      </trkpt>
      <trkpt lat="47.88728" lon="-2.73301">
        <ele>106</ele>
        <time>2012-09-23T08:48:54Z</time>
      </trkpt>
      <trkpt lat="47.88732" lon="-2.73289">
        <ele>107</ele>
        <time>2012-09-23T08:49:00Z</time>
      </trkpt>
      <trkpt lat="47.88736" lon="-2.73279">
        <ele>108</ele>
        <time>2012-09-23T08:49:05Z</time>
      </trkpt>
      <trkpt lat="47.88741" lon="-2.73268">
        <ele>109</ele>
        <time>2012-09-23T08:49:10Z</time>
      </trkpt>
      <trkpt lat="47.88746" lon="-2.73259">
        <ele>110</ele>
        <time>2012-09-23T08:49:15Z</time>
      </trkpt>
      <trkpt lat="47.8875" lon="-2.73249">
        <ele>110</ele>
        <time>2012-09-23T08:49:20Z</time>
      </trkpt>
      <trkpt lat="47.88754" lon="-2.73239">
        <ele>112</ele>
        <time>2012-09-23T08:49:25Z</time>
      </trkpt>
      <trkpt lat="47.88758" lon="-2.73228">
        <ele>112</ele>
        <time>2012-09-23T08:49:31Z</time>
      </trkpt>
      <trkpt lat="47.88759" lon="-2.73216">
        <ele>107</ele>
        <time>2012-09-23T08:50:38Z</time>
      </trkpt>
      <trkpt lat="47.88765" lon="-2.73206">
        <ele>110</ele>
        <time>2012-09-23T08:50:45Z</time>
      </trkpt>
      <trkpt lat="47.88767" lon="-2.73218">
        <ele>113</ele>
        <time>2012-09-23T08:52:26Z</time>
      </trkpt>
      <trkpt lat="47.88775" lon="-2.73222">
        <ele>116</ele>
        <time>2012-09-23T08:52:36Z</time>
      </trkpt>
      <trkpt lat="47.88784" lon="-2.73225">
        <ele>115</ele>
        <time>2012-09-23T08:52:46Z</time>
      </trkpt>
      <trkpt lat="47.88791" lon="-2.73228">
        <ele>115</ele>
        <time>2012-09-23T08:52:53Z</time>
      </trkpt>
      <trkpt lat="47.88799" lon="-2.73233">
        <ele>115</ele>
        <time>2012-09-23T08:52:59Z</time>
      </trkpt>
      <trkpt lat="47.88807" lon="-2.73239">
        <ele>117</ele>
        <time>2012-09-23T08:53:05Z</time>
      </trkpt>
      <trkpt lat="47.88814" lon="-2.73246">
        <ele>116</ele>
        <time>2012-09-23T08:53:11Z</time>
      </trkpt>
      <trkpt lat="47.88821" lon="-2.73254">
        <ele>115</ele>
        <time>2012-09-23T08:53:18Z</time>
      </trkpt>
      <trkpt lat="47.88826" lon="-2.73263">
        <ele>115</ele>
        <time>2012-09-23T08:53:22Z</time>
      </trkpt>
      <trkpt lat="47.88831" lon="-2.73273">
        <ele>116</ele>
        <time>2012-09-23T08:53:27Z</time>
      </trkpt>
      <trkpt lat="47.88835" lon="-2.73285">
        <ele>117</ele>
        <time>2012-09-23T08:53:34Z</time>
      </trkpt>
      <trkpt lat="47.8884" lon="-2.73296">
        <ele>117</ele>
        <time>2012-09-23T08:53:39Z</time>
      </trkpt>
      <trkpt lat="47.88847" lon="-2.73304">
        <ele>118</ele>
        <time>2012-09-23T08:53:45Z</time>
      </trkpt>
      <trkpt lat="47.88853" lon="-2.7331">
        <ele>117</ele>
        <time>2012-09-23T08:53:50Z</time>
      </trkpt>
      <trkpt lat="47.88862" lon="-2.73319">
        <ele>116</ele>
        <time>2012-09-23T08:53:55Z</time>
      </trkpt>
      <trkpt lat="47.88868" lon="-2.73324">
        <ele>115</ele>
        <time>2012-09-23T08:53:59Z</time>
      </trkpt>
      <trkpt lat="47.88876" lon="-2.73329">
        <ele>115</ele>
        <time>2012-09-23T08:54:04Z</time>
      </trkpt>
      <trkpt lat="47.88883" lon="-2.73332">
        <ele>114</ele>
        <time>2012-09-23T08:54:09Z</time>
      </trkpt>
      <trkpt lat="47.88891" lon="-2.73334">
        <ele>115</ele>
        <time>2012-09-23T08:54:14Z</time>
      </trkpt>
      <trkpt lat="47.889" lon="-2.73335">
        <ele>116</ele>
        <time>2012-09-23T08:54:20Z</time>
      </trkpt>
      <trkpt lat="47.88909" lon="-2.73335">
        <ele>116</ele>
        <time>2012-09-23T08:54:27Z</time>
      </trkpt>
      <trkpt lat="47.88917" lon="-2.7334">
        <ele>116</ele>
        <time>2012-09-23T08:54:46Z</time>
      </trkpt>
      <trkpt lat="47.88925" lon="-2.73344">
        <ele>110</ele>
        <time>2012-09-23T08:55:24Z</time>
      </trkpt>
      <trkpt lat="47.88933" lon="-2.73348">
        <ele>108</ele>
        <time>2012-09-23T08:55:31Z</time>
      </trkpt>
      <trkpt lat="47.88941" lon="-2.73345">
        <ele>108</ele>
        <time>2012-09-23T08:55:40Z</time>
      </trkpt>
      <trkpt lat="47.8895" lon="-2.73347">
        <ele>108</ele>
        <time>2012-09-23T08:55:47Z</time>
      </trkpt>
      <trkpt lat="47.88957" lon="-2.73355">
        <ele>108</ele>
        <time>2012-09-23T08:55:53Z</time>
      </trkpt>
      <trkpt lat="47.88962" lon="-2.73363">
        <ele>109</ele>
        <time>2012-09-23T08:55:58Z</time>
      </trkpt>
      <trkpt lat="47.8897" lon="-2.73369">
        <ele>108</ele>
        <time>2012-09-23T08:56:04Z</time>
      </trkpt>
      <trkpt lat="47.88979" lon="-2.7337">
        <ele>109</ele>
        <time>2012-09-23T08:56:10Z</time>
      </trkpt>
      <trkpt lat="47.88987" lon="-2.7337">
        <ele>109</ele>
        <time>2012-09-23T08:56:16Z</time>
      </trkpt>
      <trkpt lat="47.88995" lon="-2.73369">
        <ele>111</ele>
        <time>2012-09-23T08:56:22Z</time>
      </trkpt>
      <trkpt lat="47.89004" lon="-2.73372">
        <ele>111</ele>
        <time>2012-09-23T08:56:28Z</time>
      </trkpt>
      <trkpt lat="47.89012" lon="-2.73376">
        <ele>112</ele>
        <time>2012-09-23T08:56:34Z</time>
      </trkpt>
      <trkpt lat="47.89019" lon="-2.73379">
        <ele>114</ele>
        <time>2012-09-23T08:56:39Z</time>
      </trkpt>
      <trkpt lat="47.89027" lon="-2.73384">
        <ele>114</ele>
        <time>2012-09-23T08:56:45Z</time>
      </trkpt>
      <trkpt lat="47.89034" lon="-2.73391">
        <ele>113</ele>
        <time>2012-09-23T08:56:49Z</time>
      </trkpt>
      <trkpt lat="47.89039" lon="-2.734">
        <ele>114</ele>
        <time>2012-09-23T08:56:54Z</time>
      </trkpt>
      <trkpt lat="47.89044" lon="-2.73411">
        <ele>114</ele>
        <time>2012-09-23T08:57:00Z</time>
      </trkpt>
      <trkpt lat="47.89047" lon="-2.73424">
        <ele>114</ele>
        <time>2012-09-23T08:57:06Z</time>
      </trkpt>
      <trkpt lat="47.89049" lon="-2.73434">
        <ele>114</ele>
        <time>2012-09-23T08:57:11Z</time>
      </trkpt>
      <trkpt lat="47.89052" lon="-2.73445">
        <ele>114</ele>
        <time>2012-09-23T08:57:16Z</time>
      </trkpt>
      <trkpt lat="47.89056" lon="-2.73457">
        <ele>114</ele>
        <time>2012-09-23T08:57:22Z</time>
      </trkpt>
      <trkpt lat="47.8906" lon="-2.73467">
        <ele>115</ele>
        <time>2012-09-23T08:57:28Z</time>
      </trkpt>
      <trkpt lat="47.89063" lon="-2.73478">
        <ele>115</ele>
        <time>2012-09-23T08:57:32Z</time>
      </trkpt>
      <trkpt lat="47.89067" lon="-2.7349">
        <ele>115</ele>
        <time>2012-09-23T08:57:37Z</time>
      </trkpt>
      <trkpt lat="47.89072" lon="-2.73498">
        <ele>116</ele>
        <time>2012-09-23T08:57:42Z</time>
      </trkpt>
      <trkpt lat="47.89079" lon="-2.73505">
        <ele>116</ele>
        <time>2012-09-23T08:57:47Z</time>
      </trkpt>
      <trkpt lat="47.89085" lon="-2.73511">
        <ele>116</ele>
        <time>2012-09-23T08:57:52Z</time>
      </trkpt>
      <trkpt lat="47.89093" lon="-2.73517">
        <ele>115</ele>
        <time>2012-09-23T08:57:58Z</time>
      </trkpt>
      <trkpt lat="47.89101" lon="-2.73521">
        <ele>115</ele>
        <time>2012-09-23T08:58:04Z</time>
      </trkpt>
      <trkpt lat="47.89109" lon="-2.73522">
        <ele>114</ele>
        <time>2012-09-23T08:58:09Z</time>
      </trkpt>
      <trkpt lat="47.89117" lon="-2.73523">
        <ele>113</ele>
        <time>2012-09-23T08:58:15Z</time>
      </trkpt>
      <trkpt lat="47.89125" lon="-2.7352">
        <ele>113</ele>
        <time>2012-09-23T08:58:20Z</time>
      </trkpt>
      <trkpt lat="47.89133" lon="-2.73519">
        <ele>112</ele>
        <time>2012-09-23T08:58:26Z</time>
      </trkpt>
      <trkpt lat="47.8914" lon="-2.73517">
        <ele>111</ele>
        <time>2012-09-23T08:58:30Z</time>
      </trkpt>
      <trkpt lat="47.89148" lon="-2.73515">
        <ele>111</ele>
        <time>2012-09-23T08:58:35Z</time>
      </trkpt>
      <trkpt lat="47.89156" lon="-2.73512">
        <ele>110</ele>
        <time>2012-09-23T08:58:40Z</time>
      </trkpt>
      <trkpt lat="47.89164" lon="-2.73512">
        <ele>110</ele>
        <time>2012-09-23T08:58:45Z</time>
      </trkpt>
      <trkpt lat="47.89173" lon="-2.7351">
        <ele>111</ele>
        <time>2012-09-23T08:58:51Z</time>
      </trkpt>
      <trkpt lat="47.89182" lon="-2.7351">
        <ele>111</ele>
        <time>2012-09-23T08:58:57Z</time>
      </trkpt>
      <trkpt lat="47.8919" lon="-2.7351">
        <ele>111</ele>
        <time>2012-09-23T08:59:03Z</time>
      </trkpt>
      <trkpt lat="47.89198" lon="-2.73506">
        <ele>110</ele>
        <time>2012-09-23T08:59:08Z</time>
      </trkpt>
      <trkpt lat="47.89206" lon="-2.73502">
        <ele>111</ele>
        <time>2012-09-23T08:59:13Z</time>
      </trkpt>
      <trkpt lat="47.89213" lon="-2.73498">
        <ele>111</ele>
        <time>2012-09-23T08:59:18Z</time>
      </trkpt>
      <trkpt lat="47.89221" lon="-2.73496">
        <ele>111</ele>
        <time>2012-09-23T08:59:23Z</time>
      </trkpt>
      <trkpt lat="47.89229" lon="-2.73496">
        <ele>111</ele>
        <time>2012-09-23T08:59:28Z</time>
      </trkpt>
      <trkpt lat="47.89237" lon="-2.73494">
        <ele>111</ele>
        <time>2012-09-23T08:59:34Z</time>
      </trkpt>
      <trkpt lat="47.89246" lon="-2.73495">
        <ele>110</ele>
        <time>2012-09-23T08:59:40Z</time>
      </trkpt>
      <trkpt lat="47.89253" lon="-2.73495">
        <ele>109</ele>
        <time>2012-09-23T08:59:45Z</time>
      </trkpt>
      <trkpt lat="47.89261" lon="-2.73493">
        <ele>108</ele>
        <time>2012-09-23T08:59:50Z</time>
      </trkpt>
      <trkpt lat="47.8927" lon="-2.73493">
        <ele>108</ele>
        <time>2012-09-23T08:59:55Z</time>
      </trkpt>
      <trkpt lat="47.89277" lon="-2.73498">
        <ele>108</ele>
        <time>2012-09-23T09:00:00Z</time>
      </trkpt>
      <trkpt lat="47.89283" lon="-2.73506">
        <ele>108</ele>
        <time>2012-09-23T09:00:05Z</time>
      </trkpt>
      <trkpt lat="47.89288" lon="-2.73516">
        <ele>108</ele>
        <time>2012-09-23T09:00:10Z</time>
      </trkpt>
      <trkpt lat="47.8929" lon="-2.73527">
        <ele>108</ele>
        <time>2012-09-23T09:00:15Z</time>
      </trkpt>
      <trkpt lat="47.89287" lon="-2.7354">
        <ele>107</ele>
        <time>2012-09-23T09:00:21Z</time>
      </trkpt>
      <trkpt lat="47.89279" lon="-2.73545">
        <ele>106</ele>
        <time>2012-09-23T09:00:27Z</time>
      </trkpt>
      <trkpt lat="47.8927" lon="-2.73547">
        <ele>105</ele>
        <time>2012-09-23T09:00:32Z</time>
      </trkpt>
      <trkpt lat="47.89262" lon="-2.7355">
        <ele>104</ele>
        <time>2012-09-23T09:00:37Z</time>
      </trkpt>
      <trkpt lat="47.89254" lon="-2.73552">
        <ele>103</ele>
        <time>2012-09-23T09:00:42Z</time>
      </trkpt>
      <trkpt lat="47.89246" lon="-2.73556">
        <ele>102</ele>
        <time>2012-09-23T09:00:47Z</time>
      </trkpt>
      <trkpt lat="47.8924" lon="-2.73564">
        <ele>102</ele>
        <time>2012-09-23T09:00:53Z</time>
      </trkpt>
      <trkpt lat="47.89234" lon="-2.73574">
        <ele>100</ele>
        <time>2012-09-23T09:00:58Z</time>
      </trkpt>
      <trkpt lat="47.89229" lon="-2.73582">
        <ele>99</ele>
        <time>2012-09-23T09:01:03Z</time>
      </trkpt>
      <trkpt lat="47.89223" lon="-2.73591">
        <ele>100</ele>
        <time>2012-09-23T09:01:09Z</time>
      </trkpt>
      <trkpt lat="47.89218" lon="-2.736">
        <ele>99</ele>
        <time>2012-09-23T09:01:13Z</time>
      </trkpt>
      <trkpt lat="47.89213" lon="-2.7361">
        <ele>98</ele>
        <time>2012-09-23T09:01:18Z</time>
      </trkpt>
      <trkpt lat="47.89209" lon="-2.73619">
        <ele>97</ele>
        <time>2012-09-23T09:01:22Z</time>
      </trkpt>
      <trkpt lat="47.89204" lon="-2.73629">
        <ele>97</ele>
        <time>2012-09-23T09:01:27Z</time>
      </trkpt>
      <trkpt lat="47.89198" lon="-2.73638">
        <ele>95</ele>
        <time>2012-09-23T09:01:32Z</time>
      </trkpt>
      <trkpt lat="47.89192" lon="-2.73646">
        <ele>95</ele>
        <time>2012-09-23T09:01:37Z</time>
      </trkpt>
      <trkpt lat="47.89186" lon="-2.73653">
        <ele>94</ele>
        <time>2012-09-23T09:01:42Z</time>
      </trkpt>
      <trkpt lat="47.8918" lon="-2.73661">
        <ele>93</ele>
        <time>2012-09-23T09:01:47Z</time>
      </trkpt>
      <trkpt lat="47.89174" lon="-2.73669">
        <ele>92</ele>
        <time>2012-09-23T09:01:52Z</time>
      </trkpt>
      <trkpt lat="47.89167" lon="-2.73677">
        <ele>92</ele>
        <time>2012-09-23T09:01:58Z</time>
      </trkpt>
      <trkpt lat="47.8916" lon="-2.73686">
        <ele>91</ele>
        <time>2012-09-23T09:02:04Z</time>
      </trkpt>
      <trkpt lat="47.89152" lon="-2.73691">
        <ele>90</ele>
        <time>2012-09-23T09:02:10Z</time>
      </trkpt>
      <trkpt lat="47.89144" lon="-2.73696">
        <ele>90</ele>
        <time>2012-09-23T09:02:16Z</time>
      </trkpt>
      <trkpt lat="47.89136" lon="-2.73701">
        <ele>89</ele>
        <time>2012-09-23T09:02:23Z</time>
      </trkpt>
      <trkpt lat="47.89128" lon="-2.73704">
        <ele>87</ele>
        <time>2012-09-23T09:02:27Z</time>
      </trkpt>
      <trkpt lat="47.89121" lon="-2.73708">
        <ele>86</ele>
        <time>2012-09-23T09:02:32Z</time>
      </trkpt>
      <trkpt lat="47.89113" lon="-2.73713">
        <ele>86</ele>
        <time>2012-09-23T09:02:37Z</time>
      </trkpt>
      <trkpt lat="47.89105" lon="-2.73714">
        <ele>86</ele>
        <time>2012-09-23T09:02:42Z</time>
      </trkpt>
      <trkpt lat="47.89097" lon="-2.73713">
        <ele>85</ele>
        <time>2012-09-23T09:02:47Z</time>
      </trkpt>
      <trkpt lat="47.89089" lon="-2.73712">
        <ele>84</ele>
        <time>2012-09-23T09:02:52Z</time>
      </trkpt>
      <trkpt lat="47.89081" lon="-2.73712">
        <ele>84</ele>
        <time>2012-09-23T09:02:57Z</time>
      </trkpt>
      <trkpt lat="47.89074" lon="-2.73712">
        <ele>84</ele>
        <time>2012-09-23T09:03:01Z</time>
      </trkpt>
      <trkpt lat="47.89067" lon="-2.73713">
        <ele>84</ele>
        <time>2012-09-23T09:03:05Z</time>
      </trkpt>
      <trkpt lat="47.89058" lon="-2.73715">
        <ele>84</ele>
        <time>2012-09-23T09:03:10Z</time>
      </trkpt>
      <trkpt lat="47.89051" lon="-2.73718">
        <ele>83</ele>
        <time>2012-09-23T09:03:15Z</time>
      </trkpt>
      <trkpt lat="47.89043" lon="-2.73721">
        <ele>81</ele>
        <time>2012-09-23T09:03:20Z</time>
      </trkpt>
      <trkpt lat="47.89036" lon="-2.73726">
        <ele>80</ele>
        <time>2012-09-23T09:03:25Z</time>
      </trkpt>
      <trkpt lat="47.89029" lon="-2.73732">
        <ele>80</ele>
        <time>2012-09-23T09:03:30Z</time>
      </trkpt>
      <trkpt lat="47.89023" lon="-2.73739">
        <ele>81</ele>
        <time>2012-09-23T09:03:35Z</time>
      </trkpt>
      <trkpt lat="47.89017" lon="-2.73748">
        <ele>81</ele>
        <time>2012-09-23T09:03:40Z</time>
      </trkpt>
      <trkpt lat="47.89011" lon="-2.73755">
        <ele>81</ele>
        <time>2012-09-23T09:03:45Z</time>
      </trkpt>
      <trkpt lat="47.89005" lon="-2.73762">
        <ele>82</ele>
        <time>2012-09-23T09:03:50Z</time>
      </trkpt>
      <trkpt lat="47.88999" lon="-2.7377">
        <ele>82</ele>
        <time>2012-09-23T09:03:55Z</time>
      </trkpt>
      <trkpt lat="47.88993" lon="-2.73779">
        <ele>81</ele>
        <time>2012-09-23T09:04:00Z</time>
      </trkpt>
      <trkpt lat="47.88987" lon="-2.73786">
        <ele>80</ele>
        <time>2012-09-23T09:04:05Z</time>
      </trkpt>
      <trkpt lat="47.8898" lon="-2.73794">
        <ele>80</ele>
        <time>2012-09-23T09:04:10Z</time>
      </trkpt>
      <trkpt lat="47.88973" lon="-2.73801">
        <ele>80</ele>
        <time>2012-09-23T09:04:15Z</time>
      </trkpt>
      <trkpt lat="47.88966" lon="-2.73808">
        <ele>80</ele>
        <time>2012-09-23T09:04:20Z</time>
      </trkpt>
      <trkpt lat="47.88959" lon="-2.73812">
        <ele>81</ele>
        <time>2012-09-23T09:04:25Z</time>
      </trkpt>
      <trkpt lat="47.88951" lon="-2.73817">
        <ele>82</ele>
        <time>2012-09-23T09:04:30Z</time>
      </trkpt>
      <trkpt lat="47.88944" lon="-2.7382">
        <ele>82</ele>
        <time>2012-09-23T09:04:35Z</time>
      </trkpt>
      <trkpt lat="47.88936" lon="-2.73822">
        <ele>82</ele>
        <time>2012-09-23T09:04:40Z</time>
      </trkpt>
      <trkpt lat="47.88928" lon="-2.73824">
        <ele>82</ele>
        <time>2012-09-23T09:04:45Z</time>
      </trkpt>
      <trkpt lat="47.8892" lon="-2.73827">
        <ele>81</ele>
        <time>2012-09-23T09:04:50Z</time>
      </trkpt>
      <trkpt lat="47.88913" lon="-2.73831">
        <ele>82</ele>
        <time>2012-09-23T09:04:55Z</time>
      </trkpt>
      <trkpt lat="47.88905" lon="-2.73836">
        <ele>84</ele>
        <time>2012-09-23T09:05:00Z</time>
      </trkpt>
      <trkpt lat="47.88897" lon="-2.73843">
        <ele>84</ele>
        <time>2012-09-23T09:05:05Z</time>
      </trkpt>
      <trkpt lat="47.8889" lon="-2.73847">
        <ele>84</ele>
        <time>2012-09-23T09:05:10Z</time>
      </trkpt>
      <trkpt lat="47.88882" lon="-2.73851">
        <ele>84</ele>
        <time>2012-09-23T09:05:15Z</time>
      </trkpt>
      <trkpt lat="47.88875" lon="-2.73854">
        <ele>85</ele>
        <time>2012-09-23T09:05:20Z</time>
      </trkpt>
      <trkpt lat="47.88867" lon="-2.73854">
        <ele>84</ele>
        <time>2012-09-23T09:05:25Z</time>
      </trkpt>
      <trkpt lat="47.88859" lon="-2.73854">
        <ele>84</ele>
        <time>2012-09-23T09:05:30Z</time>
      </trkpt>
      <trkpt lat="47.88851" lon="-2.73851">
        <ele>86</ele>
        <time>2012-09-23T09:05:36Z</time>
      </trkpt>
      <trkpt lat="47.88843" lon="-2.73848">
        <ele>86</ele>
        <time>2012-09-23T09:05:41Z</time>
      </trkpt>
      <trkpt lat="47.88835" lon="-2.7385">
        <ele>84</ele>
        <time>2012-09-23T09:05:46Z</time>
      </trkpt>
      <trkpt lat="47.88827" lon="-2.73856">
        <ele>83</ele>
        <time>2012-09-23T09:05:51Z</time>
      </trkpt>
      <trkpt lat="47.88821" lon="-2.73862">
        <ele>82</ele>
        <time>2012-09-23T09:05:55Z</time>
      </trkpt>
      <trkpt lat="47.88814" lon="-2.73872">
        <ele>82</ele>
        <time>2012-09-23T09:06:00Z</time>
      </trkpt>
      <trkpt lat="47.8881" lon="-2.73882">
        <ele>84</ele>
        <time>2012-09-23T09:06:05Z</time>
      </trkpt>
      <trkpt lat="47.88811" lon="-2.73895">
        <ele>84</ele>
        <time>2012-09-23T09:06:10Z</time>
      </trkpt>
      <trkpt lat="47.88811" lon="-2.73907">
        <ele>85</ele>
        <time>2012-09-23T09:06:15Z</time>
      </trkpt>
      <trkpt lat="47.88812" lon="-2.73918">
        <ele>86</ele>
        <time>2012-09-23T09:06:20Z</time>
      </trkpt>
      <trkpt lat="47.88813" lon="-2.7393">
        <ele>86</ele>
        <time>2012-09-23T09:06:25Z</time>
      </trkpt>
      <trkpt lat="47.88814" lon="-2.73942">
        <ele>87</ele>
        <time>2012-09-23T09:06:30Z</time>
      </trkpt>
      <trkpt lat="47.88816" lon="-2.73954">
        <ele>89</ele>
        <time>2012-09-23T09:06:35Z</time>
      </trkpt>
      <trkpt lat="47.8882" lon="-2.73965">
        <ele>90</ele>
        <time>2012-09-23T09:06:41Z</time>
      </trkpt>
      <trkpt lat="47.88822" lon="-2.73977">
        <ele>90</ele>
        <time>2012-09-23T09:06:48Z</time>
      </trkpt>
      <trkpt lat="47.88818" lon="-2.73988">
        <ele>89</ele>
        <time>2012-09-23T09:06:54Z</time>
      </trkpt>
      <trkpt lat="47.88813" lon="-2.73998">
        <ele>88</ele>
        <time>2012-09-23T09:07:00Z</time>
      </trkpt>
      <trkpt lat="47.88806" lon="-2.74007">
        <ele>88</ele>
        <time>2012-09-23T09:07:06Z</time>
      </trkpt>
      <trkpt lat="47.888" lon="-2.74017">
        <ele>87</ele>
        <time>2012-09-23T09:07:12Z</time>
      </trkpt>
      <trkpt lat="47.88793" lon="-2.74025">
        <ele>86</ele>
        <time>2012-09-23T09:07:18Z</time>
      </trkpt>
      <trkpt lat="47.88787" lon="-2.74034">
        <ele>86</ele>
        <time>2012-09-23T09:07:24Z</time>
      </trkpt>
      <trkpt lat="47.88781" lon="-2.74044">
        <ele>86</ele>
        <time>2012-09-23T09:07:30Z</time>
      </trkpt>
      <trkpt lat="47.88775" lon="-2.74053">
        <ele>85</ele>
        <time>2012-09-23T09:07:36Z</time>
      </trkpt>
      <trkpt lat="47.88769" lon="-2.74062">
        <ele>85</ele>
        <time>2012-09-23T09:07:41Z</time>
      </trkpt>
      <trkpt lat="47.88764" lon="-2.74071">
        <ele>85</ele>
        <time>2012-09-23T09:07:46Z</time>
      </trkpt>
      <trkpt lat="47.88759" lon="-2.7408">
        <ele>85</ele>
        <time>2012-09-23T09:07:51Z</time>
      </trkpt>
      <trkpt lat="47.88755" lon="-2.7409">
        <ele>83</ele>
        <time>2012-09-23T09:07:56Z</time>
      </trkpt>
      <trkpt lat="47.88749" lon="-2.741">
        <ele>82</ele>
        <time>2012-09-23T09:08:01Z</time>
      </trkpt>
      <trkpt lat="47.88744" lon="-2.74108">
        <ele>81</ele>
        <time>2012-09-23T09:08:06Z</time>
      </trkpt>
      <trkpt lat="47.88738" lon="-2.74116">
        <ele>81</ele>
        <time>2012-09-23T09:08:11Z</time>
      </trkpt>
      <trkpt lat="47.88732" lon="-2.74126">
        <ele>81</ele>
        <time>2012-09-23T09:08:16Z</time>
      </trkpt>
      <trkpt lat="47.88727" lon="-2.74137">
        <ele>81</ele>
        <time>2012-09-23T09:08:21Z</time>
      </trkpt>
      <trkpt lat="47.88722" lon="-2.74145">
        <ele>80</ele>
        <time>2012-09-23T09:08:26Z</time>
      </trkpt>
      <trkpt lat="47.88716" lon="-2.74154">
        <ele>80</ele>
        <time>2012-09-23T09:08:31Z</time>
      </trkpt>
      <trkpt lat="47.88711" lon="-2.74162">
        <ele>79</ele>
        <time>2012-09-23T09:08:35Z</time>
      </trkpt>
      <trkpt lat="47.88705" lon="-2.7417">
        <ele>80</ele>
        <time>2012-09-23T09:08:39Z</time>
      </trkpt>
      <trkpt lat="47.88702" lon="-2.74181">
        <ele>80</ele>
        <time>2012-09-23T09:08:44Z</time>
      </trkpt>
      <trkpt lat="47.88701" lon="-2.74193">
        <ele>81</ele>
        <time>2012-09-23T09:08:49Z</time>
      </trkpt>
      <trkpt lat="47.88702" lon="-2.74207">
        <ele>82</ele>
        <time>2012-09-23T09:08:54Z</time>
      </trkpt>
      <trkpt lat="47.88702" lon="-2.74219">
        <ele>82</ele>
        <time>2012-09-23T09:08:59Z</time>
      </trkpt>
      <trkpt lat="47.88701" lon="-2.7423">
        <ele>84</ele>
        <time>2012-09-23T09:09:04Z</time>
      </trkpt>
      <trkpt lat="47.887" lon="-2.74242">
        <ele>84</ele>
        <time>2012-09-23T09:09:10Z</time>
      </trkpt>
      <trkpt lat="47.88699" lon="-2.74255">
        <ele>84</ele>
        <time>2012-09-23T09:09:17Z</time>
      </trkpt>
      <trkpt lat="47.88696" lon="-2.74267">
        <ele>84</ele>
        <time>2012-09-23T09:09:26Z</time>
      </trkpt>
      <trkpt lat="47.88698" lon="-2.7428">
        <ele>83</ele>
        <time>2012-09-23T09:09:34Z</time>
      </trkpt>
      <trkpt lat="47.88702" lon="-2.7429">
        <ele>83</ele>
        <time>2012-09-23T09:09:40Z</time>
      </trkpt>
      <trkpt lat="47.88702" lon="-2.74303">
        <ele>81</ele>
        <time>2012-09-23T09:09:47Z</time>
      </trkpt>
      <trkpt lat="47.887" lon="-2.74315">
        <ele>80</ele>
        <time>2012-09-23T09:09:54Z</time>
      </trkpt>
      <trkpt lat="47.887" lon="-2.74328">
        <ele>80</ele>
        <time>2012-09-23T09:10:01Z</time>
      </trkpt>
      <trkpt lat="47.88699" lon="-2.74341">
        <ele>78</ele>
        <time>2012-09-23T09:10:08Z</time>
      </trkpt>
      <trkpt lat="47.887" lon="-2.74353">
        <ele>78</ele>
        <time>2012-09-23T09:10:14Z</time>
      </trkpt>
      <trkpt lat="47.88703" lon="-2.74364">
        <ele>79</ele>
        <time>2012-09-23T09:10:20Z</time>
      </trkpt>
      <trkpt lat="47.88704" lon="-2.74376">
        <ele>79</ele>
        <time>2012-09-23T09:10:26Z</time>
      </trkpt>
      <trkpt lat="47.88705" lon="-2.74387">
        <ele>80</ele>
        <time>2012-09-23T09:10:32Z</time>
      </trkpt>
      <trkpt lat="47.88709" lon="-2.74399">
        <ele>80</ele>
        <time>2012-09-23T09:10:38Z</time>
      </trkpt>
      <trkpt lat="47.88712" lon="-2.74409">
        <ele>80</ele>
        <time>2012-09-23T09:10:43Z</time>
      </trkpt>
      <trkpt lat="47.88718" lon="-2.74419">
        <ele>81</ele>
        <time>2012-09-23T09:10:49Z</time>
      </trkpt>
      <trkpt lat="47.88716" lon="-2.74432">
        <ele>80</ele>
        <time>2012-09-23T09:10:56Z</time>
      </trkpt>
      <trkpt lat="47.88717" lon="-2.74443">
        <ele>79</ele>
        <time>2012-09-23T09:11:03Z</time>
      </trkpt>
      <trkpt lat="47.88724" lon="-2.74451">
        <ele>80</ele>
        <time>2012-09-23T09:11:10Z</time>
      </trkpt>
      <trkpt lat="47.88727" lon="-2.74462">
        <ele>80</ele>
        <time>2012-09-23T09:11:17Z</time>
      </trkpt>
      <trkpt lat="47.88726" lon="-2.74475">
        <ele>79</ele>
        <time>2012-09-23T09:11:24Z</time>
      </trkpt>
      <trkpt lat="47.88725" lon="-2.74487">
        <ele>78</ele>
        <time>2012-09-23T09:11:31Z</time>
      </trkpt>
      <trkpt lat="47.88731" lon="-2.74495">
        <ele>78</ele>
        <time>2012-09-23T09:11:37Z</time>
      </trkpt>
      <trkpt lat="47.88737" lon="-2.74504">
        <ele>79</ele>
        <time>2012-09-23T09:11:43Z</time>
      </trkpt>
      <trkpt lat="47.88744" lon="-2.74508">
        <ele>79</ele>
        <time>2012-09-23T09:11:48Z</time>
      </trkpt>
      <trkpt lat="47.88744" lon="-2.7452">
        <ele>77</ele>
        <time>2012-09-23T09:11:56Z</time>
      </trkpt>
      <trkpt lat="47.88737" lon="-2.74527">
        <ele>77</ele>
        <time>2012-09-23T09:12:01Z</time>
      </trkpt>
      <trkpt lat="47.88739" lon="-2.74539">
        <ele>78</ele>
        <time>2012-09-23T09:12:08Z</time>
      </trkpt>
      <trkpt lat="47.88745" lon="-2.74547">
        <ele>79</ele>
        <time>2012-09-23T09:12:14Z</time>
      </trkpt>
      <trkpt lat="47.8875" lon="-2.74556">
        <ele>79</ele>
        <time>2012-09-23T09:12:21Z</time>
      </trkpt>
      <trkpt lat="47.88755" lon="-2.74567">
        <ele>80</ele>
        <time>2012-09-23T09:12:28Z</time>
      </trkpt>
      <trkpt lat="47.88759" lon="-2.74578">
        <ele>80</ele>
        <time>2012-09-23T09:12:35Z</time>
      </trkpt>
      <trkpt lat="47.88765" lon="-2.74587">
        <ele>81</ele>
        <time>2012-09-23T09:12:41Z</time>
      </trkpt>
      <trkpt lat="47.88772" lon="-2.74593">
        <ele>81</ele>
        <time>2012-09-23T09:12:48Z</time>
      </trkpt>
      <trkpt lat="47.88776" lon="-2.74604">
        <ele>82</ele>
        <time>2012-09-23T09:12:55Z</time>
      </trkpt>
      <trkpt lat="47.8878" lon="-2.74616">
        <ele>82</ele>
        <time>2012-09-23T09:13:02Z</time>
      </trkpt>
      <trkpt lat="47.88784" lon="-2.74628">
        <ele>81</ele>
        <time>2012-09-23T09:13:09Z</time>
      </trkpt>
      <trkpt lat="47.8879" lon="-2.74636">
        <ele>82</ele>
        <time>2012-09-23T09:13:16Z</time>
      </trkpt>
      <trkpt lat="47.88797" lon="-2.74643">
        <ele>82</ele>
        <time>2012-09-23T09:13:23Z</time>
      </trkpt>
      <trkpt lat="47.88799" lon="-2.74655">
        <ele>82</ele>
        <time>2012-09-23T09:13:29Z</time>
      </trkpt>
      <trkpt lat="47.88801" lon="-2.74666">
        <ele>82</ele>
        <time>2012-09-23T09:13:35Z</time>
      </trkpt>
      <trkpt lat="47.88804" lon="-2.74679">
        <ele>81</ele>
        <time>2012-09-23T09:13:41Z</time>
      </trkpt>
      <trkpt lat="47.88809" lon="-2.74689">
        <ele>81</ele>
        <time>2012-09-23T09:13:47Z</time>
      </trkpt>
      <trkpt lat="47.88813" lon="-2.747">
        <ele>82</ele>
        <time>2012-09-23T09:13:53Z</time>
      </trkpt>
      <trkpt lat="47.88815" lon="-2.74712">
        <ele>83</ele>
        <time>2012-09-23T09:13:59Z</time>
      </trkpt>
      <trkpt lat="47.88815" lon="-2.74724">
        <ele>83</ele>
        <time>2012-09-23T09:14:04Z</time>
      </trkpt>
      <trkpt lat="47.88814" lon="-2.74735">
        <ele>84</ele>
        <time>2012-09-23T09:14:09Z</time>
      </trkpt>
      <trkpt lat="47.88813" lon="-2.74746">
        <ele>83</ele>
        <time>2012-09-23T09:14:14Z</time>
      </trkpt>
      <trkpt lat="47.88811" lon="-2.74758">
        <ele>83</ele>
        <time>2012-09-23T09:14:19Z</time>
      </trkpt>
      <trkpt lat="47.88811" lon="-2.74769">
        <ele>84</ele>
        <time>2012-09-23T09:14:24Z</time>
      </trkpt>
      <trkpt lat="47.8881" lon="-2.74781">
        <ele>84</ele>
        <time>2012-09-23T09:14:29Z</time>
      </trkpt>
      <trkpt lat="47.8881" lon="-2.74794">
        <ele>84</ele>
        <time>2012-09-23T09:14:35Z</time>
      </trkpt>
      <trkpt lat="47.88809" lon="-2.74807">
        <ele>84</ele>
        <time>2012-09-23T09:14:41Z</time>
      </trkpt>
      <trkpt lat="47.88806" lon="-2.74819">
        <ele>84</ele>
        <time>2012-09-23T09:14:47Z</time>
      </trkpt>
      <trkpt lat="47.88799" lon="-2.74823">
        <ele>84</ele>
        <time>2012-09-23T09:14:56Z</time>
      </trkpt>
      <trkpt lat="47.8879" lon="-2.74824">
        <ele>84</ele>
        <time>2012-09-23T09:15:09Z</time>
      </trkpt>
      <trkpt lat="47.88792" lon="-2.74837">
        <ele>83</ele>
        <time>2012-09-23T09:15:15Z</time>
      </trkpt>
      <trkpt lat="47.88791" lon="-2.74849">
        <ele>81</ele>
        <time>2012-09-23T09:15:21Z</time>
      </trkpt>
      <trkpt lat="47.88792" lon="-2.74862">
        <ele>82</ele>
        <time>2012-09-23T09:15:28Z</time>
      </trkpt>
      <trkpt lat="47.88788" lon="-2.74873">
        <ele>82</ele>
        <time>2012-09-23T09:15:36Z</time>
      </trkpt>
      <trkpt lat="47.88782" lon="-2.74883">
        <ele>83</ele>
        <time>2012-09-23T09:16:00Z</time>
      </trkpt>
      <trkpt lat="47.88782" lon="-2.74895">
        <ele>88</ele>
        <time>2012-09-23T09:16:08Z</time>
      </trkpt>
      <trkpt lat="47.88789" lon="-2.74903">
        <ele>87</ele>
        <time>2012-09-23T09:16:13Z</time>
      </trkpt>
      <trkpt lat="47.88796" lon="-2.7491">
        <ele>86</ele>
        <time>2012-09-23T09:16:18Z</time>
      </trkpt>
      <trkpt lat="47.88799" lon="-2.74921">
        <ele>86</ele>
        <time>2012-09-23T09:16:24Z</time>
      </trkpt>
      <trkpt lat="47.88802" lon="-2.74932">
        <ele>86</ele>
        <time>2012-09-23T09:16:30Z</time>
      </trkpt>
      <trkpt lat="47.88804" lon="-2.74943">
        <ele>86</ele>
        <time>2012-09-23T09:16:36Z</time>
      </trkpt>
      <trkpt lat="47.88801" lon="-2.74955">
        <ele>85</ele>
        <time>2012-09-23T09:16:41Z</time>
      </trkpt>
      <trkpt lat="47.88796" lon="-2.74965">
        <ele>88</ele>
        <time>2012-09-23T09:16:47Z</time>
      </trkpt>
      <trkpt lat="47.88789" lon="-2.74974">
        <ele>89</ele>
        <time>2012-09-23T09:16:51Z</time>
      </trkpt>
      <trkpt lat="47.88784" lon="-2.74985">
        <ele>90</ele>
        <time>2012-09-23T09:16:56Z</time>
      </trkpt>
      <trkpt lat="47.88782" lon="-2.74998">
        <ele>90</ele>
        <time>2012-09-23T09:17:01Z</time>
      </trkpt>
      <trkpt lat="47.88781" lon="-2.7501">
        <ele>91</ele>
        <time>2012-09-23T09:17:06Z</time>
      </trkpt>
      <trkpt lat="47.88782" lon="-2.75023">
        <ele>90</ele>
        <time>2012-09-23T09:17:12Z</time>
      </trkpt>
      <trkpt lat="47.88779" lon="-2.75034">
        <ele>88</ele>
        <time>2012-09-23T09:17:17Z</time>
      </trkpt>
      <trkpt lat="47.88775" lon="-2.75044">
        <ele>89</ele>
        <time>2012-09-23T09:17:22Z</time>
      </trkpt>
      <trkpt lat="47.88774" lon="-2.75056">
        <ele>89</ele>
        <time>2012-09-23T09:17:28Z</time>
      </trkpt>
      <trkpt lat="47.88775" lon="-2.75069">
        <ele>89</ele>
        <time>2012-09-23T09:17:34Z</time>
      </trkpt>
      <trkpt lat="47.88774" lon="-2.75081">
        <ele>89</ele>
        <time>2012-09-23T09:17:40Z</time>
      </trkpt>
      <trkpt lat="47.88775" lon="-2.75093">
        <ele>90</ele>
        <time>2012-09-23T09:17:46Z</time>
      </trkpt>
      <trkpt lat="47.88776" lon="-2.75107">
        <ele>90</ele>
        <time>2012-09-23T09:17:52Z</time>
      </trkpt>
      <trkpt lat="47.88782" lon="-2.75114">
        <ele>91</ele>
        <time>2012-09-23T09:17:57Z</time>
      </trkpt>
      <trkpt lat="47.8879" lon="-2.75121">
        <ele>90</ele>
        <time>2012-09-23T09:18:05Z</time>
      </trkpt>
      <trkpt lat="47.88796" lon="-2.75131">
        <ele>90</ele>
        <time>2012-09-23T09:18:14Z</time>
      </trkpt>
      <trkpt lat="47.88796" lon="-2.75143">
        <ele>87</ele>
        <time>2012-09-23T09:18:32Z</time>
      </trkpt>
      <trkpt lat="47.88793" lon="-2.75156">
        <ele>86</ele>
        <time>2012-09-23T09:18:39Z</time>
      </trkpt>
      <trkpt lat="47.88789" lon="-2.75166">
        <ele>85</ele>
        <time>2012-09-23T09:18:45Z</time>
      </trkpt>
      <trkpt lat="47.88785" lon="-2.75176">
        <ele>84</ele>
        <time>2012-09-23T09:18:51Z</time>
      </trkpt>
      <trkpt lat="47.88784" lon="-2.75188">
        <ele>84</ele>
        <time>2012-09-23T09:18:57Z</time>
      </trkpt>
      <trkpt lat="47.88783" lon="-2.752">
        <ele>84</ele>
        <time>2012-09-23T09:19:04Z</time>
      </trkpt>
      <trkpt lat="47.88784" lon="-2.75212">
        <ele>83</ele>
        <time>2012-09-23T09:19:10Z</time>
      </trkpt>
      <trkpt lat="47.88788" lon="-2.75222">
        <ele>82</ele>
        <time>2012-09-23T09:19:16Z</time>
      </trkpt>
      <trkpt lat="47.88794" lon="-2.75231">
        <ele>83</ele>
        <time>2012-09-23T09:19:22Z</time>
      </trkpt>
      <trkpt lat="47.88799" lon="-2.7524">
        <ele>82</ele>
        <time>2012-09-23T09:19:28Z</time>
      </trkpt>
      <trkpt lat="47.88807" lon="-2.75244">
        <ele>83</ele>
        <time>2012-09-23T09:19:35Z</time>
      </trkpt>
      <trkpt lat="47.88815" lon="-2.75247">
        <ele>84</ele>
        <time>2012-09-23T09:19:42Z</time>
      </trkpt>
      <trkpt lat="47.88822" lon="-2.75254">
        <ele>84</ele>
        <time>2012-09-23T09:19:49Z</time>
      </trkpt>
      <trkpt lat="47.88828" lon="-2.75262">
        <ele>84</ele>
        <time>2012-09-23T09:19:56Z</time>
      </trkpt>
      <trkpt lat="47.88832" lon="-2.75273">
        <ele>84</ele>
        <time>2012-09-23T09:20:02Z</time>
      </trkpt>
      <trkpt lat="47.88838" lon="-2.75282">
        <ele>85</ele>
        <time>2012-09-23T09:20:08Z</time>
      </trkpt>
      <trkpt lat="47.88842" lon="-2.75294">
        <ele>84</ele>
        <time>2012-09-23T09:20:14Z</time>
      </trkpt>
      <trkpt lat="47.88842" lon="-2.75306">
        <ele>85</ele>
        <time>2012-09-23T09:20:19Z</time>
      </trkpt>
      <trkpt lat="47.88845" lon="-2.75318">
        <ele>84</ele>
        <time>2012-09-23T09:20:26Z</time>
      </trkpt>
      <trkpt lat="47.88853" lon="-2.75321">
        <ele>82</ele>
        <time>2012-09-23T09:20:34Z</time>
      </trkpt>
      <trkpt lat="47.8886" lon="-2.75325">
        <ele>82</ele>
        <time>2012-09-23T09:20:41Z</time>
      </trkpt>
      <trkpt lat="47.88868" lon="-2.75331">
        <ele>82</ele>
        <time>2012-09-23T09:20:49Z</time>
      </trkpt>
      <trkpt lat="47.88876" lon="-2.75338">
        <ele>82</ele>
        <time>2012-09-23T09:20:57Z</time>
      </trkpt>
      <trkpt lat="47.88882" lon="-2.75345">
        <ele>82</ele>
        <time>2012-09-23T09:21:04Z</time>
      </trkpt>
      <trkpt lat="47.88888" lon="-2.75354">
        <ele>82</ele>
        <time>2012-09-23T09:21:11Z</time>
      </trkpt>
      <trkpt lat="47.88895" lon="-2.75362">
        <ele>82</ele>
        <time>2012-09-23T09:21:19Z</time>
      </trkpt>
      <trkpt lat="47.88899" lon="-2.75373">
        <ele>82</ele>
        <time>2012-09-23T09:21:26Z</time>
      </trkpt>
      <trkpt lat="47.88904" lon="-2.75383">
        <ele>82</ele>
        <time>2012-09-23T09:21:32Z</time>
      </trkpt>
      <trkpt lat="47.88909" lon="-2.75393">
        <ele>82</ele>
        <time>2012-09-23T09:21:39Z</time>
      </trkpt>
      <trkpt lat="47.88914" lon="-2.75402">
        <ele>82</ele>
        <time>2012-09-23T09:21:45Z</time>
      </trkpt>
      <trkpt lat="47.88918" lon="-2.75412">
        <ele>81</ele>
        <time>2012-09-23T09:21:51Z</time>
      </trkpt>
      <trkpt lat="47.88922" lon="-2.75423">
        <ele>80</ele>
        <time>2012-09-23T09:21:57Z</time>
      </trkpt>
      <trkpt lat="47.88925" lon="-2.75434">
        <ele>80</ele>
        <time>2012-09-23T09:22:03Z</time>
      </trkpt>
      <trkpt lat="47.88926" lon="-2.75446">
        <ele>80</ele>
        <time>2012-09-23T09:22:09Z</time>
      </trkpt>
      <trkpt lat="47.88928" lon="-2.75459">
        <ele>79</ele>
        <time>2012-09-23T09:22:15Z</time>
      </trkpt>
      <trkpt lat="47.8893" lon="-2.7547">
        <ele>79</ele>
        <time>2012-09-23T09:22:20Z</time>
      </trkpt>
      <trkpt lat="47.88934" lon="-2.75481">
        <ele>79</ele>
        <time>2012-09-23T09:22:25Z</time>
      </trkpt>
      <trkpt lat="47.88939" lon="-2.75491">
        <ele>80</ele>
        <time>2012-09-23T09:22:31Z</time>
      </trkpt>
      <trkpt lat="47.88943" lon="-2.75503">
        <ele>81</ele>
        <time>2012-09-23T09:22:37Z</time>
      </trkpt>
      <trkpt lat="47.88947" lon="-2.75513">
        <ele>82</ele>
        <time>2012-09-23T09:22:42Z</time>
      </trkpt>
      <trkpt lat="47.88953" lon="-2.75522">
        <ele>83</ele>
        <time>2012-09-23T09:22:49Z</time>
      </trkpt>
      <trkpt lat="47.88961" lon="-2.75525">
        <ele>82</ele>
        <time>2012-09-23T09:22:56Z</time>
      </trkpt>
      <trkpt lat="47.88969" lon="-2.75521">
        <ele>81</ele>
        <time>2012-09-23T09:23:03Z</time>
      </trkpt>
      <trkpt lat="47.88977" lon="-2.75525">
        <ele>80</ele>
        <time>2012-09-23T09:23:10Z</time>
      </trkpt>
      <trkpt lat="47.8898" lon="-2.75536">
        <ele>79</ele>
        <time>2012-09-23T09:23:16Z</time>
      </trkpt>
      <trkpt lat="47.88983" lon="-2.75547">
        <ele>81</ele>
        <time>2012-09-23T09:23:23Z</time>
      </trkpt>
      <trkpt lat="47.88983" lon="-2.75558">
        <ele>81</ele>
        <time>2012-09-23T09:23:30Z</time>
      </trkpt>
      <trkpt lat="47.88979" lon="-2.75568">
        <ele>82</ele>
        <time>2012-09-23T09:23:36Z</time>
      </trkpt>
      <trkpt lat="47.88972" lon="-2.75576">
        <ele>84</ele>
        <time>2012-09-23T09:23:42Z</time>
      </trkpt>
      <trkpt lat="47.88966" lon="-2.75584">
        <ele>84</ele>
        <time>2012-09-23T09:23:48Z</time>
      </trkpt>
      <trkpt lat="47.8896" lon="-2.75592">
        <ele>83</ele>
        <time>2012-09-23T09:23:54Z</time>
      </trkpt>
      <trkpt lat="47.88952" lon="-2.75599">
        <ele>84</ele>
        <time>2012-09-23T09:24:00Z</time>
      </trkpt>
      <trkpt lat="47.88946" lon="-2.75608">
        <ele>84</ele>
        <time>2012-09-23T09:24:06Z</time>
      </trkpt>
      <trkpt lat="47.88939" lon="-2.75616">
        <ele>85</ele>
        <time>2012-09-23T09:24:12Z</time>
      </trkpt>
      <trkpt lat="47.88933" lon="-2.75624">
        <ele>85</ele>
        <time>2012-09-23T09:24:18Z</time>
      </trkpt>
      <trkpt lat="47.88927" lon="-2.75633">
        <ele>85</ele>
        <time>2012-09-23T09:24:24Z</time>
      </trkpt>
      <trkpt lat="47.88924" lon="-2.75645">
        <ele>85</ele>
        <time>2012-09-23T09:24:31Z</time>
      </trkpt>
      <trkpt lat="47.88927" lon="-2.75657">
        <ele>85</ele>
        <time>2012-09-23T09:24:37Z</time>
      </trkpt>
      <trkpt lat="47.88933" lon="-2.75664">
        <ele>84</ele>
        <time>2012-09-23T09:24:43Z</time>
      </trkpt>
      <trkpt lat="47.8894" lon="-2.75671">
        <ele>85</ele>
        <time>2012-09-23T09:24:49Z</time>
      </trkpt>
      <trkpt lat="47.88943" lon="-2.75683">
        <ele>83</ele>
        <time>2012-09-23T09:24:57Z</time>
      </trkpt>
      <trkpt lat="47.88941" lon="-2.75694">
        <ele>82</ele>
        <time>2012-09-23T09:25:04Z</time>
      </trkpt>
      <trkpt lat="47.88944" lon="-2.75706">
        <ele>83</ele>
        <time>2012-09-23T09:25:11Z</time>
      </trkpt>
      <trkpt lat="47.88948" lon="-2.75716">
        <ele>85</ele>
        <time>2012-09-23T09:25:18Z</time>
      </trkpt>
      <trkpt lat="47.88952" lon="-2.75727">
        <ele>85</ele>
        <time>2012-09-23T09:25:26Z</time>
      </trkpt>
      <trkpt lat="47.88955" lon="-2.75739">
        <ele>85</ele>
        <time>2012-09-23T09:25:33Z</time>
      </trkpt>
      <trkpt lat="47.88957" lon="-2.75751">
        <ele>85</ele>
        <time>2012-09-23T09:25:39Z</time>
      </trkpt>
      <trkpt lat="47.88959" lon="-2.75762">
        <ele>85</ele>
        <time>2012-09-23T09:25:46Z</time>
      </trkpt>
      <trkpt lat="47.88954" lon="-2.75772">
        <ele>85</ele>
        <time>2012-09-23T09:25:52Z</time>
      </trkpt>
      <trkpt lat="47.88948" lon="-2.75781">
        <ele>85</ele>
        <time>2012-09-23T09:25:58Z</time>
      </trkpt>
      <trkpt lat="47.88944" lon="-2.75792">
        <ele>86</ele>
        <time>2012-09-23T09:26:04Z</time>
      </trkpt>
      <trkpt lat="47.8894" lon="-2.75801">
        <ele>87</ele>
        <time>2012-09-23T09:26:10Z</time>
      </trkpt>
      <trkpt lat="47.88936" lon="-2.75813">
        <ele>87</ele>
        <time>2012-09-23T09:26:16Z</time>
      </trkpt>
      <trkpt lat="47.88931" lon="-2.75822">
        <ele>87</ele>
        <time>2012-09-23T09:26:24Z</time>
      </trkpt>
      <trkpt lat="47.8893" lon="-2.75835">
        <ele>86</ele>
        <time>2012-09-23T09:26:33Z</time>
      </trkpt>
      <trkpt lat="47.88922" lon="-2.75841">
        <ele>84</ele>
        <time>2012-09-23T09:26:41Z</time>
      </trkpt>
      <trkpt lat="47.88915" lon="-2.7585">
        <ele>85</ele>
        <time>2012-09-23T09:26:49Z</time>
      </trkpt>
      <trkpt lat="47.8891" lon="-2.7586">
        <ele>85</ele>
        <time>2012-09-23T09:26:56Z</time>
      </trkpt>
      <trkpt lat="47.88902" lon="-2.75866">
        <ele>86</ele>
        <time>2012-09-23T09:27:04Z</time>
      </trkpt>
      <trkpt lat="47.88899" lon="-2.75878">
        <ele>86</ele>
        <time>2012-09-23T09:27:11Z</time>
      </trkpt>
      <trkpt lat="47.88898" lon="-2.75888">
        <ele>84</ele>
        <time>2012-09-23T09:27:16Z</time>
      </trkpt>
      <trkpt lat="47.88897" lon="-2.759">
        <ele>83</ele>
        <time>2012-09-23T09:27:21Z</time>
      </trkpt>
      <trkpt lat="47.88892" lon="-2.75909">
        <ele>84</ele>
        <time>2012-09-23T09:27:28Z</time>
      </trkpt>
      <trkpt lat="47.88886" lon="-2.75918">
        <ele>84</ele>
        <time>2012-09-23T09:27:33Z</time>
      </trkpt>
      <trkpt lat="47.88882" lon="-2.75928">
        <ele>83</ele>
        <time>2012-09-23T09:27:39Z</time>
      </trkpt>
      <trkpt lat="47.88877" lon="-2.75937">
        <ele>83</ele>
        <time>2012-09-23T09:27:45Z</time>
      </trkpt>
      <trkpt lat="47.88873" lon="-2.75947">
        <ele>83</ele>
        <time>2012-09-23T09:27:51Z</time>
      </trkpt>
      <trkpt lat="47.88873" lon="-2.75959">
        <ele>83</ele>
        <time>2012-09-23T09:27:57Z</time>
      </trkpt>
      <trkpt lat="47.8888" lon="-2.75967">
        <ele>84</ele>
        <time>2012-09-23T09:28:03Z</time>
      </trkpt>
      <trkpt lat="47.88886" lon="-2.75975">
        <ele>84</ele>
        <time>2012-09-23T09:28:09Z</time>
      </trkpt>
      <trkpt lat="47.8889" lon="-2.75985">
        <ele>86</ele>
        <time>2012-09-23T09:28:15Z</time>
      </trkpt>
      <trkpt lat="47.88893" lon="-2.75997">
        <ele>88</ele>
        <time>2012-09-23T09:28:22Z</time>
      </trkpt>
      <trkpt lat="47.88896" lon="-2.76009">
        <ele>88</ele>
        <time>2012-09-23T09:28:29Z</time>
      </trkpt>
      <trkpt lat="47.889" lon="-2.7602">
        <ele>88</ele>
        <time>2012-09-23T09:28:36Z</time>
      </trkpt>
      <trkpt lat="47.88906" lon="-2.76029">
        <ele>88</ele>
        <time>2012-09-23T09:28:44Z</time>
      </trkpt>
      <trkpt lat="47.88912" lon="-2.76037">
        <ele>88</ele>
        <time>2012-09-23T09:28:50Z</time>
      </trkpt>
      <trkpt lat="47.88918" lon="-2.76047">
        <ele>88</ele>
        <time>2012-09-23T09:28:57Z</time>
      </trkpt>
      <trkpt lat="47.88923" lon="-2.76058">
        <ele>87</ele>
        <time>2012-09-23T09:29:04Z</time>
      </trkpt>
      <trkpt lat="47.88929" lon="-2.76065">
        <ele>87</ele>
        <time>2012-09-23T09:29:10Z</time>
      </trkpt>
      <trkpt lat="47.88936" lon="-2.76072">
        <ele>86</ele>
        <time>2012-09-23T09:29:17Z</time>
      </trkpt>
      <trkpt lat="47.88943" lon="-2.7608">
        <ele>86</ele>
        <time>2012-09-23T09:29:24Z</time>
      </trkpt>
      <trkpt lat="47.88949" lon="-2.76089">
        <ele>85</ele>
        <time>2012-09-23T09:29:31Z</time>
      </trkpt>
      <trkpt lat="47.88954" lon="-2.76098">
        <ele>84</ele>
        <time>2012-09-23T09:29:36Z</time>
      </trkpt>
      <trkpt lat="47.88958" lon="-2.76109">
        <ele>84</ele>
        <time>2012-09-23T09:29:42Z</time>
      </trkpt>
      <trkpt lat="47.8896" lon="-2.7612">
        <ele>85</ele>
        <time>2012-09-23T09:29:48Z</time>
      </trkpt>
      <trkpt lat="47.88962" lon="-2.76131">
        <ele>85</ele>
        <time>2012-09-23T09:29:54Z</time>
      </trkpt>
      <trkpt lat="47.88967" lon="-2.76141">
        <ele>86</ele>
        <time>2012-09-23T09:30:00Z</time>
      </trkpt>
      <trkpt lat="47.88971" lon="-2.76152">
        <ele>87</ele>
        <time>2012-09-23T09:30:07Z</time>
      </trkpt>
      <trkpt lat="47.88971" lon="-2.76164">
        <ele>87</ele>
        <time>2012-09-23T09:30:14Z</time>
      </trkpt>
      <trkpt lat="47.8897" lon="-2.76176">
        <ele>88</ele>
        <time>2012-09-23T09:30:20Z</time>
      </trkpt>
      <trkpt lat="47.88967" lon="-2.76188">
        <ele>90</ele>
        <time>2012-09-23T09:30:27Z</time>
      </trkpt>
      <trkpt lat="47.88969" lon="-2.76201">
        <ele>94</ele>
        <time>2012-09-23T09:30:45Z</time>
      </trkpt>
      <trkpt lat="47.88964" lon="-2.76212">
        <ele>94</ele>
        <time>2012-09-23T09:31:02Z</time>
      </trkpt>
      <trkpt lat="47.88965" lon="-2.76199">
        <ele>98</ele>
        <time>2012-09-23T09:32:15Z</time>
      </trkpt>
      <trkpt lat="47.88956" lon="-2.76196">
        <ele>97</ele>
        <time>2012-09-23T09:32:31Z</time>
      </trkpt>
      <trkpt lat="47.88948" lon="-2.76196">
        <ele>96</ele>
        <time>2012-09-23T09:32:37Z</time>
      </trkpt>
      <trkpt lat="47.8894" lon="-2.76196">
        <ele>97</ele>
        <time>2012-09-23T09:32:43Z</time>
      </trkpt>
      <trkpt lat="47.88933" lon="-2.76196">
        <ele>97</ele>
        <time>2012-09-23T09:32:49Z</time>
      </trkpt>
      <trkpt lat="47.88925" lon="-2.76197">
        <ele>97</ele>
        <time>2012-09-23T09:32:55Z</time>
      </trkpt>
      <trkpt lat="47.88917" lon="-2.762">
        <ele>97</ele>
        <time>2012-09-23T09:33:01Z</time>
      </trkpt>
      <trkpt lat="47.88911" lon="-2.76209">
        <ele>97</ele>
        <time>2012-09-23T09:33:07Z</time>
      </trkpt>
      <trkpt lat="47.88907" lon="-2.7622">
        <ele>98</ele>
        <time>2012-09-23T09:33:13Z</time>
      </trkpt>
      <trkpt lat="47.88903" lon="-2.7623">
        <ele>99</ele>
        <time>2012-09-23T09:33:19Z</time>
      </trkpt>
      <trkpt lat="47.88898" lon="-2.7624">
        <ele>99</ele>
        <time>2012-09-23T09:33:25Z</time>
      </trkpt>
      <trkpt lat="47.88893" lon="-2.7625">
        <ele>100</ele>
        <time>2012-09-23T09:33:31Z</time>
      </trkpt>
      <trkpt lat="47.88889" lon="-2.76262">
        <ele>100</ele>
        <time>2012-09-23T09:33:37Z</time>
      </trkpt>
      <trkpt lat="47.88886" lon="-2.76275">
        <ele>101</ele>
        <time>2012-09-23T09:33:43Z</time>
      </trkpt>
      <trkpt lat="47.88883" lon="-2.76286">
        <ele>102</ele>
        <time>2012-09-23T09:33:49Z</time>
      </trkpt>
      <trkpt lat="47.88876" lon="-2.76294">
        <ele>104</ele>
        <time>2012-09-23T09:33:56Z</time>
      </trkpt>
      <trkpt lat="47.88868" lon="-2.76297">
        <ele>106</ele>
        <time>2012-09-23T09:34:01Z</time>
      </trkpt>
      <trkpt lat="47.88861" lon="-2.76295">
        <ele>105</ele>
        <time>2012-09-23T09:34:06Z</time>
      </trkpt>
      <trkpt lat="47.88853" lon="-2.7629">
        <ele>105</ele>
        <time>2012-09-23T09:34:11Z</time>
      </trkpt>
      <trkpt lat="47.88846" lon="-2.76284">
        <ele>105</ele>
        <time>2012-09-23T09:34:16Z</time>
      </trkpt>
      <trkpt lat="47.88839" lon="-2.76278">
        <ele>105</ele>
        <time>2012-09-23T09:34:21Z</time>
      </trkpt>
      <trkpt lat="47.88831" lon="-2.76272">
        <ele>105</ele>
        <time>2012-09-23T09:34:26Z</time>
      </trkpt>
      <trkpt lat="47.88823" lon="-2.7627">
        <ele>106</ele>
        <time>2012-09-23T09:34:31Z</time>
      </trkpt>
      <trkpt lat="47.88815" lon="-2.76269">
        <ele>106</ele>
        <time>2012-09-23T09:34:36Z</time>
      </trkpt>
      <trkpt lat="47.88807" lon="-2.76272">
        <ele>105</ele>
        <time>2012-09-23T09:34:42Z</time>
      </trkpt>
      <trkpt lat="47.88799" lon="-2.76274">
        <ele>105</ele>
        <time>2012-09-23T09:34:47Z</time>
      </trkpt>
      <trkpt lat="47.88791" lon="-2.76277">
        <ele>106</ele>
        <time>2012-09-23T09:34:52Z</time>
      </trkpt>
      <trkpt lat="47.88784" lon="-2.7628">
        <ele>106</ele>
        <time>2012-09-23T09:34:57Z</time>
      </trkpt>
      <trkpt lat="47.88776" lon="-2.76284">
        <ele>106</ele>
        <time>2012-09-23T09:35:03Z</time>
      </trkpt>
      <trkpt lat="47.88768" lon="-2.76288">
        <ele>104</ele>
        <time>2012-09-23T09:35:08Z</time>
      </trkpt>
      <trkpt lat="47.88761" lon="-2.76294">
        <ele>103</ele>
        <time>2012-09-23T09:35:13Z</time>
      </trkpt>
      <trkpt lat="47.88752" lon="-2.76298">
        <ele>103</ele>
        <time>2012-09-23T09:36:25Z</time>
      </trkpt>
      <trkpt lat="47.88745" lon="-2.76305">
        <ele>110</ele>
        <time>2012-09-23T09:44:51Z</time>
      </trkpt>
      <trkpt lat="47.88746" lon="-2.76316">
        <ele>110</ele>
        <time>2012-09-23T09:44:57Z</time>
      </trkpt>
      <trkpt lat="47.88748" lon="-2.76328">
        <ele>111</ele>
        <time>2012-09-23T09:45:03Z</time>
      </trkpt>
      <trkpt lat="47.8875" lon="-2.76341">
        <ele>112</ele>
        <time>2012-09-23T09:45:10Z</time>
      </trkpt>
      <trkpt lat="47.88752" lon="-2.76353">
        <ele>112</ele>
        <time>2012-09-23T09:45:17Z</time>
      </trkpt>
      <trkpt lat="47.88752" lon="-2.76365">
        <ele>112</ele>
        <time>2012-09-23T09:45:24Z</time>
      </trkpt>
      <trkpt lat="47.88751" lon="-2.76378">
        <ele>110</ele>
        <time>2012-09-23T09:45:31Z</time>
      </trkpt>
      <trkpt lat="47.88751" lon="-2.76389">
        <ele>109</ele>
        <time>2012-09-23T09:45:37Z</time>
      </trkpt>
      <trkpt lat="47.8875" lon="-2.76401">
        <ele>108</ele>
        <time>2012-09-23T09:45:43Z</time>
      </trkpt>
      <trkpt lat="47.8875" lon="-2.76413">
        <ele>108</ele>
        <time>2012-09-23T09:45:49Z</time>
      </trkpt>
      <trkpt lat="47.88748" lon="-2.76425">
        <ele>107</ele>
        <time>2012-09-23T09:45:55Z</time>
      </trkpt>
      <trkpt lat="47.88745" lon="-2.76436">
        <ele>108</ele>
        <time>2012-09-23T09:46:01Z</time>
      </trkpt>
      <trkpt lat="47.88743" lon="-2.76449">
        <ele>106</ele>
        <time>2012-09-23T09:46:12Z</time>
      </trkpt>
      <trkpt lat="47.8874" lon="-2.76461">
        <ele>103</ele>
        <time>2012-09-23T09:46:44Z</time>
      </trkpt>
      <trkpt lat="47.88737" lon="-2.76474">
        <ele>103</ele>
        <time>2012-09-23T09:46:51Z</time>
      </trkpt>
      <trkpt lat="47.88735" lon="-2.76486">
        <ele>102</ele>
        <time>2012-09-23T09:46:57Z</time>
      </trkpt>
      <trkpt lat="47.88735" lon="-2.76497">
        <ele>102</ele>
        <time>2012-09-23T09:47:03Z</time>
      </trkpt>
      <trkpt lat="47.88735" lon="-2.7651">
        <ele>102</ele>
        <time>2012-09-23T09:47:09Z</time>
      </trkpt>
      <trkpt lat="47.88736" lon="-2.76522">
        <ele>101</ele>
        <time>2012-09-23T09:47:15Z</time>
      </trkpt>
      <trkpt lat="47.88736" lon="-2.76536">
        <ele>101</ele>
        <time>2012-09-23T09:47:21Z</time>
      </trkpt>
      <trkpt lat="47.88735" lon="-2.76547">
        <ele>100</ele>
        <time>2012-09-23T09:47:26Z</time>
      </trkpt>
      <trkpt lat="47.88735" lon="-2.76559">
        <ele>100</ele>
        <time>2012-09-23T09:47:32Z</time>
      </trkpt>
      <trkpt lat="47.88735" lon="-2.76572">
        <ele>100</ele>
        <time>2012-09-23T09:47:38Z</time>
      </trkpt>
      <trkpt lat="47.88735" lon="-2.76584">
        <ele>100</ele>
        <time>2012-09-23T09:47:44Z</time>
      </trkpt>
      <trkpt lat="47.88734" lon="-2.76596">
        <ele>100</ele>
        <time>2012-09-23T09:47:50Z</time>
      </trkpt>
      <trkpt lat="47.88732" lon="-2.76609">
        <ele>100</ele>
        <time>2012-09-23T09:47:57Z</time>
      </trkpt>
      <trkpt lat="47.88731" lon="-2.76622">
        <ele>99</ele>
        <time>2012-09-23T09:48:02Z</time>
      </trkpt>
      <trkpt lat="47.88729" lon="-2.76635">
        <ele>99</ele>
        <time>2012-09-23T09:48:08Z</time>
      </trkpt>
      <trkpt lat="47.88728" lon="-2.76647">
        <ele>99</ele>
        <time>2012-09-23T09:48:14Z</time>
      </trkpt>
      <trkpt lat="47.88727" lon="-2.76659">
        <ele>98</ele>
        <time>2012-09-23T09:48:20Z</time>
      </trkpt>
      <trkpt lat="47.88725" lon="-2.76671">
        <ele>98</ele>
        <time>2012-09-23T09:48:26Z</time>
      </trkpt>
      <trkpt lat="47.88723" lon="-2.76684">
        <ele>99</ele>
        <time>2012-09-23T09:48:32Z</time>
      </trkpt>
      <trkpt lat="47.88721" lon="-2.76696">
        <ele>99</ele>
        <time>2012-09-23T09:48:38Z</time>
      </trkpt>
      <trkpt lat="47.8872" lon="-2.76709">
        <ele>100</ele>
        <time>2012-09-23T09:48:44Z</time>
      </trkpt>
      <trkpt lat="47.88718" lon="-2.7672">
        <ele>100</ele>
        <time>2012-09-23T09:48:49Z</time>
      </trkpt>
      <trkpt lat="47.88716" lon="-2.76731">
        <ele>100</ele>
        <time>2012-09-23T09:48:54Z</time>
      </trkpt>
      <trkpt lat="47.88715" lon="-2.76744">
        <ele>100</ele>
        <time>2012-09-23T09:49:00Z</time>
      </trkpt>
      <trkpt lat="47.88713" lon="-2.76756">
        <ele>100</ele>
        <time>2012-09-23T09:49:06Z</time>
      </trkpt>
      <trkpt lat="47.88708" lon="-2.76768">
        <ele>100</ele>
        <time>2012-09-23T09:49:12Z</time>
      </trkpt>
      <trkpt lat="47.88704" lon="-2.76777">
        <ele>100</ele>
        <time>2012-09-23T09:49:17Z</time>
      </trkpt>
      <trkpt lat="47.887" lon="-2.76789">
        <ele>100</ele>
        <time>2012-09-23T09:49:23Z</time>
      </trkpt>
      <trkpt lat="47.88698" lon="-2.76802">
        <ele>100</ele>
        <time>2012-09-23T09:49:29Z</time>
      </trkpt>
      <trkpt lat="47.88696" lon="-2.76813">
        <ele>100</ele>
        <time>2012-09-23T09:49:35Z</time>
      </trkpt>
      <trkpt lat="47.88693" lon="-2.76825">
        <ele>100</ele>
        <time>2012-09-23T09:49:41Z</time>
      </trkpt>
      <trkpt lat="47.88691" lon="-2.76836">
        <ele>100</ele>
        <time>2012-09-23T09:49:47Z</time>
      </trkpt>
      <trkpt lat="47.88687" lon="-2.76848">
        <ele>100</ele>
        <time>2012-09-23T09:49:53Z</time>
      </trkpt>
      <trkpt lat="47.88685" lon="-2.76861">
        <ele>102</ele>
        <time>2012-09-23T09:50:01Z</time>
      </trkpt>
      <trkpt lat="47.88693" lon="-2.76863">
        <ele>102</ele>
        <time>2012-09-23T09:50:22Z</time>
      </trkpt>
      <trkpt lat="47.88701" lon="-2.76864">
        <ele>102</ele>
        <time>2012-09-23T09:50:29Z</time>
      </trkpt>
      <trkpt lat="47.8871" lon="-2.76867">
        <ele>102</ele>
        <time>2012-09-23T09:50:36Z</time>
      </trkpt>
      <trkpt lat="47.88718" lon="-2.7687">
        <ele>102</ele>
        <time>2012-09-23T09:50:43Z</time>
      </trkpt>
      <trkpt lat="47.88726" lon="-2.76872">
        <ele>103</ele>
        <time>2012-09-23T09:50:50Z</time>
      </trkpt>
      <trkpt lat="47.88735" lon="-2.76874">
        <ele>103</ele>
        <time>2012-09-23T09:50:56Z</time>
      </trkpt>
      <trkpt lat="47.88742" lon="-2.76876">
        <ele>103</ele>
        <time>2012-09-23T09:51:02Z</time>
      </trkpt>
      <trkpt lat="47.8875" lon="-2.76879">
        <ele>102</ele>
        <time>2012-09-23T09:51:08Z</time>
      </trkpt>
      <trkpt lat="47.88758" lon="-2.76881">
        <ele>102</ele>
        <time>2012-09-23T09:51:14Z</time>
      </trkpt>
      <trkpt lat="47.88767" lon="-2.76884">
        <ele>101</ele>
        <time>2012-09-23T09:51:21Z</time>
      </trkpt>
      <trkpt lat="47.88774" lon="-2.76887">
        <ele>101</ele>
        <time>2012-09-23T09:51:27Z</time>
      </trkpt>
      <trkpt lat="47.88783" lon="-2.76891">
        <ele>100</ele>
        <time>2012-09-23T09:51:33Z</time>
      </trkpt>
      <trkpt lat="47.8879" lon="-2.76896">
        <ele>100</ele>
        <time>2012-09-23T09:51:40Z</time>
      </trkpt>
      <trkpt lat="47.88797" lon="-2.76904">
        <ele>101</ele>
        <time>2012-09-23T09:51:53Z</time>
      </trkpt>
      <trkpt lat="47.88805" lon="-2.76907">
        <ele>100</ele>
        <time>2012-09-23T09:52:01Z</time>
      </trkpt>
      <trkpt lat="47.88813" lon="-2.76903">
        <ele>100</ele>
        <time>2012-09-23T09:52:08Z</time>
      </trkpt>
      <trkpt lat="47.88821" lon="-2.76897">
        <ele>99</ele>
        <time>2012-09-23T09:52:16Z</time>
      </trkpt>
      <trkpt lat="47.88829" lon="-2.76894">
        <ele>99</ele>
        <time>2012-09-23T09:52:24Z</time>
      </trkpt>
      <trkpt lat="47.88838" lon="-2.76895">
        <ele>99</ele>
        <time>2012-09-23T09:52:31Z</time>
      </trkpt>
      <trkpt lat="47.88846" lon="-2.76898">
        <ele>98</ele>
        <time>2012-09-23T09:52:38Z</time>
      </trkpt>
      <trkpt lat="47.88853" lon="-2.76901">
        <ele>98</ele>
        <time>2012-09-23T09:52:44Z</time>
      </trkpt>
      <trkpt lat="47.88861" lon="-2.76903">
        <ele>97</ele>
        <time>2012-09-23T09:52:50Z</time>
      </trkpt>
      <trkpt lat="47.8887" lon="-2.76903">
        <ele>97</ele>
        <time>2012-09-23T09:52:58Z</time>
      </trkpt>
      <trkpt lat="47.88879" lon="-2.76906">
        <ele>98</ele>
        <time>2012-09-23T09:53:04Z</time>
      </trkpt>
      <trkpt lat="47.88886" lon="-2.76909">
        <ele>98</ele>
        <time>2012-09-23T09:53:10Z</time>
      </trkpt>
      <trkpt lat="47.88894" lon="-2.76915">
        <ele>98</ele>
        <time>2012-09-23T09:53:32Z</time>
      </trkpt>
      <trkpt lat="47.88902" lon="-2.7692">
        <ele>98</ele>
        <time>2012-09-23T09:53:44Z</time>
      </trkpt>
      <trkpt lat="47.889" lon="-2.76933">
        <ele>95</ele>
        <time>2012-09-23T09:53:52Z</time>
      </trkpt>
      <trkpt lat="47.88892" lon="-2.7694">
        <ele>94</ele>
        <time>2012-09-23T09:53:58Z</time>
      </trkpt>
      <trkpt lat="47.88886" lon="-2.76948">
        <ele>91</ele>
        <time>2012-09-23T09:54:04Z</time>
      </trkpt>
      <trkpt lat="47.88883" lon="-2.76959">
        <ele>91</ele>
        <time>2012-09-23T09:54:10Z</time>
      </trkpt>
      <trkpt lat="47.88879" lon="-2.76969">
        <ele>90</ele>
        <time>2012-09-23T09:54:16Z</time>
      </trkpt>
      <trkpt lat="47.88874" lon="-2.76979">
        <ele>90</ele>
        <time>2012-09-23T09:54:23Z</time>
      </trkpt>
      <trkpt lat="47.88867" lon="-2.76987">
        <ele>90</ele>
        <time>2012-09-23T09:54:31Z</time>
      </trkpt>
      <trkpt lat="47.88865" lon="-2.77">
        <ele>90</ele>
        <time>2012-09-23T09:54:39Z</time>
      </trkpt>
      <trkpt lat="47.8886" lon="-2.7701">
        <ele>91</ele>
        <time>2012-09-23T09:54:46Z</time>
      </trkpt>
      <trkpt lat="47.88853" lon="-2.77015">
        <ele>92</ele>
        <time>2012-09-23T09:54:53Z</time>
      </trkpt>
      <trkpt lat="47.88848" lon="-2.77025">
        <ele>92</ele>
        <time>2012-09-23T09:55:00Z</time>
      </trkpt>
      <trkpt lat="47.88842" lon="-2.77033">
        <ele>90</ele>
        <time>2012-09-23T09:55:06Z</time>
      </trkpt>
      <trkpt lat="47.88835" lon="-2.77041">
        <ele>90</ele>
        <time>2012-09-23T09:55:13Z</time>
      </trkpt>
      <trkpt lat="47.88829" lon="-2.77048">
        <ele>91</ele>
        <time>2012-09-23T09:55:20Z</time>
      </trkpt>
      <trkpt lat="47.88823" lon="-2.77057">
        <ele>91</ele>
        <time>2012-09-23T09:55:26Z</time>
      </trkpt>
      <trkpt lat="47.88821" lon="-2.77068">
        <ele>92</ele>
        <time>2012-09-23T09:55:32Z</time>
      </trkpt>
      <trkpt lat="47.88823" lon="-2.7708">
        <ele>93</ele>
        <time>2012-09-23T09:55:38Z</time>
      </trkpt>
      <trkpt lat="47.88828" lon="-2.7709">
        <ele>94</ele>
        <time>2012-09-23T09:55:45Z</time>
      </trkpt>
      <trkpt lat="47.88833" lon="-2.771">
        <ele>93</ele>
        <time>2012-09-23T09:55:53Z</time>
      </trkpt>
      <trkpt lat="47.88838" lon="-2.7711">
        <ele>94</ele>
        <time>2012-09-23T09:56:02Z</time>
      </trkpt>
      <trkpt lat="47.88838" lon="-2.77124">
        <ele>95</ele>
        <time>2012-09-23T09:56:10Z</time>
      </trkpt>
      <trkpt lat="47.88837" lon="-2.77137">
        <ele>95</ele>
        <time>2012-09-23T09:56:18Z</time>
      </trkpt>
      <trkpt lat="47.88833" lon="-2.77148">
        <ele>96</ele>
        <time>2012-09-23T09:56:23Z</time>
      </trkpt>
      <trkpt lat="47.88832" lon="-2.7716">
        <ele>96</ele>
        <time>2012-09-23T09:56:31Z</time>
      </trkpt>
      <trkpt lat="47.88838" lon="-2.77169">
        <ele>97</ele>
        <time>2012-09-23T09:56:39Z</time>
      </trkpt>
      <trkpt lat="47.88844" lon="-2.77177">
        <ele>98</ele>
        <time>2012-09-23T09:56:47Z</time>
      </trkpt>
      <trkpt lat="47.88849" lon="-2.77186">
        <ele>99</ele>
        <time>2012-09-23T09:56:54Z</time>
      </trkpt>
      <trkpt lat="47.88853" lon="-2.77197">
        <ele>100</ele>
        <time>2012-09-23T09:57:02Z</time>
      </trkpt>
      <trkpt lat="47.88854" lon="-2.77209">
        <ele>99</ele>
        <time>2012-09-23T09:57:08Z</time>
      </trkpt>
      <trkpt lat="47.88854" lon="-2.77222">
        <ele>99</ele>
        <time>2012-09-23T09:57:14Z</time>
      </trkpt>
      <trkpt lat="47.88852" lon="-2.77234">
        <ele>99</ele>
        <time>2012-09-23T09:57:20Z</time>
      </trkpt>
      <trkpt lat="47.88847" lon="-2.77245">
        <ele>99</ele>
        <time>2012-09-23T09:57:25Z</time>
      </trkpt>
      <trkpt lat="47.88842" lon="-2.77255">
        <ele>99</ele>
        <time>2012-09-23T09:57:30Z</time>
      </trkpt>
      <trkpt lat="47.88836" lon="-2.77264">
        <ele>99</ele>
        <time>2012-09-23T09:57:36Z</time>
      </trkpt>
      <trkpt lat="47.8883" lon="-2.77271">
        <ele>100</ele>
        <time>2012-09-23T09:57:41Z</time>
      </trkpt>
      <trkpt lat="47.88823" lon="-2.77276">
        <ele>101</ele>
        <time>2012-09-23T09:57:46Z</time>
      </trkpt>
      <trkpt lat="47.88816" lon="-2.77279">
        <ele>100</ele>
        <time>2012-09-23T09:57:50Z</time>
      </trkpt>
      <trkpt lat="47.88808" lon="-2.77284">
        <ele>98</ele>
        <time>2012-09-23T09:57:55Z</time>
      </trkpt>
      <trkpt lat="47.88802" lon="-2.77295">
        <ele>97</ele>
        <time>2012-09-23T09:58:00Z</time>
      </trkpt>
      <trkpt lat="47.88798" lon="-2.77306">
        <ele>94</ele>
        <time>2012-09-23T09:58:05Z</time>
      </trkpt>
      <trkpt lat="47.88788" lon="-2.77316">
        <ele>94</ele>
        <time>2012-09-23T09:58:10Z</time>
      </trkpt>
      <trkpt lat="47.88782" lon="-2.77321">
        <ele>96</ele>
        <time>2012-09-23T09:58:24Z</time>
      </trkpt>
      <trkpt lat="47.88776" lon="-2.77326">
        <ele>96</ele>
        <time>2012-09-23T09:58:28Z</time>
      </trkpt>
      <trkpt lat="47.88765" lon="-2.77331">
        <ele>95</ele>
        <time>2012-09-23T09:58:33Z</time>
      </trkpt>
      <trkpt lat="47.88757" lon="-2.77332">
        <ele>95</ele>
        <time>2012-09-23T09:58:39Z</time>
      </trkpt>
      <trkpt lat="47.88749" lon="-2.77334">
        <ele>94</ele>
        <time>2012-09-23T09:58:45Z</time>
      </trkpt>
      <trkpt lat="47.88741" lon="-2.77338">
        <ele>93</ele>
        <time>2012-09-23T09:58:51Z</time>
      </trkpt>
      <trkpt lat="47.88733" lon="-2.77341">
        <ele>93</ele>
        <time>2012-09-23T09:58:58Z</time>
      </trkpt>
      <trkpt lat="47.88724" lon="-2.77343">
        <ele>93</ele>
        <time>2012-09-23T09:59:05Z</time>
      </trkpt>
      <trkpt lat="47.88717" lon="-2.77348">
        <ele>93</ele>
        <time>2012-09-23T09:59:12Z</time>
      </trkpt>
      <trkpt lat="47.88711" lon="-2.77355">
        <ele>92</ele>
        <time>2012-09-23T09:59:17Z</time>
      </trkpt>
      <trkpt lat="47.88703" lon="-2.77361">
        <ele>93</ele>
        <time>2012-09-23T09:59:24Z</time>
      </trkpt>
      <trkpt lat="47.88695" lon="-2.77367">
        <ele>93</ele>
        <time>2012-09-23T10:00:08Z</time>
      </trkpt>
      <trkpt lat="47.88687" lon="-2.77371">
        <ele>96</ele>
        <time>2012-09-23T10:00:14Z</time>
      </trkpt>
      <trkpt lat="47.88678" lon="-2.77369">
        <ele>96</ele>
        <time>2012-09-23T10:00:21Z</time>
      </trkpt>
      <trkpt lat="47.8867" lon="-2.77366">
        <ele>96</ele>
        <time>2012-09-23T10:00:31Z</time>
      </trkpt>
      <trkpt lat="47.88662" lon="-2.77371">
        <ele>97</ele>
        <time>2012-09-23T10:00:37Z</time>
      </trkpt>
      <trkpt lat="47.88654" lon="-2.77375">
        <ele>97</ele>
        <time>2012-09-23T10:00:44Z</time>
      </trkpt>
      <trkpt lat="47.88648" lon="-2.77382">
        <ele>96</ele>
        <time>2012-09-23T10:00:50Z</time>
      </trkpt>
      <trkpt lat="47.88641" lon="-2.77389">
        <ele>96</ele>
        <time>2012-09-23T10:00:56Z</time>
      </trkpt>
      <trkpt lat="47.88634" lon="-2.77394">
        <ele>96</ele>
        <time>2012-09-23T10:01:02Z</time>
      </trkpt>
      <trkpt lat="47.88626" lon="-2.77397">
        <ele>96</ele>
        <time>2012-09-23T10:01:08Z</time>
      </trkpt>
      <trkpt lat="47.88618" lon="-2.77402">
        <ele>97</ele>
        <time>2012-09-23T10:01:14Z</time>
      </trkpt>
      <trkpt lat="47.8861" lon="-2.77407">
        <ele>97</ele>
        <time>2012-09-23T10:01:21Z</time>
      </trkpt>
      <trkpt lat="47.88602" lon="-2.77408">
        <ele>97</ele>
        <time>2012-09-23T10:01:27Z</time>
      </trkpt>
      <trkpt lat="47.88594" lon="-2.77411">
        <ele>98</ele>
        <time>2012-09-23T10:01:33Z</time>
      </trkpt>
      <trkpt lat="47.88586" lon="-2.77412">
        <ele>99</ele>
        <time>2012-09-23T10:01:39Z</time>
      </trkpt>
      <trkpt lat="47.88578" lon="-2.77407">
        <ele>100</ele>
        <time>2012-09-23T10:01:45Z</time>
      </trkpt>
      <trkpt lat="47.8857" lon="-2.77402">
        <ele>101</ele>
        <time>2012-09-23T10:01:51Z</time>
      </trkpt>
      <trkpt lat="47.88563" lon="-2.77398">
        <ele>102</ele>
        <time>2012-09-23T10:02:00Z</time>
      </trkpt>
      <trkpt lat="47.88555" lon="-2.77397">
        <ele>103</ele>
        <time>2012-09-23T10:02:08Z</time>
      </trkpt>
      <trkpt lat="47.88549" lon="-2.77387">
        <ele>103</ele>
        <time>2012-09-23T10:02:16Z</time>
      </trkpt>
      <trkpt lat="47.88542" lon="-2.7738">
        <ele>102</ele>
        <time>2012-09-23T10:02:24Z</time>
      </trkpt>
      <trkpt lat="47.88536" lon="-2.77371">
        <ele>102</ele>
        <time>2012-09-23T10:02:31Z</time>
      </trkpt>
      <trkpt lat="47.88528" lon="-2.77367">
        <ele>101</ele>
        <time>2012-09-23T10:02:37Z</time>
      </trkpt>
      <trkpt lat="47.8852" lon="-2.77365">
        <ele>99</ele>
        <time>2012-09-23T10:02:43Z</time>
      </trkpt>
      <trkpt lat="47.88512" lon="-2.77362">
        <ele>98</ele>
        <time>2012-09-23T10:02:48Z</time>
      </trkpt>
      <trkpt lat="47.88504" lon="-2.77361">
        <ele>98</ele>
        <time>2012-09-23T10:02:53Z</time>
      </trkpt>
      <trkpt lat="47.88496" lon="-2.77367">
        <ele>98</ele>
        <time>2012-09-23T10:02:59Z</time>
      </trkpt>
      <trkpt lat="47.88489" lon="-2.77374">
        <ele>98</ele>
        <time>2012-09-23T10:03:19Z</time>
      </trkpt>
      <trkpt lat="47.88481" lon="-2.77377">
        <ele>96</ele>
        <time>2012-09-23T10:03:26Z</time>
      </trkpt>
      <trkpt lat="47.88474" lon="-2.77372">
        <ele>97</ele>
        <time>2012-09-23T10:03:32Z</time>
      </trkpt>
      <trkpt lat="47.88467" lon="-2.77367">
        <ele>98</ele>
        <time>2012-09-23T10:03:37Z</time>
      </trkpt>
      <trkpt lat="47.88459" lon="-2.77361">
        <ele>98</ele>
        <time>2012-09-23T10:03:42Z</time>
      </trkpt>
      <trkpt lat="47.88452" lon="-2.77356">
        <ele>97</ele>
        <time>2012-09-23T10:03:47Z</time>
      </trkpt>
      <trkpt lat="47.88445" lon="-2.77349">
        <ele>97</ele>
        <time>2012-09-23T10:03:53Z</time>
      </trkpt>
      <trkpt lat="47.88438" lon="-2.77343">
        <ele>96</ele>
        <time>2012-09-23T10:04:00Z</time>
      </trkpt>
      <trkpt lat="47.8843" lon="-2.77336">
        <ele>96</ele>
        <time>2012-09-23T10:04:07Z</time>
      </trkpt>
      <trkpt lat="47.88422" lon="-2.77333">
        <ele>96</ele>
        <time>2012-09-23T10:04:14Z</time>
      </trkpt>
      <trkpt lat="47.88414" lon="-2.77331">
        <ele>96</ele>
        <time>2012-09-23T10:04:21Z</time>
      </trkpt>
      <trkpt lat="47.88405" lon="-2.77328">
        <ele>96</ele>
        <time>2012-09-23T10:04:28Z</time>
      </trkpt>
      <trkpt lat="47.88397" lon="-2.77327">
        <ele>96</ele>
        <time>2012-09-23T10:04:35Z</time>
      </trkpt>
      <trkpt lat="47.8839" lon="-2.77321">
        <ele>98</ele>
        <time>2012-09-23T10:04:44Z</time>
      </trkpt>
      <trkpt lat="47.88383" lon="-2.77312">
        <ele>99</ele>
        <time>2012-09-23T10:04:53Z</time>
      </trkpt>
      <trkpt lat="47.88376" lon="-2.77304">
        <ele>100</ele>
        <time>2012-09-23T10:05:01Z</time>
      </trkpt>
      <trkpt lat="47.88369" lon="-2.77297">
        <ele>101</ele>
        <time>2012-09-23T10:05:09Z</time>
      </trkpt>
      <trkpt lat="47.88362" lon="-2.7729">
        <ele>101</ele>
        <time>2012-09-23T10:05:16Z</time>
      </trkpt>
      <trkpt lat="47.8837" lon="-2.77297">
        <ele>101</ele>
        <time>2012-09-23T10:06:03Z</time>
      </trkpt>
      <trkpt lat="47.88375" lon="-2.77307">
        <ele>101</ele>
        <time>2012-09-23T10:06:11Z</time>
      </trkpt>
      <trkpt lat="47.88378" lon="-2.77319">
        <ele>101</ele>
        <time>2012-09-23T10:06:19Z</time>
      </trkpt>
      <trkpt lat="47.88377" lon="-2.7733">
        <ele>100</ele>
        <time>2012-09-23T10:06:25Z</time>
      </trkpt>
      <trkpt lat="47.88376" lon="-2.77344">
        <ele>100</ele>
        <time>2012-09-23T10:06:32Z</time>
      </trkpt>
      <trkpt lat="47.88377" lon="-2.77357">
        <ele>99</ele>
        <time>2012-09-23T10:06:41Z</time>
      </trkpt>
      <trkpt lat="47.88374" lon="-2.77368">
        <ele>98</ele>
        <time>2012-09-23T10:06:48Z</time>
      </trkpt>
      <trkpt lat="47.88372" lon="-2.77381">
        <ele>98</ele>
        <time>2012-09-23T10:06:57Z</time>
      </trkpt>
      <trkpt lat="47.8837" lon="-2.77393">
        <ele>95</ele>
        <time>2012-09-23T10:07:07Z</time>
      </trkpt>
      <trkpt lat="47.88363" lon="-2.774">
        <ele>94</ele>
        <time>2012-09-23T10:07:12Z</time>
      </trkpt>
      <trkpt lat="47.88354" lon="-2.77402">
        <ele>93</ele>
        <time>2012-09-23T10:07:16Z</time>
      </trkpt>
      <trkpt lat="47.88344" lon="-2.77404">
        <ele>93</ele>
        <time>2012-09-23T10:07:20Z</time>
      </trkpt>
      <trkpt lat="47.88333" lon="-2.77406">
        <ele>92</ele>
        <time>2012-09-23T10:07:25Z</time>
      </trkpt>
      <trkpt lat="47.88322" lon="-2.77409">
        <ele>92</ele>
        <time>2012-09-23T10:07:30Z</time>
      </trkpt>
      <trkpt lat="47.88314" lon="-2.77411">
        <ele>92</ele>
        <time>2012-09-23T10:07:34Z</time>
      </trkpt>
      <trkpt lat="47.88306" lon="-2.77412">
        <ele>91</ele>
        <time>2012-09-23T10:07:40Z</time>
      </trkpt>
      <trkpt lat="47.88298" lon="-2.77418">
        <ele>91</ele>
        <time>2012-09-23T10:07:47Z</time>
      </trkpt>
      <trkpt lat="47.88291" lon="-2.77425">
        <ele>92</ele>
        <time>2012-09-23T10:07:54Z</time>
      </trkpt>
      <trkpt lat="47.88293" lon="-2.77437">
        <ele>92</ele>
        <time>2012-09-23T10:08:00Z</time>
      </trkpt>
      <trkpt lat="47.88297" lon="-2.77449">
        <ele>93</ele>
        <time>2012-09-23T10:08:07Z</time>
      </trkpt>
      <trkpt lat="47.88296" lon="-2.77461">
        <ele>94</ele>
        <time>2012-09-23T10:08:14Z</time>
      </trkpt>
      <trkpt lat="47.88293" lon="-2.77466">
        <ele>99</ele>
        <time>2012-09-23T10:08:28Z</time>
      </trkpt>
      <trkpt lat="47.88285" lon="-2.77471">
        <ele>97</ele>
        <time>2012-09-23T10:08:32Z</time>
      </trkpt>
      <trkpt lat="47.88287" lon="-2.77483">
        <ele>97</ele>
        <time>2012-09-23T10:08:39Z</time>
      </trkpt>
      <trkpt lat="47.88292" lon="-2.77492">
        <ele>97</ele>
        <time>2012-09-23T10:08:46Z</time>
      </trkpt>
      <trkpt lat="47.88297" lon="-2.77504">
        <ele>98</ele>
        <time>2012-09-23T10:08:53Z</time>
      </trkpt>
      <trkpt lat="47.88298" lon="-2.77517">
        <ele>100</ele>
        <time>2012-09-23T10:09:00Z</time>
      </trkpt>
      <trkpt lat="47.883" lon="-2.7753">
        <ele>102</ele>
        <time>2012-09-23T10:09:07Z</time>
      </trkpt>
      <trkpt lat="47.88299" lon="-2.77543">
        <ele>102</ele>
        <time>2012-09-23T10:09:14Z</time>
      </trkpt>
      <trkpt lat="47.88296" lon="-2.77554">
        <ele>103</ele>
        <time>2012-09-23T10:09:21Z</time>
      </trkpt>
      <trkpt lat="47.8829" lon="-2.77564">
        <ele>103</ele>
        <time>2012-09-23T10:09:28Z</time>
      </trkpt>
      <trkpt lat="47.88285" lon="-2.77573">
        <ele>103</ele>
        <time>2012-09-23T10:09:35Z</time>
      </trkpt>
      <trkpt lat="47.88278" lon="-2.77582">
        <ele>103</ele>
        <time>2012-09-23T10:09:42Z</time>
      </trkpt>
      <trkpt lat="47.88273" lon="-2.7759">
        <ele>103</ele>
        <time>2012-09-23T10:09:48Z</time>
      </trkpt>
      <trkpt lat="47.88266" lon="-2.77595">
        <ele>106</ele>
        <time>2012-09-23T10:09:57Z</time>
      </trkpt>
      <trkpt lat="47.88259" lon="-2.77604">
        <ele>108</ele>
        <time>2012-09-23T10:10:10Z</time>
      </trkpt>
      <trkpt lat="47.88255" lon="-2.77615">
        <ele>108</ele>
        <time>2012-09-23T10:10:17Z</time>
      </trkpt>
      <trkpt lat="47.8825" lon="-2.77626">
        <ele>110</ele>
        <time>2012-09-23T10:10:25Z</time>
      </trkpt>
      <trkpt lat="47.88243" lon="-2.77629">
        <ele>110</ele>
        <time>2012-09-23T10:10:30Z</time>
      </trkpt>
      <trkpt lat="47.88235" lon="-2.77631">
        <ele>110</ele>
        <time>2012-09-23T10:10:36Z</time>
      </trkpt>
      <trkpt lat="47.88228" lon="-2.77634">
        <ele>110</ele>
        <time>2012-09-23T10:10:40Z</time>
      </trkpt>
      <trkpt lat="47.8822" lon="-2.77635">
        <ele>111</ele>
        <time>2012-09-23T10:10:45Z</time>
      </trkpt>
      <trkpt lat="47.88212" lon="-2.77637">
        <ele>111</ele>
        <time>2012-09-23T10:10:50Z</time>
      </trkpt>
      <trkpt lat="47.88203" lon="-2.77639">
        <ele>111</ele>
        <time>2012-09-23T10:10:55Z</time>
      </trkpt>
      <trkpt lat="47.88196" lon="-2.77638">
        <ele>109</ele>
        <time>2012-09-23T10:11:00Z</time>
      </trkpt>
      <trkpt lat="47.88187" lon="-2.77635">
        <ele>108</ele>
        <time>2012-09-23T10:11:06Z</time>
      </trkpt>
      <trkpt lat="47.88179" lon="-2.77633">
        <ele>107</ele>
        <time>2012-09-23T10:11:13Z</time>
      </trkpt>
      <trkpt lat="47.88171" lon="-2.77631">
        <ele>107</ele>
        <time>2012-09-23T10:11:19Z</time>
      </trkpt>
      <trkpt lat="47.88163" lon="-2.77631">
        <ele>108</ele>
        <time>2012-09-23T10:11:26Z</time>
      </trkpt>
      <trkpt lat="47.88155" lon="-2.77629">
        <ele>108</ele>
        <time>2012-09-23T10:11:33Z</time>
      </trkpt>
      <trkpt lat="47.88146" lon="-2.77628">
        <ele>108</ele>
        <time>2012-09-23T10:11:40Z</time>
      </trkpt>
      <trkpt lat="47.88138" lon="-2.77627">
        <ele>108</ele>
        <time>2012-09-23T10:11:47Z</time>
      </trkpt>
      <trkpt lat="47.8813" lon="-2.77625">
        <ele>109</ele>
        <time>2012-09-23T10:11:54Z</time>
      </trkpt>
      <trkpt lat="47.88121" lon="-2.77622">
        <ele>109</ele>
        <time>2012-09-23T10:12:04Z</time>
      </trkpt>
      <trkpt lat="47.88112" lon="-2.77621">
        <ele>111</ele>
        <time>2012-09-23T10:12:12Z</time>
      </trkpt>
      <trkpt lat="47.88106" lon="-2.77613">
        <ele>111</ele>
        <time>2012-09-23T10:12:19Z</time>
      </trkpt>
      <trkpt lat="47.88101" lon="-2.77603">
        <ele>111</ele>
        <time>2012-09-23T10:12:26Z</time>
      </trkpt>
      <trkpt lat="47.88095" lon="-2.77593">
        <ele>111</ele>
        <time>2012-09-23T10:12:34Z</time>
      </trkpt>
      <trkpt lat="47.88088" lon="-2.77585">
        <ele>111</ele>
        <time>2012-09-23T10:12:41Z</time>
      </trkpt>
      <trkpt lat="47.88083" lon="-2.77577">
        <ele>112</ele>
        <time>2012-09-23T10:12:48Z</time>
      </trkpt>
      <trkpt lat="47.88077" lon="-2.77568">
        <ele>112</ele>
        <time>2012-09-23T10:12:55Z</time>
      </trkpt>
      <trkpt lat="47.88072" lon="-2.7756">
        <ele>113</ele>
        <time>2012-09-23T10:13:02Z</time>
      </trkpt>
      <trkpt lat="47.88065" lon="-2.77551">
        <ele>116</ele>
        <time>2012-09-23T10:13:10Z</time>
      </trkpt>
      <trkpt lat="47.88059" lon="-2.77544">
        <ele>117</ele>
        <time>2012-09-23T10:13:18Z</time>
      </trkpt>
      <trkpt lat="47.88052" lon="-2.77537">
        <ele>117</ele>
        <time>2012-09-23T10:13:23Z</time>
      </trkpt>
      <trkpt lat="47.88045" lon="-2.77529">
        <ele>117</ele>
        <time>2012-09-23T10:13:29Z</time>
      </trkpt>
      <trkpt lat="47.88039" lon="-2.77521">
        <ele>116</ele>
        <time>2012-09-23T10:13:35Z</time>
      </trkpt>
      <trkpt lat="47.88033" lon="-2.77513">
        <ele>117</ele>
        <time>2012-09-23T10:13:41Z</time>
      </trkpt>
      <trkpt lat="47.88026" lon="-2.77505">
        <ele>117</ele>
        <time>2012-09-23T10:13:47Z</time>
      </trkpt>
      <trkpt lat="47.8802" lon="-2.77498">
        <ele>118</ele>
        <time>2012-09-23T10:13:53Z</time>
      </trkpt>
      <trkpt lat="47.88014" lon="-2.77491">
        <ele>119</ele>
        <time>2012-09-23T10:13:59Z</time>
      </trkpt>
      <trkpt lat="47.88007" lon="-2.77483">
        <ele>119</ele>
        <time>2012-09-23T10:14:07Z</time>
      </trkpt>
      <trkpt lat="47.88002" lon="-2.77474">
        <ele>119</ele>
        <time>2012-09-23T10:14:14Z</time>
      </trkpt>
      <trkpt lat="47.87996" lon="-2.77465">
        <ele>120</ele>
        <time>2012-09-23T10:14:20Z</time>
      </trkpt>
      <trkpt lat="47.8799" lon="-2.77458">
        <ele>120</ele>
        <time>2012-09-23T10:14:26Z</time>
      </trkpt>
      <trkpt lat="47.87982" lon="-2.77464">
        <ele>122</ele>
        <time>2012-09-23T10:14:55Z</time>
      </trkpt>
      <trkpt lat="47.87978" lon="-2.77476">
        <ele>123</ele>
        <time>2012-09-23T10:15:02Z</time>
      </trkpt>
      <trkpt lat="47.87973" lon="-2.77486">
        <ele>124</ele>
        <time>2012-09-23T10:15:09Z</time>
      </trkpt>
      <trkpt lat="47.87965" lon="-2.77483">
        <ele>124</ele>
        <time>2012-09-23T10:15:17Z</time>
      </trkpt>
      <trkpt lat="47.87958" lon="-2.77475">
        <ele>124</ele>
        <time>2012-09-23T10:15:24Z</time>
      </trkpt>
      <trkpt lat="47.87953" lon="-2.77466">
        <ele>125</ele>
        <time>2012-09-23T10:15:31Z</time>
      </trkpt>
      <trkpt lat="47.87945" lon="-2.77459">
        <ele>125</ele>
        <time>2012-09-23T10:15:39Z</time>
      </trkpt>
      <trkpt lat="47.87936" lon="-2.77459">
        <ele>126</ele>
        <time>2012-09-23T10:15:54Z</time>
      </trkpt>
      <trkpt lat="47.87928" lon="-2.7746">
        <ele>126</ele>
        <time>2012-09-23T10:16:01Z</time>
      </trkpt>
      <trkpt lat="47.8792" lon="-2.77459">
        <ele>127</ele>
        <time>2012-09-23T10:16:09Z</time>
      </trkpt>
      <trkpt lat="47.87912" lon="-2.77457">
        <ele>127</ele>
        <time>2012-09-23T10:16:14Z</time>
      </trkpt>
      <trkpt lat="47.87904" lon="-2.77454">
        <ele>127</ele>
        <time>2012-09-23T10:16:21Z</time>
      </trkpt>
      <trkpt lat="47.87896" lon="-2.77451">
        <ele>127</ele>
        <time>2012-09-23T10:16:28Z</time>
      </trkpt>
      <trkpt lat="47.87887" lon="-2.77446">
        <ele>130</ele>
        <time>2012-09-23T10:16:36Z</time>
      </trkpt>
      <trkpt lat="47.8788" lon="-2.77449">
        <ele>132</ele>
        <time>2012-09-23T10:16:45Z</time>
      </trkpt>
      <trkpt lat="47.87872" lon="-2.77455">
        <ele>131</ele>
        <time>2012-09-23T10:16:52Z</time>
      </trkpt>
      <trkpt lat="47.87863" lon="-2.77458">
        <ele>131</ele>
        <time>2012-09-23T10:16:58Z</time>
      </trkpt>
      <trkpt lat="47.87855" lon="-2.77457">
        <ele>131</ele>
        <time>2012-09-23T10:17:04Z</time>
      </trkpt>
      <trkpt lat="47.87848" lon="-2.77452">
        <ele>130</ele>
        <time>2012-09-23T10:17:11Z</time>
      </trkpt>
      <trkpt lat="47.87844" lon="-2.7744">
        <ele>129</ele>
        <time>2012-09-23T10:17:17Z</time>
      </trkpt>
      <trkpt lat="47.87843" lon="-2.77429">
        <ele>128</ele>
        <time>2012-09-23T10:17:22Z</time>
      </trkpt>
      <trkpt lat="47.87843" lon="-2.77415">
        <ele>128</ele>
        <time>2012-09-23T10:17:28Z</time>
      </trkpt>
      <trkpt lat="47.87837" lon="-2.77407">
        <ele>128</ele>
        <time>2012-09-23T10:17:42Z</time>
      </trkpt>
      <trkpt lat="47.87831" lon="-2.77399">
        <ele>126</ele>
        <time>2012-09-23T10:17:49Z</time>
      </trkpt>
      <trkpt lat="47.87826" lon="-2.77389">
        <ele>125</ele>
        <time>2012-09-23T10:17:55Z</time>
      </trkpt>
      <trkpt lat="47.87821" lon="-2.77379">
        <ele>125</ele>
        <time>2012-09-23T10:18:01Z</time>
      </trkpt>
      <trkpt lat="47.87818" lon="-2.77367">
        <ele>124</ele>
        <time>2012-09-23T10:18:07Z</time>
      </trkpt>
      <trkpt lat="47.87817" lon="-2.7736">
        <ele>121</ele>
        <time>2012-09-23T10:19:46Z</time>
      </trkpt>
      <trkpt lat="47.87817" lon="-2.7736">
        <ele>121</ele>
        <time>2012-09-23T10:19:46Z</time>
      </trkpt>
    </trkseg>
  </trk>
</gpx>